<?xml version='1.0' encoding='UTF-8'?><gpx version="1.1" creator="JPX - https://github.com/jenetics/jpx" xmlns="http://www.topografix.com/GPX/1/1"><trk><trkseg><trkpt lat="45.44339635170055" lon="11.07468744771125"><ele>56.0</ele><time>2026-04-20T12:29:37Z</time></trkpt><trkpt lat="45.44345654015912" lon="11.074648552206488"><ele>56.0</ele><time>2026-04-20T12:29:43Z</time></trkpt><trkpt lat="45.44352587746678" lon="11.074624982982302"><ele>56.0</ele><time>2026-04-20T12:29:50Z</time></trkpt><trkpt lat="45.44359440531295" lon="11.074585264044215"><ele>56.0</ele><time>2026-04-20T12:29:59Z</time></trkpt><trkpt lat="45.44365496080525" lon="11.074556323903698"><ele>56.0</ele><time>2026-04-20T12:30:04.999Z</time></trkpt><trkpt lat="45.44371974831001" lon="11.0745341523155"><ele>56.0</ele><time>2026-04-20T12:30:09.999Z</time></trkpt><trkpt lat="45.443786323206304" lon="11.07451142666292"><ele>56.0</ele><time>2026-04-20T12:30:15.999Z</time></trkpt><trkpt lat="45.44386093536701" lon="11.074550292389409"><ele>55.714285714285715</ele><time>2026-04-20T12:30:22.999Z</time></trkpt><trkpt lat="45.44391509040841" lon="11.07449857767248"><ele>55.42857142857143</ele><time>2026-04-20T12:30:26.999Z</time></trkpt><trkpt lat="45.44398554977535" lon="11.074501980731158"><ele>55.14285714285714</ele><time>2026-04-20T12:30:37.999Z</time></trkpt><trkpt lat="45.44405375688788" lon="11.074500493620754"><ele>54.85714285714286</ele><time>2026-04-20T12:30:54.999Z</time></trkpt><trkpt lat="45.444111392474106" lon="11.074450894198737"><ele>54.57142857142857</ele><time>2026-04-20T12:30:58.999Z</time></trkpt><trkpt lat="45.444028444845756" lon="11.074439288186307"><ele>54.285714285714285</ele><time>2026-04-20T12:31:04.999Z</time></trkpt><trkpt lat="45.44396471317607" lon="11.074466491223232"><ele>54.0</ele><time>2026-04-20T12:31:12.999Z</time></trkpt><trkpt lat="45.44389703500145" lon="11.074492286619634"><ele>54.0</ele><time>2026-04-20T12:31:16.999Z</time></trkpt><trkpt lat="45.44383156759275" lon="11.07451316417086"><ele>54.0</ele><time>2026-04-20T12:31:22.999Z</time></trkpt><trkpt lat="45.443763043417334" lon="11.074499815741506"><ele>54.0</ele><time>2026-04-20T12:31:27.999Z</time></trkpt><trkpt lat="45.443699932138315" lon="11.074551112297053"><ele>54.0</ele><time>2026-04-20T12:31:32.998Z</time></trkpt><trkpt lat="45.443635095511546" lon="11.0745622852745"><ele>54.0</ele><time>2026-04-20T12:31:38.998Z</time></trkpt><trkpt lat="45.443569135611575" lon="11.074570742506188"><ele>54.0</ele><time>2026-04-20T12:31:43.998Z</time></trkpt><trkpt lat="45.44350015637556" lon="11.074576031448633"><ele>54.0</ele><time>2026-04-20T12:31:48.999Z</time></trkpt><trkpt lat="45.44342849490451" lon="11.074596331939974"><ele>54.14285714285714</ele><time>2026-04-20T12:31:54.999Z</time></trkpt><trkpt lat="45.44337080657552" lon="11.074650677585918"><ele>54.285714285714285</ele><time>2026-04-20T12:31:59.999Z</time></trkpt><trkpt lat="45.44330210023422" lon="11.074690296033966"><ele>54.42857142857143</ele><time>2026-04-20T12:32:04.999Z</time></trkpt><trkpt lat="45.44325229114291" lon="11.07475527354307"><ele>54.57142857142857</ele><time>2026-04-20T12:32:12.999Z</time></trkpt><trkpt lat="45.4431824516493" lon="11.074788772280597"><ele>54.714285714285715</ele><time>2026-04-20T12:32:20.999Z</time></trkpt><trkpt lat="45.44311547407079" lon="11.074819774664142"><ele>54.857142857142854</ele><time>2026-04-20T12:32:27.999Z</time></trkpt><trkpt lat="45.44312647940775" lon="11.074909590045404"><ele>55.0</ele><time>2026-04-20T12:32:32.999Z</time></trkpt><trkpt lat="45.44314441473925" lon="11.075005684951332"><ele>54.99999999999999</ele><time>2026-04-20T12:32:38.999Z</time></trkpt><trkpt lat="45.443171493530095" lon="11.075093846202122"><ele>55.0</ele><time>2026-04-20T12:32:43.999Z</time></trkpt><trkpt lat="45.44318499739955" lon="11.075193493171437"><ele>55.0</ele><time>2026-04-20T12:32:48.999Z</time></trkpt><trkpt lat="45.44320256996534" lon="11.075282846345837"><ele>55.0</ele><time>2026-04-20T12:32:54.999Z</time></trkpt><trkpt lat="45.443212519716965" lon="11.075411407889495"><ele>55.0</ele><time>2026-04-20T12:33:00.999Z</time></trkpt><trkpt lat="45.44322081755184" lon="11.075506707335375"><ele>54.99999999999999</ele><time>2026-04-20T12:33:05.999Z</time></trkpt><trkpt lat="45.443216570977846" lon="11.075606591001142"><ele>55.0</ele><time>2026-04-20T12:33:11.999Z</time></trkpt><trkpt lat="45.44325783858805" lon="11.075678728036848"><ele>54.99999999999999</ele><time>2026-04-20T12:33:15.999Z</time></trkpt><trkpt lat="45.44328551032036" lon="11.075766545419388"><ele>55.0</ele><time>2026-04-20T12:33:20.999Z</time></trkpt><trkpt lat="45.44330022193771" lon="11.075860874841796"><ele>55.0</ele><time>2026-04-20T12:33:26.999Z</time></trkpt><trkpt lat="45.44330920868635" lon="11.075956371999991"><ele>55.0</ele><time>2026-04-20T12:33:32.999Z</time></trkpt><trkpt lat="45.44333845253517" lon="11.076050677801623"><ele>55.0</ele><time>2026-04-20T12:33:37.999Z</time></trkpt><trkpt lat="45.4433444564304" lon="11.076165498013209"><ele>54.99999999999999</ele><time>2026-04-20T12:33:44.998Z</time></trkpt><trkpt lat="45.44334996246804" lon="11.076257635640806"><ele>55.0</ele><time>2026-04-20T12:33:48.998Z</time></trkpt><trkpt lat="45.443372403821094" lon="11.076352572897303"><ele>54.71428571428571</ele><time>2026-04-20T12:33:53.999Z</time></trkpt><trkpt lat="45.443383513901225" lon="11.076452613578175"><ele>54.42857142857143</ele><time>2026-04-20T12:33:59.999Z</time></trkpt><trkpt lat="45.443389455284056" lon="11.076545050551484"><ele>54.14285714285714</ele><time>2026-04-20T12:34:04.999Z</time></trkpt><trkpt lat="45.44340649808708" lon="11.076640314376197"><ele>53.857142857142854</ele><time>2026-04-20T12:34:08.999Z</time></trkpt><trkpt lat="45.44340824595756" lon="11.0767483805522"><ele>53.57142857142857</ele><time>2026-04-20T12:34:14.999Z</time></trkpt><trkpt lat="45.443415709423455" lon="11.076849782984953"><ele>53.285714285714285</ele><time>2026-04-20T12:34:19.999Z</time></trkpt><trkpt lat="45.443408991164866" lon="11.076943890153007"><ele>53.0</ele><time>2026-04-20T12:34:24.999Z</time></trkpt><trkpt lat="45.44341567006195" lon="11.077042672058987"><ele>52.714285714285715</ele><time>2026-04-20T12:34:29.999Z</time></trkpt><trkpt lat="45.44340568650635" lon="11.077141082133718"><ele>52.42857142857142</ele><time>2026-04-20T12:34:35.999Z</time></trkpt><trkpt lat="45.443394375122935" lon="11.077237303885305"><ele>52.14285714285714</ele><time>2026-04-20T12:34:40.999Z</time></trkpt><trkpt lat="45.44340054513072" lon="11.077329798999907"><ele>51.85714285714286</ele><time>2026-04-20T12:34:45.999Z</time></trkpt><trkpt lat="45.44340107732563" lon="11.07742660688716"><ele>51.57142857142857</ele><time>2026-04-20T12:34:50.999Z</time></trkpt><trkpt lat="45.443400912107066" lon="11.077524110414524"><ele>51.285714285714285</ele><time>2026-04-20T12:34:58.999Z</time></trkpt><trkpt lat="45.44340097568921" lon="11.077616213747776"><ele>51.0</ele><time>2026-04-20T12:35:03.999Z</time></trkpt><trkpt lat="45.44340172033649" lon="11.077714117476097"><ele>50.85714285714286</ele><time>2026-04-20T12:35:08.999Z</time></trkpt><trkpt lat="45.44338079386512" lon="11.077808080744994"><ele>50.714285714285715</ele><time>2026-04-20T12:35:13.999Z</time></trkpt><trkpt lat="45.443369396132724" lon="11.077900963984286"><ele>50.57142857142857</ele><time>2026-04-20T12:35:18.999Z</time></trkpt><trkpt lat="45.443351323639575" lon="11.077991539965728"><ele>50.42857142857143</ele><time>2026-04-20T12:35:23.999Z</time></trkpt><trkpt lat="45.4433554054491" lon="11.078087772922222"><ele>50.285714285714285</ele><time>2026-04-20T12:35:28.999Z</time></trkpt><trkpt lat="45.44335677287039" lon="11.078181759531345"><ele>50.142857142857146</ele><time>2026-04-20T12:35:33.999Z</time></trkpt><trkpt lat="45.44336741699144" lon="11.078323040934075"><ele>50.0</ele><time>2026-04-20T12:36:26.999Z</time></trkpt><trkpt lat="45.44338742633061" lon="11.07843098865609"><ele>49.85714285714286</ele><time>2026-04-20T12:36:31.999Z</time></trkpt><trkpt lat="45.443363226522514" lon="11.078524398178761"><ele>49.714285714285715</ele><time>2026-04-20T12:36:38.999Z</time></trkpt><trkpt lat="45.44336144338212" lon="11.078617662880466"><ele>49.57142857142857</ele><time>2026-04-20T12:36:45Z</time></trkpt><trkpt lat="45.44333530342248" lon="11.078708519840003"><ele>49.42857142857143</ele><time>2026-04-20T12:36:50Z</time></trkpt><trkpt lat="45.443329153067644" lon="11.078814782990126"><ele>49.285714285714285</ele><time>2026-04-20T12:36:55Z</time></trkpt><trkpt lat="45.443305559647136" lon="11.07890557116473"><ele>49.142857142857146</ele><time>2026-04-20T12:37:00Z</time></trkpt><trkpt lat="45.44330032026044" lon="11.079006850996407"><ele>49.0</ele><time>2026-04-20T12:37:05Z</time></trkpt><trkpt lat="45.44327874994635" lon="11.079100088705438"><ele>49.0</ele><time>2026-04-20T12:37:10Z</time></trkpt><trkpt lat="45.44326804904155" lon="11.079202423904968"><ele>49.0</ele><time>2026-04-20T12:37:15Z</time></trkpt><trkpt lat="45.44324914224117" lon="11.079296705748346"><ele>49.0</ele><time>2026-04-20T12:37:20Z</time></trkpt><trkpt lat="45.44323484760545" lon="11.079385028969192"><ele>49.0</ele><time>2026-04-20T12:37:25Z</time></trkpt><trkpt lat="45.4432492478241" lon="11.07948592021779"><ele>49.0</ele><time>2026-04-20T12:37:30Z</time></trkpt><trkpt lat="45.443267321475346" lon="11.07958801381412"><ele>49.0</ele><time>2026-04-20T12:37:35Z</time></trkpt><trkpt lat="45.44331141538916" lon="11.07967730001929"><ele>49.0</ele><time>2026-04-20T12:37:43Z</time></trkpt><trkpt lat="45.44332775663757" lon="11.079774361399398"><ele>49.0</ele><time>2026-04-20T12:37:48Z</time></trkpt><trkpt lat="45.44334665833587" lon="11.07987015031476"><ele>49.0</ele><time>2026-04-20T12:37:52.999Z</time></trkpt><trkpt lat="45.44335377286379" lon="11.079967380995313"><ele>49.0</ele><time>2026-04-20T12:37:57.999Z</time></trkpt><trkpt lat="45.44335605860927" lon="11.080078842356416"><ele>49.0</ele><time>2026-04-20T12:38:03Z</time></trkpt><trkpt lat="45.44335667887053" lon="11.0801691807346"><ele>49.0</ele><time>2026-04-20T12:38:07Z</time></trkpt><trkpt lat="45.44334920934692" lon="11.080274422025536"><ele>49.0</ele><time>2026-04-20T12:38:12Z</time></trkpt><trkpt lat="45.4433608443239" lon="11.080370375312025"><ele>49.0</ele><time>2026-04-20T12:38:17Z</time></trkpt><trkpt lat="45.443351414021855" lon="11.080478154014852"><ele>49.0</ele><time>2026-04-20T12:38:22Z</time></trkpt><trkpt lat="45.443361017201326" lon="11.080586981685178"><ele>49.0</ele><time>2026-04-20T12:38:27Z</time></trkpt><trkpt lat="45.44333976792233" lon="11.080685950899266"><ele>49.0</ele><time>2026-04-20T12:38:32Z</time></trkpt><trkpt lat="45.44331906053228" lon="11.080776557444581"><ele>49.0</ele><time>2026-04-20T12:38:37Z</time></trkpt><trkpt lat="45.443294141874155" lon="11.080878365466507"><ele>49.0</ele><time>2026-04-20T12:38:42Z</time></trkpt><trkpt lat="45.44328150920719" lon="11.080971833048032"><ele>49.0</ele><time>2026-04-20T12:38:47Z</time></trkpt><trkpt lat="45.44327736141167" lon="11.08107398549171"><ele>49.0</ele><time>2026-04-20T12:38:52Z</time></trkpt><trkpt lat="45.44330781879339" lon="11.081162789835428"><ele>49.0</ele><time>2026-04-20T12:39:04Z</time></trkpt><trkpt lat="45.44337150805788" lon="11.081184922372966"><ele>49.0</ele><time>2026-04-20T12:39:08Z</time></trkpt><trkpt lat="45.443434515188684" lon="11.081172645932485"><ele>49.0</ele><time>2026-04-20T12:39:11Z</time></trkpt><trkpt lat="45.44350918995848" lon="11.081135375948955"><ele>49.0</ele><time>2026-04-20T12:39:16Z</time></trkpt><trkpt lat="45.44357412013576" lon="11.081116029286065"><ele>49.0</ele><time>2026-04-20T12:39:21.001Z</time></trkpt><trkpt lat="45.44364435536833" lon="11.081084363721013"><ele>49.0</ele><time>2026-04-20T12:39:26.001Z</time></trkpt><trkpt lat="45.443714685902826" lon="11.081058057089026"><ele>49.0</ele><time>2026-04-20T12:39:31.001Z</time></trkpt><trkpt lat="45.443778699008725" lon="11.081010342275492"><ele>49.285714285714285</ele><time>2026-04-20T12:39:36.001Z</time></trkpt><trkpt lat="45.44384538432003" lon="11.080994175246579"><ele>49.57142857142857</ele><time>2026-04-20T12:39:41.001Z</time></trkpt><trkpt lat="45.44391488173942" lon="11.08097091944809"><ele>49.85714285714286</ele><time>2026-04-20T12:39:46.001Z</time></trkpt><trkpt lat="45.44398870081304" lon="11.08094223735057"><ele>50.14285714285714</ele><time>2026-04-20T12:39:52.001Z</time></trkpt><trkpt lat="45.44405860436393" lon="11.080908084841472"><ele>50.42857142857143</ele><time>2026-04-20T12:39:57.001Z</time></trkpt><trkpt lat="45.44412022096981" lon="11.080874660898226"><ele>50.714285714285715</ele><time>2026-04-20T12:40:02.001Z</time></trkpt><trkpt lat="45.44419337489257" lon="11.080855940832679"><ele>51.0</ele><time>2026-04-20T12:40:07.001Z</time></trkpt><trkpt lat="45.444258058905106" lon="11.08083121209228"><ele>51.0</ele><time>2026-04-20T12:40:12.001Z</time></trkpt><trkpt lat="45.44432453680305" lon="11.080799726213726"><ele>51.0</ele><time>2026-04-20T12:40:17.001Z</time></trkpt><trkpt lat="45.44439017135428" lon="11.080782958765207"><ele>51.0</ele><time>2026-04-20T12:40:22.001Z</time></trkpt><trkpt lat="45.44445636070385" lon="11.080761115992411"><ele>51.0</ele><time>2026-04-20T12:40:27.001Z</time></trkpt><trkpt lat="45.444521227448675" lon="11.080736257377417"><ele>51.0</ele><time>2026-04-20T12:40:32.001Z</time></trkpt><trkpt lat="45.44459761138704" lon="11.080733541669305"><ele>51.0</ele><time>2026-04-20T12:40:37.001Z</time></trkpt><trkpt lat="45.4446655918437" lon="11.080707804585957"><ele>51.0</ele><time>2026-04-20T12:40:42.001Z</time></trkpt><trkpt lat="45.44473922318241" lon="11.08071721970379"><ele>50.57142857142857</ele><time>2026-04-20T12:40:47.001Z</time></trkpt><trkpt lat="45.44480748239338" lon="11.080690569823105"><ele>50.142857142857146</ele><time>2026-04-20T12:40:52.001Z</time></trkpt><trkpt lat="45.444875294191405" lon="11.08071553389486"><ele>49.71428571428571</ele><time>2026-04-20T12:40:57.001Z</time></trkpt><trkpt lat="45.444949366670286" lon="11.08072490115448"><ele>49.285714285714285</ele><time>2026-04-20T12:41:03.001Z</time></trkpt><trkpt lat="45.44502483497182" lon="11.080716936545828"><ele>48.857142857142854</ele><time>2026-04-20T12:41:09.001Z</time></trkpt><trkpt lat="45.44508778154374" lon="11.080713900576217"><ele>48.42857142857142</ele><time>2026-04-20T12:41:14.001Z</time></trkpt><trkpt lat="45.445162535968414" lon="11.080712863449858"><ele>48.0</ele><time>2026-04-20T12:41:20.001Z</time></trkpt><trkpt lat="45.445230918061604" lon="11.080706600001115"><ele>47.99999999999999</ele><time>2026-04-20T12:41:26.001Z</time></trkpt><trkpt lat="45.44528531480398" lon="11.080643922179732"><ele>48.0</ele><time>2026-04-20T12:41:35.001Z</time></trkpt><trkpt lat="45.445353355626665" lon="11.080626381607903"><ele>48.0</ele><time>2026-04-20T12:41:41.001Z</time></trkpt><trkpt lat="45.44542906437767" lon="11.080613087442284"><ele>48.0</ele><time>2026-04-20T12:41:46.001Z</time></trkpt><trkpt lat="45.44550014259002" lon="11.080593264032363"><ele>48.0</ele><time>2026-04-20T12:41:51.001Z</time></trkpt><trkpt lat="45.445570547131915" lon="11.080559680738894"><ele>47.99999999999999</ele><time>2026-04-20T12:41:56.001Z</time></trkpt><trkpt lat="45.44563983678627" lon="11.080530511675224"><ele>48.0</ele><time>2026-04-20T12:42:01.001Z</time></trkpt><trkpt lat="45.44570277689846" lon="11.08049271048646"><ele>48.71428571428571</ele><time>2026-04-20T12:42:06.002Z</time></trkpt><trkpt lat="45.44577247533579" lon="11.080470132784907"><ele>49.42857142857143</ele><time>2026-04-20T12:42:11.002Z</time></trkpt><trkpt lat="45.445837712404554" lon="11.08044410160876"><ele>50.14285714285714</ele><time>2026-04-20T12:42:16.001Z</time></trkpt><trkpt lat="45.44590676554448" lon="11.080407214916086"><ele>50.857142857142854</ele><time>2026-04-20T12:42:21.001Z</time></trkpt><trkpt lat="45.445973092522586" lon="11.08039204115557"><ele>51.57142857142857</ele><time>2026-04-20T12:42:26.001Z</time></trkpt><trkpt lat="45.44603505811708" lon="11.08035003450753"><ele>52.285714285714285</ele><time>2026-04-20T12:42:31.001Z</time></trkpt><trkpt lat="45.44610083014332" lon="11.080335901758927"><ele>53.0</ele><time>2026-04-20T12:42:36.001Z</time></trkpt><trkpt lat="45.44616661832481" lon="11.080336495663396"><ele>53.0</ele><time>2026-04-20T12:42:41.001Z</time></trkpt><trkpt lat="45.44623306411207" lon="11.08031047502924"><ele>53.0</ele><time>2026-04-20T12:42:46.001Z</time></trkpt><trkpt lat="45.44629464471526" lon="11.080285947674625"><ele>53.0</ele><time>2026-04-20T12:42:51.001Z</time></trkpt><trkpt lat="45.446357900724884" lon="11.080290217478108"><ele>53.0</ele><time>2026-04-20T12:42:56.001Z</time></trkpt><trkpt lat="45.44642947285052" lon="11.080310808863937"><ele>53.0</ele><time>2026-04-20T12:43:02.001Z</time></trkpt><trkpt lat="45.44649942082071" lon="11.080302051618043"><ele>53.0</ele><time>2026-04-20T12:43:07.001Z</time></trkpt><trkpt lat="45.44656647732852" lon="11.080279009430201"><ele>53.0</ele><time>2026-04-20T12:43:12.001Z</time></trkpt><trkpt lat="45.4466295823775" lon="11.080276898907709"><ele>53.57142857142857</ele><time>2026-04-20T12:43:17.001Z</time></trkpt><trkpt lat="45.44670345317621" lon="11.080279146805141"><ele>54.14285714285714</ele><time>2026-04-20T12:43:22.001Z</time></trkpt><trkpt lat="45.44677412544532" lon="11.080264972280768"><ele>54.71428571428571</ele><time>2026-04-20T12:43:27.001Z</time></trkpt><trkpt lat="45.44684189162798" lon="11.080290043510606"><ele>55.285714285714285</ele><time>2026-04-20T12:43:32.001Z</time></trkpt><trkpt lat="45.44690802872231" lon="11.080254706011987"><ele>55.85714285714285</ele><time>2026-04-20T12:43:37.001Z</time></trkpt><trkpt lat="45.4469693707197" lon="11.080283635021585"><ele>56.42857142857142</ele><time>2026-04-20T12:43:42.001Z</time></trkpt><trkpt lat="45.447037108739444" lon="11.080294363255986"><ele>57.0</ele><time>2026-04-20T12:43:47.001Z</time></trkpt><trkpt lat="45.4471069830175" lon="11.080284690142436"><ele>57.14285714285714</ele><time>2026-04-20T12:43:52.001Z</time></trkpt><trkpt lat="45.44717713397737" lon="11.080274959342304"><ele>57.28571428571428</ele><time>2026-04-20T12:43:57.001Z</time></trkpt><trkpt lat="45.447248008396606" lon="11.080271600464277"><ele>57.42857142857143</ele><time>2026-04-20T12:44:02.001Z</time></trkpt><trkpt lat="45.447322632671046" lon="11.08026705645807"><ele>57.57142857142857</ele><time>2026-04-20T12:44:08.001Z</time></trkpt><trkpt lat="45.447390745814964" lon="11.080247657661095"><ele>57.714285714285715</ele><time>2026-04-20T12:44:17.001Z</time></trkpt><trkpt lat="45.44746345858791" lon="11.080234198485295"><ele>57.85714285714286</ele><time>2026-04-20T12:44:22.001Z</time></trkpt><trkpt lat="45.44752588170129" lon="11.080220247005917"><ele>58.00000000000001</ele><time>2026-04-20T12:44:27.001Z</time></trkpt><trkpt lat="45.44759668058976" lon="11.08023361818309"><ele>58.00000000000001</ele><time>2026-04-20T12:44:32.001Z</time></trkpt><trkpt lat="45.44765781040446" lon="11.08020627633409"><ele>58.0</ele><time>2026-04-20T12:44:37.001Z</time></trkpt><trkpt lat="45.44772340717719" lon="11.080196804432672"><ele>58.00000000000001</ele><time>2026-04-20T12:44:44.001Z</time></trkpt><trkpt lat="45.447787613028865" lon="11.080168994628993"><ele>58.00000000000001</ele><time>2026-04-20T12:44:51.001Z</time></trkpt><trkpt lat="45.4478510871355" lon="11.08013399130817"><ele>58.0</ele><time>2026-04-20T12:44:56.001Z</time></trkpt><trkpt lat="45.44791738842863" lon="11.080110443776533"><ele>58.00000000000001</ele><time>2026-04-20T12:45:01.001Z</time></trkpt><trkpt lat="45.44799235194294" lon="11.080130009812835"><ele>58.00000000000001</ele><time>2026-04-20T12:45:06Z</time></trkpt><trkpt lat="45.44805820931118" lon="11.080129276314135"><ele>58.14285714285715</ele><time>2026-04-20T12:45:11Z</time></trkpt><trkpt lat="45.448124553369865" lon="11.080102167706578"><ele>58.28571428571429</ele><time>2026-04-20T12:45:16Z</time></trkpt><trkpt lat="45.44819489152252" lon="11.08009036316343"><ele>58.42857142857143</ele><time>2026-04-20T12:45:21Z</time></trkpt><trkpt lat="45.448264311570824" lon="11.080067313853522"><ele>58.57142857142858</ele><time>2026-04-20T12:45:26Z</time></trkpt><trkpt lat="45.448329659523445" lon="11.080067549099658"><ele>58.71428571428572</ele><time>2026-04-20T12:45:31Z</time></trkpt><trkpt lat="45.44839312573783" lon="11.080023878438682"><ele>58.857142857142854</ele><time>2026-04-20T12:45:37Z</time></trkpt><trkpt lat="45.44846860778875" lon="11.080036987134088"><ele>59.0</ele><time>2026-04-20T12:45:42Z</time></trkpt><trkpt lat="45.44853747204822" lon="11.080034392886482"><ele>59.0</ele><time>2026-04-20T12:45:47Z</time></trkpt><trkpt lat="45.44860053625371" lon="11.080045096418324"><ele>59.0</ele><time>2026-04-20T12:45:51Z</time></trkpt><trkpt lat="45.448666606229416" lon="11.080049065236226"><ele>59.0</ele><time>2026-04-20T12:45:56Z</time></trkpt><trkpt lat="45.44873090368372" lon="11.080062270046131"><ele>59.0</ele><time>2026-04-20T12:46:01Z</time></trkpt><trkpt lat="45.44879862454482" lon="11.080042075980641"><ele>59.0</ele><time>2026-04-20T12:46:06Z</time></trkpt><trkpt lat="45.448865042914484" lon="11.080047282435608"><ele>59.0</ele><time>2026-04-20T12:46:11Z</time></trkpt><trkpt lat="45.44892982252034" lon="11.080043664708182"><ele>59.0</ele><time>2026-04-20T12:46:16.001Z</time></trkpt><trkpt lat="45.4490038843544" lon="11.08004737435737"><ele>58.71428571428571</ele><time>2026-04-20T12:46:21.001Z</time></trkpt><trkpt lat="45.44907216853616" lon="11.080053217773782"><ele>58.42857142857143</ele><time>2026-04-20T12:46:26.001Z</time></trkpt><trkpt lat="45.44913998410694" lon="11.080064857053072"><ele>58.14285714285714</ele><time>2026-04-20T12:46:31.001Z</time></trkpt><trkpt lat="45.44921846983251" lon="11.080092137190551"><ele>57.857142857142854</ele><time>2026-04-20T12:46:36.001Z</time></trkpt><trkpt lat="45.449287401706066" lon="11.080064965743338"><ele>57.57142857142857</ele><time>2026-04-20T12:46:40.001Z</time></trkpt><trkpt lat="45.44935947562446" lon="11.080072280939012"><ele>57.285714285714285</ele><time>2026-04-20T12:46:45.001Z</time></trkpt><trkpt lat="45.44942978851639" lon="11.080033224740204"><ele>57.0</ele><time>2026-04-20T12:46:51Z</time></trkpt><trkpt lat="45.449476884583724" lon="11.079961132497484"><ele>56.14285714285714</ele><time>2026-04-20T12:46:56Z</time></trkpt><trkpt lat="45.44954118094973" lon="11.079927558391397"><ele>55.28571428571428</ele><time>2026-04-20T12:47:03Z</time></trkpt><trkpt lat="45.44960850188569" lon="11.079894562629871"><ele>54.42857142857143</ele><time>2026-04-20T12:47:09Z</time></trkpt><trkpt lat="45.44966728846665" lon="11.079844720865172"><ele>53.57142857142857</ele><time>2026-04-20T12:47:14Z</time></trkpt><trkpt lat="45.44974060655283" lon="11.079813249320118"><ele>52.714285714285715</ele><time>2026-04-20T12:47:19Z</time></trkpt><trkpt lat="45.44980194924012" lon="11.079772114602148"><ele>51.85714285714286</ele><time>2026-04-20T12:47:24Z</time></trkpt><trkpt lat="45.449868334186284" lon="11.079764848311717"><ele>51.0</ele><time>2026-04-20T12:47:29Z</time></trkpt><trkpt lat="45.44993294443335" lon="11.079749033684529"><ele>51.0</ele><time>2026-04-20T12:47:43Z</time></trkpt><trkpt lat="45.450006233354" lon="11.079750482150931"><ele>51.0</ele><time>2026-04-20T12:47:48Z</time></trkpt><trkpt lat="45.45007929836129" lon="11.079741744181831"><ele>51.0</ele><time>2026-04-20T12:47:53Z</time></trkpt><trkpt lat="45.45014124861636" lon="11.079716430276745"><ele>51.0</ele><time>2026-04-20T12:47:58Z</time></trkpt><trkpt lat="45.45020748619" lon="11.079733076784336"><ele>51.0</ele><time>2026-04-20T12:48:03Z</time></trkpt><trkpt lat="45.450284265830554" lon="11.079741635318646"><ele>51.0</ele><time>2026-04-20T12:48:08Z</time></trkpt><trkpt lat="45.45034865234728" lon="11.079739800753838"><ele>51.0</ele><time>2026-04-20T12:48:13Z</time></trkpt><trkpt lat="45.450416341361766" lon="11.07973897044307"><ele>51.142857142857146</ele><time>2026-04-20T12:48:18Z</time></trkpt><trkpt lat="45.45048654009534" lon="11.079734971668035"><ele>51.28571428571429</ele><time>2026-04-20T12:48:24.001Z</time></trkpt><trkpt lat="45.45055754480337" lon="11.079715659578943"><ele>51.42857142857143</ele><time>2026-04-20T12:48:29.001Z</time></trkpt><trkpt lat="45.45062887111536" lon="11.079726899447252"><ele>51.57142857142857</ele><time>2026-04-20T12:48:34.001Z</time></trkpt><trkpt lat="45.450700706137866" lon="11.079725548126715"><ele>51.714285714285715</ele><time>2026-04-20T12:48:39Z</time></trkpt><trkpt lat="45.45077212726875" lon="11.079721567955024"><ele>51.857142857142854</ele><time>2026-04-20T12:48:44Z</time></trkpt><trkpt lat="45.450849101623405" lon="11.079718123862449"><ele>52.0</ele><time>2026-04-20T12:48:49Z</time></trkpt><trkpt lat="45.450912807703865" lon="11.079726278268536"><ele>52.0</ele><time>2026-04-20T12:48:54Z</time></trkpt><trkpt lat="45.45098541111846" lon="11.079718113891111"><ele>52.0</ele><time>2026-04-20T12:48:59Z</time></trkpt><trkpt lat="45.451063009398844" lon="11.079709160596257"><ele>52.0</ele><time>2026-04-20T12:49:05Z</time></trkpt><trkpt lat="45.45113394808128" lon="11.07968756122463"><ele>52.0</ele><time>2026-04-20T12:49:10Z</time></trkpt><trkpt lat="45.45120814578639" lon="11.079671350964592"><ele>52.0</ele><time>2026-04-20T12:49:16Z</time></trkpt><trkpt lat="45.451273874035955" lon="11.079674654679165"><ele>52.0</ele><time>2026-04-20T12:49:21Z</time></trkpt><trkpt lat="45.45134057070108" lon="11.079666533452237"><ele>52.0</ele><time>2026-04-20T12:49:26Z</time></trkpt><trkpt lat="45.45141015138496" lon="11.079671277418763"><ele>52.285714285714285</ele><time>2026-04-20T12:49:31Z</time></trkpt><trkpt lat="45.45147629978888" lon="11.079658729254039"><ele>52.57142857142858</ele><time>2026-04-20T12:49:36Z</time></trkpt><trkpt lat="45.45154013068476" lon="11.07968251553961"><ele>52.85714285714286</ele><time>2026-04-20T12:49:41Z</time></trkpt><trkpt lat="45.451616547049476" lon="11.079663031334858"><ele>53.14285714285714</ele><time>2026-04-20T12:49:46Z</time></trkpt><trkpt lat="45.451681715612054" lon="11.079665890516768"><ele>53.42857142857143</ele><time>2026-04-20T12:49:51Z</time></trkpt><trkpt lat="45.45174874685242" lon="11.079667300500315"><ele>53.714285714285715</ele><time>2026-04-20T12:49:56Z</time></trkpt><trkpt lat="45.451822586397476" lon="11.07965445529735"><ele>54.0</ele><time>2026-04-20T12:50:01Z</time></trkpt><trkpt lat="45.45189141357262" lon="11.07966664274845"><ele>54.0</ele><time>2026-04-20T12:50:06Z</time></trkpt><trkpt lat="45.45195934093834" lon="11.07968165594911"><ele>54.0</ele><time>2026-04-20T12:50:11Z</time></trkpt><trkpt lat="45.45202121538601" lon="11.079641658584713"><ele>54.0</ele><time>2026-04-20T12:50:15.999Z</time></trkpt><trkpt lat="45.45209495256891" lon="11.079641836245203"><ele>54.0</ele><time>2026-04-20T12:50:21.999Z</time></trkpt><trkpt lat="45.45216446173023" lon="11.079635408375335"><ele>54.0</ele><time>2026-04-20T12:50:27Z</time></trkpt><trkpt lat="45.452227545938456" lon="11.079669507588292"><ele>54.0</ele><time>2026-04-20T12:50:32Z</time></trkpt><trkpt lat="45.45229029947167" lon="11.079639359256264"><ele>54.0</ele><time>2026-04-20T12:50:36Z</time></trkpt><trkpt lat="45.45235653640125" lon="11.07964919036376"><ele>53.57142857142857</ele><time>2026-04-20T12:50:41Z</time></trkpt><trkpt lat="45.45243432331415" lon="11.079624461800593"><ele>53.14285714285714</ele><time>2026-04-20T12:50:47Z</time></trkpt><trkpt lat="45.45251019679056" lon="11.079618254655896"><ele>52.714285714285715</ele><time>2026-04-20T12:50:52Z</time></trkpt><trkpt lat="45.45258117786297" lon="11.079600526359307"><ele>52.285714285714285</ele><time>2026-04-20T12:50:57Z</time></trkpt><trkpt lat="45.45264997198971" lon="11.079590390975124"><ele>51.85714285714286</ele><time>2026-04-20T12:51:02Z</time></trkpt><trkpt lat="45.45271689497353" lon="11.079598260994496"><ele>51.42857142857143</ele><time>2026-04-20T12:51:07Z</time></trkpt><trkpt lat="45.45279430134212" lon="11.07960963428958"><ele>51.0</ele><time>2026-04-20T12:51:12Z</time></trkpt><trkpt lat="45.45286226318052" lon="11.079612200541195"><ele>51.0</ele><time>2026-04-20T12:51:16Z</time></trkpt><trkpt lat="45.45293022545566" lon="11.079600149699864"><ele>51.0</ele><time>2026-04-20T12:51:21Z</time></trkpt><trkpt lat="45.45299771122403" lon="11.079585538226631"><ele>51.0</ele><time>2026-04-20T12:51:26Z</time></trkpt><trkpt lat="45.453071197303025" lon="11.079577419836847"><ele>51.0</ele><time>2026-04-20T12:51:31Z</time></trkpt><trkpt lat="45.45313569054507" lon="11.079549620555373"><ele>51.0</ele><time>2026-04-20T12:51:37Z</time></trkpt><trkpt lat="45.453202492942374" lon="11.079573427796989"><ele>51.0</ele><time>2026-04-20T12:51:46Z</time></trkpt><trkpt lat="45.45327712093034" lon="11.079571102347366"><ele>51.0</ele><time>2026-04-20T12:51:51.999Z</time></trkpt><trkpt lat="45.4533487606086" lon="11.079571649531207"><ele>51.142857142857146</ele><time>2026-04-20T12:51:56.999Z</time></trkpt><trkpt lat="45.45342570108358" lon="11.079580971979555"><ele>51.28571428571429</ele><time>2026-04-20T12:52:01.999Z</time></trkpt><trkpt lat="45.453490659825505" lon="11.07960975467077"><ele>51.42857142857143</ele><time>2026-04-20T12:52:06.999Z</time></trkpt><trkpt lat="45.45356500051594" lon="11.07960252906156"><ele>51.57142857142857</ele><time>2026-04-20T12:52:11.999Z</time></trkpt><trkpt lat="45.453636997834934" lon="11.079569719406056"><ele>51.714285714285715</ele><time>2026-04-20T12:52:16.999Z</time></trkpt><trkpt lat="45.453700949210834" lon="11.079527651657395"><ele>51.857142857142854</ele><time>2026-04-20T12:52:21.999Z</time></trkpt><trkpt lat="45.4537526384761" lon="11.079460397413648"><ele>52.0</ele><time>2026-04-20T12:52:26.999Z</time></trkpt><trkpt lat="45.45378903296978" lon="11.079360951989027"><ele>52.285714285714285</ele><time>2026-04-20T12:52:31.999Z</time></trkpt><trkpt lat="45.45381613549163" lon="11.079274653531321"><ele>52.57142857142858</ele><time>2026-04-20T12:52:37Z</time></trkpt><trkpt lat="45.45383847108784" lon="11.079184392404134"><ele>52.85714285714286</ele><time>2026-04-20T12:52:43Z</time></trkpt><trkpt lat="45.45388790108958" lon="11.079102422563354"><ele>53.14285714285714</ele><time>2026-04-20T12:52:49Z</time></trkpt><trkpt lat="45.453925267931005" lon="11.079008937147455"><ele>53.42857142857143</ele><time>2026-04-20T12:52:55Z</time></trkpt><trkpt lat="45.453944286414554" lon="11.078917840323177"><ele>53.714285714285715</ele><time>2026-04-20T12:53:00Z</time></trkpt><trkpt lat="45.453969720529315" lon="11.078827999034816"><ele>54.0</ele><time>2026-04-20T12:53:05Z</time></trkpt><trkpt lat="45.45401143075691" lon="11.07876023862232"><ele>54.0</ele><time>2026-04-20T12:53:10Z</time></trkpt><trkpt lat="45.454052150153714" lon="11.078683853200772"><ele>54.0</ele><time>2026-04-20T12:53:15Z</time></trkpt><trkpt lat="45.454095433646465" lon="11.078604778043161"><ele>54.0</ele><time>2026-04-20T12:53:20Z</time></trkpt><trkpt lat="45.45413085691158" lon="11.078522668321177"><ele>54.0</ele><time>2026-04-20T12:53:25Z</time></trkpt><trkpt lat="45.45417014266283" lon="11.078440429816553"><ele>54.0</ele><time>2026-04-20T12:53:30Z</time></trkpt><trkpt lat="45.45419904198032" lon="11.078354539505332"><ele>54.0</ele><time>2026-04-20T12:53:35Z</time></trkpt><trkpt lat="45.45424097310496" lon="11.078272100662875"><ele>54.0</ele><time>2026-04-20T12:53:40Z</time></trkpt><trkpt lat="45.45427653847391" lon="11.078182504900667"><ele>54.0</ele><time>2026-04-20T12:53:45Z</time></trkpt><trkpt lat="45.454338684034546" lon="11.078119630037149"><ele>54.0</ele><time>2026-04-20T12:53:49.999Z</time></trkpt><trkpt lat="45.45436844376239" lon="11.078027821112022"><ele>54.0</ele><time>2026-04-20T12:53:54.999Z</time></trkpt><trkpt lat="45.45436233158233" lon="11.077933941219884"><ele>54.0</ele><time>2026-04-20T12:53:59.999Z</time></trkpt><trkpt lat="45.45436677583929" lon="11.07782989520562"><ele>54.0</ele><time>2026-04-20T12:54:05.999Z</time></trkpt><trkpt lat="45.45440806168968" lon="11.077740117172892"><ele>54.0</ele><time>2026-04-20T12:54:10.999Z</time></trkpt><trkpt lat="45.45446342339304" lon="11.077666980798032"><ele>54.0</ele><time>2026-04-20T12:54:15.999Z</time></trkpt><trkpt lat="45.454512618267934" lon="11.077580489535945"><ele>54.0</ele><time>2026-04-20T12:54:30.999Z</time></trkpt><trkpt lat="45.4545524046417" lon="11.077492213371075"><ele>54.0</ele><time>2026-04-20T12:54:38.999Z</time></trkpt><trkpt lat="45.454614419212234" lon="11.077421502550456"><ele>54.0</ele><time>2026-04-20T12:54:42.999Z</time></trkpt><trkpt lat="45.454638065874185" lon="11.07733073574285"><ele>54.0</ele><time>2026-04-20T12:54:46.999Z</time></trkpt><trkpt lat="45.45467640391397" lon="11.077246441916555"><ele>54.0</ele><time>2026-04-20T12:54:52.999Z</time></trkpt><trkpt lat="45.454723569429646" lon="11.07718513531678"><ele>54.0</ele><time>2026-04-20T12:54:56.999Z</time></trkpt><trkpt lat="45.4547793127641" lon="11.077120543455752"><ele>54.0</ele><time>2026-04-20T12:55:00.999Z</time></trkpt><trkpt lat="45.45482359206834" lon="11.07704756491855"><ele>53.857142857142854</ele><time>2026-04-20T12:55:06.999Z</time></trkpt><trkpt lat="45.45485161804649" lon="11.076943404648357"><ele>53.71428571428571</ele><time>2026-04-20T12:55:11.999Z</time></trkpt><trkpt lat="45.45486797450572" lon="11.076851225381612"><ele>53.57142857142857</ele><time>2026-04-20T12:55:18.999Z</time></trkpt><trkpt lat="45.454901992589875" lon="11.07675674307455"><ele>53.42857142857143</ele><time>2026-04-20T12:55:24.999Z</time></trkpt><trkpt lat="45.454943262564704" lon="11.076681273572516"><ele>53.285714285714285</ele><time>2026-04-20T12:55:29.999Z</time></trkpt><trkpt lat="45.45500308125916" lon="11.07662454422693"><ele>53.142857142857146</ele><time>2026-04-20T12:55:36.999Z</time></trkpt><trkpt lat="45.455026539085075" lon="11.076531174352354"><ele>53.0</ele><time>2026-04-20T12:55:42.999Z</time></trkpt><trkpt lat="45.45504778468399" lon="11.076441232600034"><ele>52.57142857142858</ele><time>2026-04-20T12:55:48.999Z</time></trkpt><trkpt lat="45.45507406832605" lon="11.07634689943194"><ele>52.14285714285714</ele><time>2026-04-20T12:55:52.999Z</time></trkpt><trkpt lat="45.455125516234034" lon="11.076289799870707"><ele>51.714285714285715</ele><time>2026-04-20T12:55:54.999Z</time></trkpt><trkpt lat="45.455148139541016" lon="11.076201831596203"><ele>51.28571428571429</ele><time>2026-04-20T12:55:58.999Z</time></trkpt><trkpt lat="45.455198702922324" lon="11.076131505278038"><ele>50.85714285714286</ele><time>2026-04-20T12:56:03.999Z</time></trkpt><trkpt lat="45.4552408510681" lon="11.076042907735737"><ele>50.42857142857143</ele><time>2026-04-20T12:56:08.999Z</time></trkpt><trkpt lat="45.4552765540645" lon="11.0759515549179"><ele>50.0</ele><time>2026-04-20T12:56:13.999Z</time></trkpt><trkpt lat="45.45532008550524" lon="11.075862196400394"><ele>50.00000000000001</ele><time>2026-04-20T12:56:18.999Z</time></trkpt><trkpt lat="45.45536364179141" lon="11.075783205557459"><ele>50.0</ele><time>2026-04-20T12:56:23.999Z</time></trkpt><trkpt lat="45.455409001175234" lon="11.075717139113108"><ele>50.0</ele><time>2026-04-20T12:56:28.999Z</time></trkpt><trkpt lat="45.45543118766903" lon="11.075626306085297"><ele>50.0</ele><time>2026-04-20T12:56:33.999Z</time></trkpt><trkpt lat="45.45545484654572" lon="11.075540405447743"><ele>50.0</ele><time>2026-04-20T12:56:41.999Z</time></trkpt><trkpt lat="45.455487294003795" lon="11.075452305594947"><ele>50.00000000000001</ele><time>2026-04-20T12:56:47.999Z</time></trkpt><trkpt lat="45.45552640297551" lon="11.075368558654702"><ele>50.0</ele><time>2026-04-20T12:56:52.999Z</time></trkpt><trkpt lat="45.45556777584703" lon="11.075287379301429"><ele>50.28571428571429</ele><time>2026-04-20T12:56:58Z</time></trkpt><trkpt lat="45.455608604398655" lon="11.075201846830906"><ele>50.57142857142857</ele><time>2026-04-20T12:57:03Z</time></trkpt><trkpt lat="45.45566117300301" lon="11.075132992544567"><ele>50.85714285714286</ele><time>2026-04-20T12:57:09Z</time></trkpt><trkpt lat="45.455706135127194" lon="11.075065177186541"><ele>51.142857142857146</ele><time>2026-04-20T12:57:14Z</time></trkpt><trkpt lat="45.45571702174215" lon="11.074961323359608"><ele>51.42857142857143</ele><time>2026-04-20T12:57:31.999Z</time></trkpt><trkpt lat="45.45575368696102" lon="11.074866601427415"><ele>51.714285714285715</ele><time>2026-04-20T12:57:37.999Z</time></trkpt><trkpt lat="45.45579540256872" lon="11.074779114337678"><ele>52.0</ele><time>2026-04-20T12:57:43.999Z</time></trkpt><trkpt lat="45.45583003253627" lon="11.074694999496439"><ele>52.0</ele><time>2026-04-20T12:57:48.999Z</time></trkpt><trkpt lat="45.455878438937845" lon="11.074611363089863"><ele>52.0</ele><time>2026-04-20T12:57:53.999Z</time></trkpt><trkpt lat="45.45591084595566" lon="11.074525334938011"><ele>52.0</ele><time>2026-04-20T12:57:58.999Z</time></trkpt><trkpt lat="45.455954112371735" lon="11.074445801841938"><ele>52.0</ele><time>2026-04-20T12:58:03.999Z</time></trkpt><trkpt lat="45.45599165678358" lon="11.07435972949306"><ele>52.0</ele><time>2026-04-20T12:58:08.999Z</time></trkpt><trkpt lat="45.456024822564885" lon="11.07426998859095"><ele>52.0</ele><time>2026-04-20T12:58:13.999Z</time></trkpt><trkpt lat="45.456063672202305" lon="11.074191891198119"><ele>52.0</ele><time>2026-04-20T12:58:18.999Z</time></trkpt><trkpt lat="45.45610472186558" lon="11.07410374836784"><ele>52.0</ele><time>2026-04-20T12:58:23.999Z</time></trkpt><trkpt lat="45.45614786389152" lon="11.074028968532739"><ele>52.0</ele><time>2026-04-20T12:58:28.999Z</time></trkpt><trkpt lat="45.4561959894273" lon="11.073949715609867"><ele>52.0</ele><time>2026-04-20T12:58:33.999Z</time></trkpt><trkpt lat="45.456226353705816" lon="11.073862973081821"><ele>52.0</ele><time>2026-04-20T12:58:38.999Z</time></trkpt><trkpt lat="45.45626616007705" lon="11.073780904344003"><ele>52.0</ele><time>2026-04-20T12:59:03Z</time></trkpt><trkpt lat="45.45628002403241" lon="11.073688649012334"><ele>52.0</ele><time>2026-04-20T12:59:08Z</time></trkpt><trkpt lat="45.4563197177325" lon="11.073612066012494"><ele>52.0</ele><time>2026-04-20T12:59:13Z</time></trkpt><trkpt lat="45.45635627949359" lon="11.073529982905688"><ele>52.14285714285714</ele><time>2026-04-20T12:59:18Z</time></trkpt><trkpt lat="45.45639559771036" lon="11.073455722912115"><ele>52.28571428571429</ele><time>2026-04-20T12:59:23Z</time></trkpt><trkpt lat="45.45644434485042" lon="11.073370761874376"><ele>52.42857142857143</ele><time>2026-04-20T12:59:28Z</time></trkpt><trkpt lat="45.45648208877315" lon="11.07328805296139"><ele>52.57142857142857</ele><time>2026-04-20T12:59:33Z</time></trkpt><trkpt lat="45.45651538725277" lon="11.073208842678499"><ele>52.71428571428571</ele><time>2026-04-20T12:59:38Z</time></trkpt><trkpt lat="45.45655830887701" lon="11.07313687394347"><ele>52.85714285714286</ele><time>2026-04-20T12:59:43Z</time></trkpt><trkpt lat="45.456595032862765" lon="11.073051622542401"><ele>53.0</ele><time>2026-04-20T12:59:48Z</time></trkpt><trkpt lat="45.45661477160895" lon="11.072957590347078"><ele>53.142857142857146</ele><time>2026-04-20T12:59:53Z</time></trkpt><trkpt lat="45.45665090448309" lon="11.0728710610541"><ele>53.285714285714285</ele><time>2026-04-20T12:59:59Z</time></trkpt><trkpt lat="45.45669212958063" lon="11.072782964706741"><ele>53.42857142857143</ele><time>2026-04-20T13:00:06Z</time></trkpt><trkpt lat="45.456729124679086" lon="11.072702567550758"><ele>53.57142857142857</ele><time>2026-04-20T13:00:11Z</time></trkpt><trkpt lat="45.456769329554014" lon="11.072627135767133"><ele>53.71428571428571</ele><time>2026-04-20T13:00:16Z</time></trkpt><trkpt lat="45.456808882670444" lon="11.072551685676892"><ele>53.857142857142854</ele><time>2026-04-20T13:00:20.999Z</time></trkpt><trkpt lat="45.45684085206744" lon="11.07246856881428"><ele>54.0</ele><time>2026-04-20T13:00:25.999Z</time></trkpt><trkpt lat="45.45687347095252" lon="11.072388698064902"><ele>54.14285714285714</ele><time>2026-04-20T13:00:30.999Z</time></trkpt><trkpt lat="45.45690702252835" lon="11.072308989437447"><ele>54.285714285714285</ele><time>2026-04-20T13:00:35.999Z</time></trkpt><trkpt lat="45.456944207912606" lon="11.072230261074214"><ele>54.42857142857143</ele><time>2026-04-20T13:00:40.999Z</time></trkpt><trkpt lat="45.45698250965938" lon="11.072150645501596"><ele>54.57142857142857</ele><time>2026-04-20T13:00:45.999Z</time></trkpt><trkpt lat="45.457017336044785" lon="11.072068990281714"><ele>54.714285714285715</ele><time>2026-04-20T13:00:50.999Z</time></trkpt><trkpt lat="45.45705574638397" lon="11.071992310392078"><ele>54.857142857142854</ele><time>2026-04-20T13:00:56Z</time></trkpt><trkpt lat="45.45708777863881" lon="11.071910080458805"><ele>55.0</ele><time>2026-04-20T13:01:01Z</time></trkpt><trkpt lat="45.45712266373788" lon="11.071834180783117"><ele>54.99999999999999</ele><time>2026-04-20T13:01:06Z</time></trkpt><trkpt lat="45.45715558356162" lon="11.071754708503649"><ele>55.0</ele><time>2026-04-20T13:01:11Z</time></trkpt><trkpt lat="45.45719202623354" lon="11.07167178882048"><ele>55.0</ele><time>2026-04-20T13:01:16Z</time></trkpt><trkpt lat="45.45722971525495" lon="11.071593154001672"><ele>55.0</ele><time>2026-04-20T13:01:21Z</time></trkpt><trkpt lat="45.45726711413301" lon="11.071516905710366"><ele>55.0</ele><time>2026-04-20T13:01:26Z</time></trkpt><trkpt lat="45.457299490799976" lon="11.071438294895932"><ele>54.99999999999999</ele><time>2026-04-20T13:01:31Z</time></trkpt><trkpt lat="45.457343676325266" lon="11.071350019179377"><ele>55.0</ele><time>2026-04-20T13:01:37Z</time></trkpt><trkpt lat="45.45737899034022" lon="11.071259229797388"><ele>54.71428571428571</ele><time>2026-04-20T13:01:55Z</time></trkpt><trkpt lat="45.45741849905405" lon="11.071188957287541"><ele>54.42857142857143</ele><time>2026-04-20T13:02:02Z</time></trkpt><trkpt lat="45.45745457293761" lon="11.07110740702134"><ele>54.14285714285714</ele><time>2026-04-20T13:02:08Z</time></trkpt><trkpt lat="45.45749354196366" lon="11.071021526366215"><ele>53.857142857142854</ele><time>2026-04-20T13:02:14Z</time></trkpt><trkpt lat="45.45751381076871" lon="11.070936181284782"><ele>53.57142857142857</ele><time>2026-04-20T13:02:20Z</time></trkpt><trkpt lat="45.457544152605735" lon="11.070849140432749"><ele>53.285714285714285</ele><time>2026-04-20T13:02:26Z</time></trkpt><trkpt lat="45.45754901028534" lon="11.070749612619732"><ele>53.0</ele><time>2026-04-20T13:02:31Z</time></trkpt><trkpt lat="45.45755680833428" lon="11.070650582648721"><ele>52.85714285714286</ele><time>2026-04-20T13:02:38.999Z</time></trkpt><trkpt lat="45.457528083837076" lon="11.070559830612202"><ele>52.71428571428571</ele><time>2026-04-20T13:02:43.999Z</time></trkpt><trkpt lat="45.45750857708216" lon="11.070465305393727"><ele>52.57142857142857</ele><time>2026-04-20T13:02:49.999Z</time></trkpt><trkpt lat="45.4575337386644" lon="11.070376983937992"><ele>52.42857142857143</ele><time>2026-04-20T13:02:55.999Z</time></trkpt><trkpt lat="45.45759385237606" lon="11.070338994596218"><ele>52.28571428571429</ele><time>2026-04-20T13:03:00.999Z</time></trkpt><trkpt lat="45.4576545809253" lon="11.070301890971477"><ele>52.14285714285714</ele><time>2026-04-20T13:03:05.999Z</time></trkpt><trkpt lat="45.457711103422554" lon="11.070259740037788"><ele>52.0</ele><time>2026-04-20T13:03:10.999Z</time></trkpt><trkpt lat="45.45777529838209" lon="11.07020668324468"><ele>52.0</ele><time>2026-04-20T13:03:16.999Z</time></trkpt><trkpt lat="45.45783614717663" lon="11.070154085655371"><ele>52.0</ele><time>2026-04-20T13:03:22.999Z</time></trkpt><trkpt lat="45.45789702805808" lon="11.070091553069851"><ele>52.0</ele><time>2026-04-20T13:03:28.999Z</time></trkpt><trkpt lat="45.45795379859122" lon="11.070045579557332"><ele>52.0</ele><time>2026-04-20T13:03:33.999Z</time></trkpt><trkpt lat="45.45800331661736" lon="11.069976210998666"><ele>52.0</ele><time>2026-04-20T13:03:39.999Z</time></trkpt><trkpt lat="45.458052543341275" lon="11.069920122410693"><ele>52.0</ele><time>2026-04-20T13:03:44.999Z</time></trkpt><trkpt lat="45.45810278728501" lon="11.069854102849835"><ele>52.0</ele><time>2026-04-20T13:03:49.999Z</time></trkpt><trkpt lat="45.45815081799097" lon="11.06979071036833"><ele>52.14285714285714</ele><time>2026-04-20T13:03:54.999Z</time></trkpt><trkpt lat="45.458203750373265" lon="11.069738861170991"><ele>52.28571428571429</ele><time>2026-04-20T13:03:59.999Z</time></trkpt><trkpt lat="45.458258841350776" lon="11.06968246816179"><ele>52.42857142857143</ele><time>2026-04-20T13:04:04.999Z</time></trkpt><trkpt lat="45.458321923797506" lon="11.069662349122371"><ele>52.57142857142857</ele><time>2026-04-20T13:04:09.999Z</time></trkpt><trkpt lat="45.45837123953818" lon="11.06958475120897"><ele>52.71428571428571</ele><time>2026-04-20T13:04:14.999Z</time></trkpt><trkpt lat="45.45841840488032" lon="11.069516419731011"><ele>52.85714285714286</ele><time>2026-04-20T13:04:19.999Z</time></trkpt><trkpt lat="45.45845957974985" lon="11.069443958642637"><ele>53.0</ele><time>2026-04-20T13:04:24.999Z</time></trkpt><trkpt lat="45.45849972432469" lon="11.069362578352614"><ele>53.0</ele><time>2026-04-20T13:04:29.999Z</time></trkpt><trkpt lat="45.458539208464046" lon="11.069285214170764"><ele>53.0</ele><time>2026-04-20T13:04:34.999Z</time></trkpt><trkpt lat="45.458481175764945" lon="11.0693417977933"><ele>53.0</ele><time>2026-04-20T13:04:41.999Z</time></trkpt><trkpt lat="45.45853712565221" lon="11.069273688412848"><ele>53.0</ele><time>2026-04-20T13:05:37.999Z</time></trkpt><trkpt lat="45.458582970056604" lon="11.069209238113023"><ele>53.0</ele><time>2026-04-20T13:05:42.999Z</time></trkpt><trkpt lat="45.458631712420264" lon="11.069130254473375"><ele>53.0</ele><time>2026-04-20T13:05:48.999Z</time></trkpt><trkpt lat="45.45867876915914" lon="11.069052260175079"><ele>53.0</ele><time>2026-04-20T13:05:53.999Z</time></trkpt><trkpt lat="45.45873358399574" lon="11.06898595743113"><ele>53.142857142857146</ele><time>2026-04-20T13:05:58.999Z</time></trkpt><trkpt lat="45.458774563911824" lon="11.068913927438663"><ele>53.285714285714285</ele><time>2026-04-20T13:06:03.999Z</time></trkpt><trkpt lat="45.45881323424716" lon="11.068840279570667"><ele>53.42857142857143</ele><time>2026-04-20T13:06:08.999Z</time></trkpt><trkpt lat="45.45887157325683" lon="11.06877038392661"><ele>53.57142857142857</ele><time>2026-04-20T13:06:14.999Z</time></trkpt><trkpt lat="45.45892542133076" lon="11.06871202751637"><ele>53.71428571428571</ele><time>2026-04-20T13:06:19.999Z</time></trkpt><trkpt lat="45.458965325686535" lon="11.06863106329848"><ele>53.857142857142854</ele><time>2026-04-20T13:06:24.999Z</time></trkpt><trkpt lat="45.45899178502196" lon="11.06854108657777"><ele>54.0</ele><time>2026-04-20T13:06:29.999Z</time></trkpt><trkpt lat="45.459039623419045" lon="11.068459413850361"><ele>54.0</ele><time>2026-04-20T13:06:34.999Z</time></trkpt><trkpt lat="45.45907342652635" lon="11.06837212083378"><ele>54.0</ele><time>2026-04-20T13:06:39.999Z</time></trkpt><trkpt lat="45.45910905529346" lon="11.068280408980911"><ele>54.0</ele><time>2026-04-20T13:06:44.999Z</time></trkpt><trkpt lat="45.45915140990769" lon="11.068194658933283"><ele>54.0</ele><time>2026-04-20T13:06:52.999Z</time></trkpt><trkpt lat="45.459199247789606" lon="11.068121735167495"><ele>54.0</ele><time>2026-04-20T13:06:57.999Z</time></trkpt><trkpt lat="45.45922587801569" lon="11.068035850732485"><ele>54.0</ele><time>2026-04-20T13:07:02.999Z</time></trkpt><trkpt lat="45.45925565414323" lon="11.067949899931154"><ele>54.0</ele><time>2026-04-20T13:07:07.999Z</time></trkpt><trkpt lat="45.4592952098008" lon="11.067867911605072"><ele>54.0</ele><time>2026-04-20T13:07:12.999Z</time></trkpt><trkpt lat="45.459319967167026" lon="11.067785027496909"><ele>54.0</ele><time>2026-04-20T13:07:18Z</time></trkpt><trkpt lat="45.45934603466821" lon="11.067686898461758"><ele>54.0</ele><time>2026-04-20T13:07:24Z</time></trkpt><trkpt lat="45.45937937075041" lon="11.067596842210083"><ele>54.0</ele><time>2026-04-20T13:07:29Z</time></trkpt><trkpt lat="45.459434748309945" lon="11.067543860641923"><ele>54.0</ele><time>2026-04-20T13:07:34Z</time></trkpt><trkpt lat="45.459491556468606" lon="11.067482040433827"><ele>54.0</ele><time>2026-04-20T13:07:39Z</time></trkpt><trkpt lat="45.45954936142531" lon="11.067425009962491"><ele>54.0</ele><time>2026-04-20T13:07:44Z</time></trkpt><trkpt lat="45.45956964964942" lon="11.067320914006933"><ele>54.14285714285714</ele><time>2026-04-20T13:07:49Z</time></trkpt><trkpt lat="45.459560814618946" lon="11.067225086679832"><ele>54.285714285714285</ele><time>2026-04-20T13:07:53Z</time></trkpt><trkpt lat="45.459530203786414" lon="11.067131071009692"><ele>54.42857142857143</ele><time>2026-04-20T13:07:58Z</time></trkpt><trkpt lat="45.45949969700376" lon="11.06703484969964"><ele>54.57142857142857</ele><time>2026-04-20T13:08:03Z</time></trkpt><trkpt lat="45.45945859623294" lon="11.066942559661376"><ele>54.714285714285715</ele><time>2026-04-20T13:08:08Z</time></trkpt><trkpt lat="45.45938676358539" lon="11.06692309091639"><ele>54.857142857142854</ele><time>2026-04-20T13:08:13Z</time></trkpt><trkpt lat="45.45938173525601" lon="11.066825927108248"><ele>55.0</ele><time>2026-04-20T13:08:19Z</time></trkpt><trkpt lat="45.45933888518135" lon="11.0667537310018"><ele>54.99999999999999</ele><time>2026-04-20T13:08:24Z</time></trkpt><trkpt lat="45.45929017597999" lon="11.066672216230014"><ele>55.0</ele><time>2026-04-20T13:08:29Z</time></trkpt><trkpt lat="45.45930242363914" lon="11.066548962365848"><ele>55.0</ele><time>2026-04-20T13:08:55Z</time></trkpt><trkpt lat="45.459308386835566" lon="11.066448246101631"><ele>55.0</ele><time>2026-04-20T13:09:00Z</time></trkpt><trkpt lat="45.45929943913458" lon="11.066348123705541"><ele>55.0</ele><time>2026-04-20T13:09:05Z</time></trkpt><trkpt lat="45.45929149400237" lon="11.066248539536431"><ele>54.99999999999999</ele><time>2026-04-20T13:09:10Z</time></trkpt><trkpt lat="45.45928057246618" lon="11.066151788277402"><ele>55.0</ele><time>2026-04-20T13:09:15Z</time></trkpt><trkpt lat="45.45930653468008" lon="11.066060761004673"><ele>54.99999999999999</ele><time>2026-04-20T13:09:20.001Z</time></trkpt><trkpt lat="45.459287299447325" lon="11.065965467494733"><ele>55.0</ele><time>2026-04-20T13:10:11Z</time></trkpt><trkpt lat="45.45923736871853" lon="11.06590160577073"><ele>55.0</ele><time>2026-04-20T13:10:17Z</time></trkpt><trkpt lat="45.45919253383161" lon="11.065819814963922"><ele>55.0</ele><time>2026-04-20T13:10:22Z</time></trkpt><trkpt lat="45.459139291747604" lon="11.065754510202666"><ele>55.0</ele><time>2026-04-20T13:10:28Z</time></trkpt><trkpt lat="45.45909148683849" lon="11.065688954425688"><ele>54.99999999999999</ele><time>2026-04-20T13:10:33Z</time></trkpt><trkpt lat="45.45902935940766" lon="11.06563204762553"><ele>55.0</ele><time>2026-04-20T13:10:38Z</time></trkpt><trkpt lat="45.459004587553515" lon="11.065530370556948"><ele>55.14285714285714</ele><time>2026-04-20T13:10:44Z</time></trkpt><trkpt lat="45.458968888680204" lon="11.065453587322622"><ele>55.285714285714285</ele><time>2026-04-20T13:10:49Z</time></trkpt><trkpt lat="45.45890816600907" lon="11.065403005875968"><ele>55.42857142857143</ele><time>2026-04-20T13:10:54Z</time></trkpt><trkpt lat="45.45886843365226" lon="11.065323471694226"><ele>55.57142857142857</ele><time>2026-04-20T13:10:59Z</time></trkpt><trkpt lat="45.458830354617355" lon="11.065238233661866"><ele>55.714285714285715</ele><time>2026-04-20T13:11:04Z</time></trkpt><trkpt lat="45.458786529758626" lon="11.065153345912671"><ele>55.857142857142854</ele><time>2026-04-20T13:11:09Z</time></trkpt><trkpt lat="45.458742801199016" lon="11.065079491587614"><ele>56.0</ele><time>2026-04-20T13:11:14Z</time></trkpt><trkpt lat="45.45873448851201" lon="11.064980506553363"><ele>56.285714285714285</ele><time>2026-04-20T13:11:19Z</time></trkpt><trkpt lat="45.45873824096458" lon="11.064884506987656"><ele>56.57142857142857</ele><time>2026-04-20T13:11:24Z</time></trkpt><trkpt lat="45.458753017900385" lon="11.064797041038327"><ele>56.85714285714286</ele><time>2026-04-20T13:11:30Z</time></trkpt><trkpt lat="45.45874452570345" lon="11.064701048007993"><ele>57.142857142857146</ele><time>2026-04-20T13:11:35Z</time></trkpt><trkpt lat="45.45870706739541" lon="11.064616821958753"><ele>57.42857142857143</ele><time>2026-04-20T13:11:40Z</time></trkpt><trkpt lat="45.458713246482155" lon="11.064522712064255"><ele>57.71428571428572</ele><time>2026-04-20T13:11:45Z</time></trkpt><trkpt lat="45.45869103115926" lon="11.064434389541363"><ele>58.00000000000001</ele><time>2026-04-20T13:11:50Z</time></trkpt><trkpt lat="45.45865025155758" lon="11.06434953035629"><ele>58.00000000000001</ele><time>2026-04-20T13:11:56Z</time></trkpt><trkpt lat="45.458604014491655" lon="11.064283599641874"><ele>58.0</ele><time>2026-04-20T13:12:01Z</time></trkpt><trkpt lat="45.45854801653355" lon="11.064239326903548"><ele>58.00000000000001</ele><time>2026-04-20T13:12:06Z</time></trkpt><trkpt lat="45.45849904636337" lon="11.064163455752402"><ele>58.00000000000001</ele><time>2026-04-20T13:12:12Z</time></trkpt><trkpt lat="45.45845721717215" lon="11.06409176554795"><ele>58.0</ele><time>2026-04-20T13:12:17Z</time></trkpt><trkpt lat="45.45841711802917" lon="11.064019011324918"><ele>58.00000000000001</ele><time>2026-04-20T13:12:22Z</time></trkpt><trkpt lat="45.45841164401377" lon="11.063908203487584"><ele>58.00000000000001</ele><time>2026-04-20T13:12:27Z</time></trkpt><trkpt lat="45.45837175902199" lon="11.063833641034035"><ele>57.85714285714286</ele><time>2026-04-20T13:12:32Z</time></trkpt><trkpt lat="45.45831432482676" lon="11.063783513985896"><ele>57.714285714285715</ele><time>2026-04-20T13:12:37Z</time></trkpt><trkpt lat="45.45826243736789" lon="11.063715774606498"><ele>57.57142857142857</ele><time>2026-04-20T13:12:42Z</time></trkpt><trkpt lat="45.45821264479179" lon="11.06364653912165"><ele>57.42857142857143</ele><time>2026-04-20T13:12:47Z</time></trkpt><trkpt lat="45.45814851533616" lon="11.063593977513941"><ele>57.28571428571428</ele><time>2026-04-20T13:12:52Z</time></trkpt><trkpt lat="45.4580823176018" lon="11.063614768075821"><ele>57.14285714285714</ele><time>2026-04-20T13:12:55Z</time></trkpt><trkpt lat="45.458019929538445" lon="11.063675516952651"><ele>57.0</ele><time>2026-04-20T13:12:59Z</time></trkpt><trkpt lat="45.45795142888191" lon="11.063702368760582"><ele>57.0</ele><time>2026-04-20T13:13:04Z</time></trkpt><trkpt lat="45.45790627183726" lon="11.063615875217101"><ele>56.99999999999999</ele><time>2026-04-20T13:13:11Z</time></trkpt><trkpt lat="45.45791884582953" lon="11.063710339834154"><ele>57.0</ele><time>2026-04-20T13:13:22Z</time></trkpt><trkpt lat="45.45797923561469" lon="11.06380671083326"><ele>57.0</ele><time>2026-04-20T13:24:25.999Z</time></trkpt><trkpt lat="45.45791682302524" lon="11.063827801973089"><ele>56.99999999999999</ele><time>2026-04-20T13:24:44Z</time></trkpt><trkpt lat="45.45787493891921" lon="11.063896304621586"><ele>57.0</ele><time>2026-04-20T13:24:52Z</time></trkpt><trkpt lat="45.45782204710775" lon="11.063947632295145"><ele>57.0</ele><time>2026-04-20T13:24:58Z</time></trkpt><trkpt lat="45.457790670586846" lon="11.064031578697156"><ele>57.0</ele><time>2026-04-20T13:25:06Z</time></trkpt><trkpt lat="45.45775356807487" lon="11.064109292594004"><ele>56.99999999999999</ele><time>2026-04-20T13:25:14Z</time></trkpt><trkpt lat="45.457706718617516" lon="11.064169441679946"><ele>57.0</ele><time>2026-04-20T13:25:19Z</time></trkpt><trkpt lat="45.45764173824158" lon="11.06424075579552"><ele>57.0</ele><time>2026-04-20T13:25:24Z</time></trkpt><trkpt lat="45.457587805" lon="11.064298368495002"><ele>56.99999999999999</ele><time>2026-04-20T13:25:29Z</time></trkpt><trkpt lat="45.457531774552415" lon="11.06434792770081"><ele>57.0</ele><time>2026-04-20T13:25:34Z</time></trkpt><trkpt lat="45.457474364920536" lon="11.064394146729024"><ele>57.0</ele><time>2026-04-20T13:25:39Z</time></trkpt><trkpt lat="45.45741405376072" lon="11.064440224538135"><ele>57.0</ele><time>2026-04-20T13:25:45Z</time></trkpt><trkpt lat="45.457357802037926" lon="11.064488912175042"><ele>56.99999999999999</ele><time>2026-04-20T13:25:53Z</time></trkpt><trkpt lat="45.457296262252825" lon="11.064537923254859"><ele>57.0</ele><time>2026-04-20T13:25:59Z</time></trkpt><trkpt lat="45.45723299509252" lon="11.06457681984471"><ele>57.0</ele><time>2026-04-20T13:26:04Z</time></trkpt><trkpt lat="45.45718058009199" lon="11.06464398360677"><ele>56.99999999999999</ele><time>2026-04-20T13:26:10Z</time></trkpt><trkpt lat="45.45712040407308" lon="11.064696975705358"><ele>57.0</ele><time>2026-04-20T13:26:16Z</time></trkpt><trkpt lat="45.4570714694083" lon="11.064758604840728"><ele>57.0</ele><time>2026-04-20T13:26:22Z</time></trkpt><trkpt lat="45.45700962001861" lon="11.064820250656881"><ele>56.857142857142854</ele><time>2026-04-20T13:26:28Z</time></trkpt><trkpt lat="45.45694730182808" lon="11.064857220007756"><ele>56.71428571428571</ele><time>2026-04-20T13:26:33Z</time></trkpt><trkpt lat="45.4568853249149" lon="11.06489857683376"><ele>56.57142857142857</ele><time>2026-04-20T13:26:38Z</time></trkpt><trkpt lat="45.45682529239955" lon="11.064960293350927"><ele>56.42857142857143</ele><time>2026-04-20T13:26:44Z</time></trkpt><trkpt lat="45.45676307162102" lon="11.065017259551638"><ele>56.285714285714285</ele><time>2026-04-20T13:26:50Z</time></trkpt><trkpt lat="45.45669721354491" lon="11.065054622049434"><ele>56.14285714285714</ele><time>2026-04-20T13:26:55Z</time></trkpt><trkpt lat="45.45664674595672" lon="11.065111394687419"><ele>56.0</ele><time>2026-04-20T13:27:00Z</time></trkpt><trkpt lat="45.456586208605124" lon="11.065145933820371"><ele>56.0</ele><time>2026-04-20T13:27:05Z</time></trkpt><trkpt lat="45.45651909857597" lon="11.065165333198784"><ele>56.0</ele><time>2026-04-20T13:27:10Z</time></trkpt><trkpt lat="45.456456609393136" lon="11.065198239645877"><ele>56.0</ele><time>2026-04-20T13:27:16Z</time></trkpt><trkpt lat="45.456394257428684" lon="11.065230539095651"><ele>56.0</ele><time>2026-04-20T13:27:21Z</time></trkpt><trkpt lat="45.456329339192216" lon="11.065230366420462"><ele>56.0</ele><time>2026-04-20T13:27:25Z</time></trkpt><trkpt lat="45.45631163508175" lon="11.065319141627528"><ele>56.0</ele><time>2026-04-20T13:27:29Z</time></trkpt><trkpt lat="45.45632933184003" lon="11.06541822540371"><ele>56.0</ele><time>2026-04-20T13:27:34Z</time></trkpt><trkpt lat="45.456353433337746" lon="11.065508890784107"><ele>56.0</ele><time>2026-04-20T13:27:39Z</time></trkpt><trkpt lat="45.45638638974196" lon="11.065599648418571"><ele>56.0</ele><time>2026-04-20T13:27:44Z</time></trkpt><trkpt lat="45.45641726766979" lon="11.06569400075609"><ele>56.0</ele><time>2026-04-20T13:27:49Z</time></trkpt><trkpt lat="45.45646578800598" lon="11.065770842248913"><ele>56.0</ele><time>2026-04-20T13:27:54Z</time></trkpt><trkpt lat="45.45650171085608" lon="11.06585296050338"><ele>56.0</ele><time>2026-04-20T13:27:59Z</time></trkpt><trkpt lat="45.45654999285526" lon="11.065923984254855"><ele>56.0</ele><time>2026-04-20T13:28:04Z</time></trkpt><trkpt lat="45.45650523985241" lon="11.065996797633302"><ele>56.0</ele><time>2026-04-20T13:28:10Z</time></trkpt><trkpt lat="45.45644203723881" lon="11.066061201054792"><ele>56.0</ele><time>2026-04-20T13:28:15.001Z</time></trkpt><trkpt lat="45.45639175145781" lon="11.066125338555832"><ele>56.0</ele><time>2026-04-20T13:28:20.001Z</time></trkpt><trkpt lat="45.45634019190835" lon="11.066179572257996"><ele>56.0</ele><time>2026-04-20T13:28:25.001Z</time></trkpt><trkpt lat="45.45628552791272" lon="11.066237367494061"><ele>56.0</ele><time>2026-04-20T13:28:30.001Z</time></trkpt><trkpt lat="45.45623965791925" lon="11.066310918121449"><ele>56.0</ele><time>2026-04-20T13:28:35.001Z</time></trkpt><trkpt lat="45.456185729884275" lon="11.066361954963494"><ele>56.0</ele><time>2026-04-20T13:28:40.001Z</time></trkpt><trkpt lat="45.456124275761034" lon="11.066397404441927"><ele>56.0</ele><time>2026-04-20T13:28:45.001Z</time></trkpt><trkpt lat="45.45607476090226" lon="11.066466178526197"><ele>56.0</ele><time>2026-04-20T13:28:51.001Z</time></trkpt><trkpt lat="45.456019294736485" lon="11.066525511339767"><ele>56.0</ele><time>2026-04-20T13:28:56Z</time></trkpt><trkpt lat="45.45596824516121" lon="11.066595925746574"><ele>56.0</ele><time>2026-04-20T13:29:02Z</time></trkpt><trkpt lat="45.45591070441428" lon="11.066637454365436"><ele>56.0</ele><time>2026-04-20T13:29:07Z</time></trkpt><trkpt lat="45.45584155655942" lon="11.066682099524591"><ele>56.0</ele><time>2026-04-20T13:29:13Z</time></trkpt><trkpt lat="45.45578860577999" lon="11.066739226498104"><ele>56.0</ele><time>2026-04-20T13:29:18Z</time></trkpt><trkpt lat="45.45573578711255" lon="11.066789011577018"><ele>56.0</ele><time>2026-04-20T13:29:23Z</time></trkpt><trkpt lat="45.45566366538096" lon="11.066826802515367"><ele>55.857142857142854</ele><time>2026-04-20T13:29:29Z</time></trkpt><trkpt lat="45.45560472341244" lon="11.066869504017797"><ele>55.714285714285715</ele><time>2026-04-20T13:29:34Z</time></trkpt><trkpt lat="45.45554647856827" lon="11.06690998873536"><ele>55.57142857142857</ele><time>2026-04-20T13:29:39Z</time></trkpt><trkpt lat="45.45548349145787" lon="11.066951369286327"><ele>55.42857142857143</ele><time>2026-04-20T13:29:44Z</time></trkpt><trkpt lat="45.4554319771356" lon="11.067003994289431"><ele>55.285714285714285</ele><time>2026-04-20T13:29:49Z</time></trkpt><trkpt lat="45.45549594030286" lon="11.066965990578044"><ele>55.14285714285714</ele><time>2026-04-20T13:30:02Z</time></trkpt><trkpt lat="45.455565943869374" lon="11.066926239689584"><ele>55.0</ele><time>2026-04-20T13:30:08Z</time></trkpt><trkpt lat="45.455630826709154" lon="11.066886572867544"><ele>54.99999999999999</ele><time>2026-04-20T13:30:12Z</time></trkpt><trkpt lat="45.45569228274947" lon="11.066853119144607"><ele>55.0</ele><time>2026-04-20T13:30:17Z</time></trkpt><trkpt lat="45.45575750038251" lon="11.066806919701605"><ele>55.0</ele><time>2026-04-20T13:30:22.001Z</time></trkpt><trkpt lat="45.455818390398555" lon="11.066767106600164"><ele>55.0</ele><time>2026-04-20T13:30:27.001Z</time></trkpt><trkpt lat="45.45588840954907" lon="11.066727837734337"><ele>55.0</ele><time>2026-04-20T13:30:32.001Z</time></trkpt><trkpt lat="45.455948588567416" lon="11.066669341820385"><ele>54.99999999999999</ele><time>2026-04-20T13:30:37.001Z</time></trkpt><trkpt lat="45.45601119338301" lon="11.066618192890676"><ele>55.0</ele><time>2026-04-20T13:30:42.001Z</time></trkpt><trkpt lat="45.45607884895876" lon="11.066586368623552"><ele>54.99999999999999</ele><time>2026-04-20T13:30:48.001Z</time></trkpt><trkpt lat="45.45614049175497" lon="11.066544958254708"><ele>55.0</ele><time>2026-04-20T13:30:53Z</time></trkpt><trkpt lat="45.45618904948205" lon="11.066484152942039"><ele>55.0</ele><time>2026-04-20T13:30:58Z</time></trkpt><trkpt lat="45.45623901437814" lon="11.066418713489579"><ele>55.0</ele><time>2026-04-20T13:31:04Z</time></trkpt><trkpt lat="45.456297334127065" lon="11.066353999946966"><ele>55.0</ele><time>2026-04-20T13:31:10Z</time></trkpt><trkpt lat="45.456324789922334" lon="11.066269809892301"><ele>54.99999999999999</ele><time>2026-04-20T13:31:15Z</time></trkpt><trkpt lat="45.456367981087546" lon="11.066203968748912"><ele>55.0</ele><time>2026-04-20T13:31:20Z</time></trkpt><trkpt lat="45.456406105834255" lon="11.06611906747066"><ele>54.99999999999999</ele><time>2026-04-20T13:31:25Z</time></trkpt><trkpt lat="45.45646412400598" lon="11.066048682828827"><ele>55.0</ele><time>2026-04-20T13:31:31Z</time></trkpt><trkpt lat="45.45651229016787" lon="11.065972182861103"><ele>55.0</ele><time>2026-04-20T13:31:36Z</time></trkpt><trkpt lat="45.45657306420508" lon="11.065933151940406"><ele>55.0</ele><time>2026-04-20T13:31:41Z</time></trkpt><trkpt lat="45.45662944283012" lon="11.065889174574934"><ele>55.0</ele><time>2026-04-20T13:31:46Z</time></trkpt><trkpt lat="45.456689472807426" lon="11.065840852666183"><ele>54.99999999999999</ele><time>2026-04-20T13:31:51Z</time></trkpt><trkpt lat="45.456742897866" lon="11.065790360833795"><ele>55.0</ele><time>2026-04-20T13:31:56Z</time></trkpt><trkpt lat="45.45679953488635" lon="11.065737378660685"><ele>55.14285714285714</ele><time>2026-04-20T13:32:01Z</time></trkpt><trkpt lat="45.456861931614355" lon="11.065690706270269"><ele>55.285714285714285</ele><time>2026-04-20T13:32:06Z</time></trkpt><trkpt lat="45.45689426444728" lon="11.065609925249595"><ele>55.42857142857143</ele><time>2026-04-20T13:32:11Z</time></trkpt><trkpt lat="45.45696382208962" lon="11.065583478523516"><ele>55.57142857142857</ele><time>2026-04-20T13:32:17Z</time></trkpt><trkpt lat="45.45701936599075" lon="11.065540568027822"><ele>55.714285714285715</ele><time>2026-04-20T13:32:22Z</time></trkpt><trkpt lat="45.457067656989416" lon="11.065482287860904"><ele>55.857142857142854</ele><time>2026-04-20T13:32:27.001Z</time></trkpt><trkpt lat="45.45713361204442" lon="11.065458097308635"><ele>56.0</ele><time>2026-04-20T13:32:32.001Z</time></trkpt><trkpt lat="45.457195595830726" lon="11.065419954312937"><ele>56.0</ele><time>2026-04-20T13:32:37.001Z</time></trkpt><trkpt lat="45.45725780997412" lon="11.065390750103031"><ele>56.0</ele><time>2026-04-20T13:32:42Z</time></trkpt><trkpt lat="45.45731908559032" lon="11.065354932909434"><ele>56.0</ele><time>2026-04-20T13:32:47Z</time></trkpt><trkpt lat="45.457382431139514" lon="11.065328504307724"><ele>56.0</ele><time>2026-04-20T13:32:52Z</time></trkpt><trkpt lat="45.45744889780918" lon="11.065293904869906"><ele>56.0</ele><time>2026-04-20T13:32:57Z</time></trkpt><trkpt lat="45.45751090857904" lon="11.065233052432244"><ele>56.0</ele><time>2026-04-20T13:33:02Z</time></trkpt><trkpt lat="45.4575677407646" lon="11.06516883537896"><ele>56.0</ele><time>2026-04-20T13:33:07Z</time></trkpt><trkpt lat="45.45762826250554" lon="11.065111386971374"><ele>56.0</ele><time>2026-04-20T13:33:12Z</time></trkpt><trkpt lat="45.457701429498684" lon="11.065097123823053"><ele>56.0</ele><time>2026-04-20T13:33:17Z</time></trkpt><trkpt lat="45.45776981738486" lon="11.065098024536997"><ele>56.0</ele><time>2026-04-20T13:33:22Z</time></trkpt><trkpt lat="45.45777857560335" lon="11.064989445575097"><ele>56.0</ele><time>2026-04-20T13:33:26Z</time></trkpt><trkpt lat="45.45782396680199" lon="11.06491652233562"><ele>56.0</ele><time>2026-04-20T13:33:31Z</time></trkpt><trkpt lat="45.45788187208175" lon="11.064867539362991"><ele>56.0</ele><time>2026-04-20T13:33:36Z</time></trkpt><trkpt lat="45.45794328294201" lon="11.064817185142514"><ele>56.0</ele><time>2026-04-20T13:33:41Z</time></trkpt><trkpt lat="45.45800483222943" lon="11.064756148771847"><ele>56.285714285714285</ele><time>2026-04-20T13:33:46Z</time></trkpt><trkpt lat="45.458051061787486" lon="11.064689325134522"><ele>56.57142857142857</ele><time>2026-04-20T13:33:50Z</time></trkpt><trkpt lat="45.458119570211124" lon="11.064699004001236"><ele>56.85714285714286</ele><time>2026-04-20T13:33:55Z</time></trkpt><trkpt lat="45.45816893979767" lon="11.06464224490957"><ele>57.142857142857146</ele><time>2026-04-20T13:34:00Z</time></trkpt><trkpt lat="45.45823219052529" lon="11.064619263373977"><ele>57.42857142857143</ele><time>2026-04-20T13:34:05Z</time></trkpt><trkpt lat="45.45828812047232" lon="11.064552771087637"><ele>57.71428571428572</ele><time>2026-04-20T13:34:09.999Z</time></trkpt><trkpt lat="45.458361351414" lon="11.064515685856907"><ele>58.00000000000001</ele><time>2026-04-20T13:34:14.999Z</time></trkpt><trkpt lat="45.458381286844535" lon="11.064412283111686"><ele>58.00000000000001</ele><time>2026-04-20T13:34:18.999Z</time></trkpt><trkpt lat="45.45845249642497" lon="11.064378470236315"><ele>58.0</ele><time>2026-04-20T13:34:23.999Z</time></trkpt><trkpt lat="45.458521560788874" lon="11.064342576594116"><ele>58.00000000000001</ele><time>2026-04-20T13:34:28.999Z</time></trkpt><trkpt lat="45.458583913232424" lon="11.064305239809675"><ele>58.00000000000001</ele><time>2026-04-20T13:34:33Z</time></trkpt><trkpt lat="45.45863969636393" lon="11.064347554482271"><ele>58.0</ele><time>2026-04-20T13:34:44Z</time></trkpt><trkpt lat="45.458683751014185" lon="11.064419200552795"><ele>58.00000000000001</ele><time>2026-04-20T13:34:57Z</time></trkpt><trkpt lat="45.45871566822113" lon="11.06450332224426"><ele>58.00000000000001</ele><time>2026-04-20T13:35:02Z</time></trkpt><trkpt lat="45.45871294547119" lon="11.064608359029327"><ele>58.00000000000001</ele><time>2026-04-20T13:35:07Z</time></trkpt><trkpt lat="45.458704437443295" lon="11.064711549477261"><ele>58.0</ele><time>2026-04-20T13:35:12Z</time></trkpt><trkpt lat="45.45872118699178" lon="11.064812092954377"><ele>58.00000000000001</ele><time>2026-04-20T13:35:18Z</time></trkpt><trkpt lat="45.458703242277856" lon="11.064911108767873"><ele>58.00000000000001</ele><time>2026-04-20T13:35:26Z</time></trkpt><trkpt lat="45.45870298500399" lon="11.06501901124614"><ele>58.0</ele><time>2026-04-20T13:35:32Z</time></trkpt><trkpt lat="45.45875862676682" lon="11.065090460761754"><ele>58.00000000000001</ele><time>2026-04-20T13:35:36Z</time></trkpt><trkpt lat="45.45879142288037" lon="11.065189502951899"><ele>58.00000000000001</ele><time>2026-04-20T13:35:43Z</time></trkpt><trkpt lat="45.45879851984514" lon="11.065285100892266"><ele>58.00000000000001</ele><time>2026-04-20T13:35:47.999Z</time></trkpt><trkpt lat="45.4588549909089" lon="11.065333362220686"><ele>58.0</ele><time>2026-04-20T13:35:51.999Z</time></trkpt><trkpt lat="45.4589144383175" lon="11.065391977398928"><ele>58.00000000000001</ele><time>2026-04-20T13:35:56.999Z</time></trkpt><trkpt lat="45.458965613285365" lon="11.06544438613267"><ele>58.00000000000001</ele><time>2026-04-20T13:36:01.999Z</time></trkpt><trkpt lat="45.459021738312856" lon="11.065494254482706"><ele>58.0</ele><time>2026-04-20T13:36:05.999Z</time></trkpt><trkpt lat="45.45903688641577" lon="11.065596881435132"><ele>58.00000000000001</ele><time>2026-04-20T13:36:11.999Z</time></trkpt><trkpt lat="45.45902343596575" lon="11.065688383792022"><ele>58.00000000000001</ele><time>2026-04-20T13:36:14.999Z</time></trkpt><trkpt lat="45.459032905706465" lon="11.065778582723535"><ele>57.57142857142858</ele><time>2026-04-20T13:36:18.999Z</time></trkpt><trkpt lat="45.45906166535853" lon="11.065864078986044"><ele>57.142857142857146</ele><time>2026-04-20T13:36:23.999Z</time></trkpt><trkpt lat="45.45913301551526" lon="11.065911355474002"><ele>56.714285714285715</ele><time>2026-04-20T13:36:29.999Z</time></trkpt><trkpt lat="45.45919886190155" lon="11.065907397020812"><ele>56.28571428571429</ele><time>2026-04-20T13:36:31.999Z</time></trkpt><trkpt lat="45.45926185164922" lon="11.065948052232192"><ele>55.85714285714286</ele><time>2026-04-20T13:36:34.999Z</time></trkpt><trkpt lat="45.4592501074" lon="11.066052944521726"><ele>55.42857142857142</ele><time>2026-04-20T13:36:40Z</time></trkpt><trkpt lat="45.45925180750437" lon="11.066143624998348"><ele>55.0</ele><time>2026-04-20T13:36:45Z</time></trkpt><trkpt lat="45.45928203736768" lon="11.066244034810957"><ele>54.99999999999999</ele><time>2026-04-20T13:36:56Z</time></trkpt><trkpt lat="45.459298674579145" lon="11.066350258953465"><ele>55.0</ele><time>2026-04-20T13:37:02Z</time></trkpt><trkpt lat="45.45929926422963" lon="11.066457653499597"><ele>55.0</ele><time>2026-04-20T13:37:08Z</time></trkpt><trkpt lat="45.459291727925276" lon="11.066559628404617"><ele>55.0</ele><time>2026-04-20T13:37:13Z</time></trkpt><trkpt lat="45.45928887833004" lon="11.066661476267772"><ele>55.0</ele><time>2026-04-20T13:37:30Z</time></trkpt><trkpt lat="45.459310480374" lon="11.066760433765117"><ele>54.99999999999999</ele><time>2026-04-20T13:37:35Z</time></trkpt><trkpt lat="45.45935210202897" lon="11.066839048016758"><ele>55.0</ele><time>2026-04-20T13:37:41Z</time></trkpt><trkpt lat="45.459392221497744" lon="11.066922196441109"><ele>54.99999999999999</ele><time>2026-04-20T13:37:46.999Z</time></trkpt><trkpt lat="45.45942919549363" lon="11.06699589371866"><ele>55.0</ele><time>2026-04-20T13:37:52.999Z</time></trkpt><trkpt lat="45.45946454199328" lon="11.06707856192798"><ele>55.0</ele><time>2026-04-20T13:37:58.999Z</time></trkpt><trkpt lat="45.459510650778206" lon="11.067162758783956"><ele>55.0</ele><time>2026-04-20T13:38:04.999Z</time></trkpt><trkpt lat="45.45954833053219" lon="11.067253263143067"><ele>55.0</ele><time>2026-04-20T13:38:10.999Z</time></trkpt><trkpt lat="45.45955779965914" lon="11.067346076632015"><ele>54.99999999999999</ele><time>2026-04-20T13:38:15.999Z</time></trkpt><trkpt lat="45.4595199355855" lon="11.067428010217158"><ele>55.0</ele><time>2026-04-20T13:38:20.999Z</time></trkpt><trkpt lat="45.459455786419" lon="11.067482808597145"><ele>54.857142857142854</ele><time>2026-04-20T13:38:25.999Z</time></trkpt><trkpt lat="45.459397567133124" lon="11.067549658071984"><ele>54.714285714285715</ele><time>2026-04-20T13:38:31.999Z</time></trkpt><trkpt lat="45.45935222998968" lon="11.067625196678648"><ele>54.57142857142857</ele><time>2026-04-20T13:38:36.999Z</time></trkpt><trkpt lat="45.45930720123413" lon="11.067705151521242"><ele>54.42857142857143</ele><time>2026-04-20T13:38:41.999Z</time></trkpt><trkpt lat="45.45927629551011" lon="11.067789002267434"><ele>54.285714285714285</ele><time>2026-04-20T13:38:46.999Z</time></trkpt><trkpt lat="45.459244463842026" lon="11.067873197663632"><ele>54.14285714285714</ele><time>2026-04-20T13:38:51.999Z</time></trkpt><trkpt lat="45.45920638327751" lon="11.067950677788954"><ele>54.0</ele><time>2026-04-20T13:38:56.999Z</time></trkpt><trkpt lat="45.45917339142899" lon="11.06803200322098"><ele>54.0</ele><time>2026-04-20T13:39:01.999Z</time></trkpt><trkpt lat="45.45913869866539" lon="11.06812549965981"><ele>54.0</ele><time>2026-04-20T13:39:07.999Z</time></trkpt><trkpt lat="45.45910235125513" lon="11.068199266849776"><ele>54.0</ele><time>2026-04-20T13:39:12.999Z</time></trkpt><trkpt lat="45.459071018738534" lon="11.068285946113878"><ele>54.0</ele><time>2026-04-20T13:39:17.999Z</time></trkpt><trkpt lat="45.459039533465365" lon="11.068373496533958"><ele>54.0</ele><time>2026-04-20T13:39:22.999Z</time></trkpt><trkpt lat="45.45900685494074" lon="11.06845532727794"><ele>54.0</ele><time>2026-04-20T13:39:27.999Z</time></trkpt><trkpt lat="45.45897262519032" lon="11.06853350010872"><ele>54.0</ele><time>2026-04-20T13:39:32.999Z</time></trkpt><trkpt lat="45.45893357413071" lon="11.06861611399604"><ele>54.0</ele><time>2026-04-20T13:39:37.999Z</time></trkpt><trkpt lat="45.4588907141561" lon="11.068687060717714"><ele>54.0</ele><time>2026-04-20T13:39:42.999Z</time></trkpt><trkpt lat="45.45884522728062" lon="11.068760222133102"><ele>54.0</ele><time>2026-04-20T13:39:47.999Z</time></trkpt><trkpt lat="45.45879974073431" lon="11.06882993947818"><ele>54.0</ele><time>2026-04-20T13:39:52.999Z</time></trkpt><trkpt lat="45.45874035240046" lon="11.068880036272947"><ele>54.0</ele><time>2026-04-20T13:39:57.999Z</time></trkpt><trkpt lat="45.458694282428254" lon="11.068948213668234"><ele>54.0</ele><time>2026-04-20T13:40:02.999Z</time></trkpt><trkpt lat="45.45864560866567" lon="11.0690052585753"><ele>54.0</ele><time>2026-04-20T13:40:07.999Z</time></trkpt><trkpt lat="45.45860035297217" lon="11.069074956650178"><ele>53.857142857142854</ele><time>2026-04-20T13:40:13.999Z</time></trkpt><trkpt lat="45.4585480645973" lon="11.069151928460725"><ele>53.71428571428571</ele><time>2026-04-20T13:40:19.999Z</time></trkpt><trkpt lat="45.458506134184645" lon="11.069235996883497"><ele>53.57142857142857</ele><time>2026-04-20T13:40:25.999Z</time></trkpt><trkpt lat="45.458467926174535" lon="11.06931116115789"><ele>53.42857142857143</ele><time>2026-04-20T13:40:30.999Z</time></trkpt><trkpt lat="45.458425083720776" lon="11.069384214144337"><ele>53.285714285714285</ele><time>2026-04-20T13:40:35.999Z</time></trkpt><trkpt lat="45.45838664802896" lon="11.069456955086995"><ele>53.142857142857146</ele><time>2026-04-20T13:40:40.999Z</time></trkpt><trkpt lat="45.45834353990902" lon="11.069532617278638"><ele>53.0</ele><time>2026-04-20T13:40:45.999Z</time></trkpt><trkpt lat="45.458298873837045" lon="11.069602296863385"><ele>53.0</ele><time>2026-04-20T13:40:50.999Z</time></trkpt><trkpt lat="45.4582348523526" lon="11.069658382770658"><ele>53.0</ele><time>2026-04-20T13:40:57Z</time></trkpt><trkpt lat="45.458186217976746" lon="11.069721742051112"><ele>53.0</ele><time>2026-04-20T13:41:02Z</time></trkpt><trkpt lat="45.458132817884206" lon="11.069775342203208"><ele>53.0</ele><time>2026-04-20T13:41:07Z</time></trkpt><trkpt lat="45.4580620079778" lon="11.069806981163353"><ele>53.0</ele><time>2026-04-20T13:41:12Z</time></trkpt><trkpt lat="45.45800910673151" lon="11.06985868583204"><ele>53.0</ele><time>2026-04-20T13:41:17Z</time></trkpt><trkpt lat="45.45796940973866" lon="11.06993721593219"><ele>53.0</ele><time>2026-04-20T13:41:22Z</time></trkpt><trkpt lat="45.457917815084414" lon="11.069994620567053"><ele>52.85714285714286</ele><time>2026-04-20T13:41:27Z</time></trkpt><trkpt lat="45.457867083709026" lon="11.07005752621215"><ele>52.71428571428571</ele><time>2026-04-20T13:41:32Z</time></trkpt><trkpt lat="45.457818967741474" lon="11.070128587227025"><ele>52.57142857142857</ele><time>2026-04-20T13:41:37Z</time></trkpt><trkpt lat="45.45776112029337" lon="11.070176873457658"><ele>52.42857142857143</ele><time>2026-04-20T13:41:42Z</time></trkpt><trkpt lat="45.45770575142609" lon="11.070232067873215"><ele>52.28571428571429</ele><time>2026-04-20T13:41:46.999Z</time></trkpt><trkpt lat="45.45764542857982" lon="11.07027972637452"><ele>52.14285714285714</ele><time>2026-04-20T13:41:51.999Z</time></trkpt><trkpt lat="45.45758493296942" lon="11.070331140026374"><ele>52.0</ele><time>2026-04-20T13:41:56.999Z</time></trkpt><trkpt lat="45.45752117144932" lon="11.070373013420465"><ele>52.0</ele><time>2026-04-20T13:42:01.999Z</time></trkpt><trkpt lat="45.45746173272097" lon="11.070436660129378"><ele>52.0</ele><time>2026-04-20T13:42:06.999Z</time></trkpt><trkpt lat="45.45748331883719" lon="11.070523685164831"><ele>52.0</ele><time>2026-04-20T13:42:26.999Z</time></trkpt><trkpt lat="45.45750341559701" lon="11.070618726892821"><ele>52.0</ele><time>2026-04-20T13:42:31.999Z</time></trkpt><trkpt lat="45.457523692636734" lon="11.07071041433185"><ele>52.0</ele><time>2026-04-20T13:42:36.999Z</time></trkpt><trkpt lat="45.45753997043278" lon="11.070807242768698"><ele>52.0</ele><time>2026-04-20T13:42:41.999Z</time></trkpt><trkpt lat="45.45752718561499" lon="11.07089998827753"><ele>52.0</ele><time>2026-04-20T13:42:46.999Z</time></trkpt><trkpt lat="45.45748250518127" lon="11.070964470952035"><ele>52.14285714285714</ele><time>2026-04-20T13:42:51.999Z</time></trkpt><trkpt lat="45.457439007506565" lon="11.071031830057416"><ele>52.28571428571429</ele><time>2026-04-20T13:43:00Z</time></trkpt><trkpt lat="45.457399693832954" lon="11.071113227120009"><ele>52.42857142857143</ele><time>2026-04-20T13:43:06Z</time></trkpt><trkpt lat="45.45736304186425" lon="11.071199279372923"><ele>52.57142857142857</ele><time>2026-04-20T13:43:12Z</time></trkpt><trkpt lat="45.45732197001998" lon="11.071283974084963"><ele>52.71428571428571</ele><time>2026-04-20T13:43:18Z</time></trkpt><trkpt lat="45.457289865113054" lon="11.071364781505956"><ele>52.85714285714286</ele><time>2026-04-20T13:43:23Z</time></trkpt><trkpt lat="45.45725157588324" lon="11.0714466864779"><ele>53.0</ele><time>2026-04-20T13:43:29Z</time></trkpt><trkpt lat="45.45721598404821" lon="11.071524971507795"><ele>53.0</ele><time>2026-04-20T13:43:34Z</time></trkpt><trkpt lat="45.45718269581168" lon="11.071603957050796"><ele>53.0</ele><time>2026-04-20T13:43:39Z</time></trkpt><trkpt lat="45.45714137222406" lon="11.071693357547229"><ele>53.0</ele><time>2026-04-20T13:43:45Z</time></trkpt><trkpt lat="45.45710745349594" lon="11.071771347369538"><ele>53.0</ele><time>2026-04-20T13:43:50Z</time></trkpt><trkpt lat="45.45707586034262" lon="11.071867517747414"><ele>53.0</ele><time>2026-04-20T13:43:56Z</time></trkpt><trkpt lat="45.4570471187297" lon="11.07195107228996"><ele>53.0</ele><time>2026-04-20T13:44:01Z</time></trkpt><trkpt lat="45.45700903320567" lon="11.072037252472827"><ele>53.0</ele><time>2026-04-20T13:44:07Z</time></trkpt><trkpt lat="45.456963377896194" lon="11.072122610707991"><ele>53.142857142857146</ele><time>2026-04-20T13:44:12Z</time></trkpt><trkpt lat="45.45692638914785" lon="11.072214289862236"><ele>53.285714285714285</ele><time>2026-04-20T13:44:18Z</time></trkpt><trkpt lat="45.45688226002399" lon="11.072300788992592"><ele>53.42857142857143</ele><time>2026-04-20T13:44:24Z</time></trkpt><trkpt lat="45.45684296958668" lon="11.072373069646215"><ele>53.57142857142857</ele><time>2026-04-20T13:44:33Z</time></trkpt><trkpt lat="45.45680162585489" lon="11.072466625947156"><ele>53.71428571428571</ele><time>2026-04-20T13:44:41Z</time></trkpt><trkpt lat="45.45677121657599" lon="11.072547367592641"><ele>53.857142857142854</ele><time>2026-04-20T13:44:45.999Z</time></trkpt><trkpt lat="45.45673161125006" lon="11.072617381887504"><ele>54.0</ele><time>2026-04-20T13:44:50.999Z</time></trkpt><trkpt lat="45.45669689901174" lon="11.072710666673363"><ele>54.0</ele><time>2026-04-20T13:44:56.999Z</time></trkpt><trkpt lat="45.456656963546386" lon="11.0727968134225"><ele>54.0</ele><time>2026-04-20T13:45:03Z</time></trkpt><trkpt lat="45.456624413737885" lon="11.072891916788565"><ele>54.0</ele><time>2026-04-20T13:45:09Z</time></trkpt><trkpt lat="45.45658174524149" lon="11.072983843456626"><ele>54.0</ele><time>2026-04-20T13:45:15Z</time></trkpt><trkpt lat="45.45654336348392" lon="11.073063379849055"><ele>54.0</ele><time>2026-04-20T13:45:18Z</time></trkpt><trkpt lat="45.45650642462907" lon="11.073154436234077"><ele>54.0</ele><time>2026-04-20T13:45:21Z</time></trkpt><trkpt lat="45.456456406003625" lon="11.073239499289384"><ele>54.0</ele><time>2026-04-20T13:45:24Z</time></trkpt><trkpt lat="45.4564172707985" lon="11.073358172975388"><ele>53.833333333333336</ele><time>2026-04-20T13:45:27Z</time></trkpt><trkpt lat="45.456381782197134" lon="11.073446590277676"><ele>53.66666666666667</ele><time>2026-04-20T13:45:30Z</time></trkpt><trkpt lat="45.45633797356992" lon="11.073531940227918"><ele>53.5</ele><time>2026-04-20T13:45:33Z</time></trkpt><trkpt lat="45.45629579489541" lon="11.07361648566241"><ele>53.333333333333336</ele><time>2026-04-20T13:45:38Z</time></trkpt><trkpt lat="45.456251943679646" lon="11.073702905350082"><ele>53.16666666666667</ele><time>2026-04-20T13:45:53Z</time></trkpt><trkpt lat="45.4562041752674" lon="11.07380677036946"><ele>53.0</ele><time>2026-04-20T13:45:57Z</time></trkpt><trkpt lat="45.45616188233398" lon="11.073909959394367"><ele>52.85714285714286</ele><time>2026-04-20T13:46:01Z</time></trkpt><trkpt lat="45.456122902010875" lon="11.07399654998605"><ele>52.71428571428571</ele><time>2026-04-20T13:46:04Z</time></trkpt><trkpt lat="45.45608236634028" lon="11.074079805621166"><ele>52.57142857142857</ele><time>2026-04-20T13:46:07Z</time></trkpt><trkpt lat="45.4560498423465" lon="11.074161536783448"><ele>52.42857142857143</ele><time>2026-04-20T13:46:10Z</time></trkpt><trkpt lat="45.45601492756704" lon="11.074236789736682"><ele>52.28571428571429</ele><time>2026-04-20T13:46:13Z</time></trkpt><trkpt lat="45.45597843763176" lon="11.07431523740409"><ele>52.14285714285714</ele><time>2026-04-20T13:46:16Z</time></trkpt><trkpt lat="45.45594209065619" lon="11.074389678568034"><ele>52.0</ele><time>2026-04-20T13:46:19Z</time></trkpt><trkpt lat="45.455909934013114" lon="11.074500962932536"><ele>51.99999999999999</ele><time>2026-04-20T13:46:23Z</time></trkpt><trkpt lat="45.45586346479781" lon="11.07460112392346"><ele>52.0</ele><time>2026-04-20T13:46:27Z</time></trkpt><trkpt lat="45.45583602320057" lon="11.074694686576736"><ele>52.0</ele><time>2026-04-20T13:46:30Z</time></trkpt><trkpt lat="45.45578825665328" lon="11.07475785630438"><ele>52.0</ele><time>2026-04-20T13:46:33Z</time></trkpt><trkpt lat="45.45575515882546" lon="11.074877161006532"><ele>51.99999999999999</ele><time>2026-04-20T13:46:36Z</time></trkpt><trkpt lat="45.45571467503112" lon="11.07497146740975"><ele>52.0</ele><time>2026-04-20T13:46:40Z</time></trkpt><trkpt lat="45.45566974909293" lon="11.075040878461255"><ele>52.0</ele><time>2026-04-20T13:46:42.999Z</time></trkpt><trkpt lat="45.45563727677632" lon="11.075120749136357"><ele>52.0</ele><time>2026-04-20T13:46:45.999Z</time></trkpt><trkpt lat="45.45560412214952" lon="11.075199096697494"><ele>52.0</ele><time>2026-04-20T13:46:48.999Z</time></trkpt><trkpt lat="45.45556324548653" lon="11.075273915893773"><ele>52.0</ele><time>2026-04-20T13:46:51.999Z</time></trkpt><trkpt lat="45.45552487231079" lon="11.075362090120642"><ele>52.0</ele><time>2026-04-20T13:46:54.999Z</time></trkpt><trkpt lat="45.45548586627231" lon="11.075445031503662"><ele>52.0</ele><time>2026-04-20T13:46:57.999Z</time></trkpt><trkpt lat="45.45545351582436" lon="11.075532093523414"><ele>52.0</ele><time>2026-04-20T13:47:00.999Z</time></trkpt><trkpt lat="45.45541591402855" lon="11.075622955818796"><ele>51.714285714285715</ele><time>2026-04-20T13:47:03.999Z</time></trkpt><trkpt lat="45.45537234847575" lon="11.075689657605391"><ele>51.42857142857143</ele><time>2026-04-20T13:47:07Z</time></trkpt><trkpt lat="45.455332898278954" lon="11.07576519075564"><ele>51.142857142857146</ele><time>2026-04-20T13:47:10Z</time></trkpt><trkpt lat="45.45529191059818" lon="11.075840549972478"><ele>50.85714285714286</ele><time>2026-04-20T13:47:13Z</time></trkpt><trkpt lat="45.45525081945524" lon="11.07593445797434"><ele>50.57142857142857</ele><time>2026-04-20T13:47:17Z</time></trkpt><trkpt lat="45.455219691687574" lon="11.07603146492844"><ele>50.28571428571429</ele><time>2026-04-20T13:47:21Z</time></trkpt><trkpt lat="45.45517768594928" lon="11.076108802955927"><ele>50.0</ele><time>2026-04-20T13:47:24Z</time></trkpt><trkpt lat="45.45521538834331" lon="11.07603463666583"><ele>50.00000000000001</ele><time>2026-04-20T13:47:28Z</time></trkpt><trkpt lat="45.45524083044574" lon="11.075949323241757"><ele>50.0</ele><time>2026-04-20T13:47:31Z</time></trkpt><trkpt lat="45.45529197833618" lon="11.075880316715804"><ele>50.0</ele><time>2026-04-20T13:47:34Z</time></trkpt><trkpt lat="45.455325548398726" lon="11.075792158728579"><ele>50.0</ele><time>2026-04-20T13:47:37Z</time></trkpt><trkpt lat="45.45537223839975" lon="11.075686920863872"><ele>50.0</ele><time>2026-04-20T13:47:41Z</time></trkpt><trkpt lat="45.455406088028994" lon="11.075606368174913"><ele>50.00000000000001</ele><time>2026-04-20T13:47:44Z</time></trkpt><trkpt lat="45.45544572377981" lon="11.075526511861634"><ele>50.0</ele><time>2026-04-20T13:47:47Z</time></trkpt><trkpt lat="45.455498226352354" lon="11.07543888498273"><ele>50.00000000000001</ele><time>2026-04-20T13:47:50Z</time></trkpt><trkpt lat="45.45552938940578" lon="11.07535296308428"><ele>50.0</ele><time>2026-04-20T13:48:01Z</time></trkpt><trkpt lat="45.45550090402949" lon="11.075437551027681"><ele>50.0</ele><time>2026-04-20T13:48:15Z</time></trkpt><trkpt lat="45.45546319552968" lon="11.075518215234968"><ele>50.0</ele><time>2026-04-20T13:48:20Z</time></trkpt><trkpt lat="45.45542593217319" lon="11.075601420240888"><ele>50.0</ele><time>2026-04-20T13:48:24Z</time></trkpt><trkpt lat="45.4553884271513" lon="11.07569526901766"><ele>50.00000000000001</ele><time>2026-04-20T13:48:29Z</time></trkpt><trkpt lat="45.455350894116314" lon="11.07578125772388"><ele>50.0</ele><time>2026-04-20T13:48:33.999Z</time></trkpt><trkpt lat="45.45530977545905" lon="11.075867280280448"><ele>50.00000000000001</ele><time>2026-04-20T13:48:38.999Z</time></trkpt><trkpt lat="45.455273882966246" lon="11.075959267629775"><ele>50.0</ele><time>2026-04-20T13:48:43.999Z</time></trkpt><trkpt lat="45.45523309823497" lon="11.076033109260251"><ele>50.0</ele><time>2026-04-20T13:48:48.999Z</time></trkpt><trkpt lat="45.45520602315889" lon="11.076117069382358"><ele>50.0</ele><time>2026-04-20T13:49:48Z</time></trkpt><trkpt lat="45.455168116823906" lon="11.076195966196707"><ele>50.0</ele><time>2026-04-20T13:50:40.999Z</time></trkpt><trkpt lat="45.45511691526973" lon="11.076264134537068"><ele>50.00000000000001</ele><time>2026-04-20T13:50:46.999Z</time></trkpt><trkpt lat="45.45507905752736" lon="11.076338639077914"><ele>50.0</ele><time>2026-04-20T13:50:51.999Z</time></trkpt><trkpt lat="45.45504838402952" lon="11.076424651347622"><ele>50.00000000000001</ele><time>2026-04-20T13:50:58.999Z</time></trkpt><trkpt lat="45.455010479780455" lon="11.076502993316874"><ele>50.0</ele><time>2026-04-20T13:51:03.999Z</time></trkpt><trkpt lat="45.45496329470016" lon="11.076564040699111"><ele>50.0</ele><time>2026-04-20T13:51:08.999Z</time></trkpt><trkpt lat="45.45492877014886" lon="11.076652999651145"><ele>50.0</ele><time>2026-04-20T13:51:13.999Z</time></trkpt><trkpt lat="45.45489256355148" lon="11.076733518114237"><ele>50.0</ele><time>2026-04-20T13:51:19Z</time></trkpt><trkpt lat="45.45486882262686" lon="11.076822612490378"><ele>50.00000000000001</ele><time>2026-04-20T13:51:24Z</time></trkpt><trkpt lat="45.45484343664785" lon="11.076912549606368"><ele>50.0</ele><time>2026-04-20T13:51:30Z</time></trkpt><trkpt lat="45.45480726274667" lon="11.077005978176116"><ele>50.42857142857143</ele><time>2026-04-20T13:51:36Z</time></trkpt><trkpt lat="45.45476503171615" lon="11.07707397971303"><ele>50.85714285714286</ele><time>2026-04-20T13:51:41Z</time></trkpt><trkpt lat="45.45472500681387" lon="11.077151332447757"><ele>51.28571428571429</ele><time>2026-04-20T13:51:46Z</time></trkpt><trkpt lat="45.45469093629305" lon="11.077227029392587"><ele>51.714285714285715</ele><time>2026-04-20T13:51:51Z</time></trkpt><trkpt lat="45.45463513911459" lon="11.077299626894265"><ele>52.14285714285714</ele><time>2026-04-20T13:51:57Z</time></trkpt><trkpt lat="45.45460637547892" lon="11.077390506087234"><ele>52.57142857142858</ele><time>2026-04-20T13:52:02Z</time></trkpt><trkpt lat="45.454573528133714" lon="11.077469820235535"><ele>53.0</ele><time>2026-04-20T13:52:07Z</time></trkpt><trkpt lat="45.454536612629035" lon="11.077562267186234"><ele>53.142857142857146</ele><time>2026-04-20T13:52:13Z</time></trkpt><trkpt lat="45.45448796002617" lon="11.07764181673597"><ele>53.285714285714285</ele><time>2026-04-20T13:52:19Z</time></trkpt><trkpt lat="45.45446311534344" lon="11.077735359320474"><ele>53.42857142857143</ele><time>2026-04-20T13:52:25.999Z</time></trkpt><trkpt lat="45.45442321986051" lon="11.07781480542506"><ele>53.57142857142857</ele><time>2026-04-20T13:52:30.999Z</time></trkpt><trkpt lat="45.454378353883016" lon="11.077882463027313"><ele>53.71428571428571</ele><time>2026-04-20T13:52:35.999Z</time></trkpt><trkpt lat="45.4543552998719" lon="11.077967073377643"><ele>53.857142857142854</ele><time>2026-04-20T13:52:40.999Z</time></trkpt><trkpt lat="45.454326285493885" lon="11.078055189657555"><ele>54.0</ele><time>2026-04-20T13:52:45.999Z</time></trkpt><trkpt lat="45.45428987383148" lon="11.078137713052989"><ele>54.0</ele><time>2026-04-20T13:52:50.999Z</time></trkpt><trkpt lat="45.45424968870625" lon="11.078220590427946"><ele>54.0</ele><time>2026-04-20T13:52:55.999Z</time></trkpt><trkpt lat="45.45421409628815" lon="11.07831711738119"><ele>54.0</ele><time>2026-04-20T13:53:03.999Z</time></trkpt><trkpt lat="45.45417729486827" lon="11.078391739497063"><ele>54.0</ele><time>2026-04-20T13:53:08.999Z</time></trkpt><trkpt lat="45.45412836241748" lon="11.078465011654634"><ele>54.0</ele><time>2026-04-20T13:53:13.999Z</time></trkpt><trkpt lat="45.4541090439034" lon="11.078563733962794"><ele>54.0</ele><time>2026-04-20T13:53:18.999Z</time></trkpt><trkpt lat="45.45407424633261" lon="11.078648042921117"><ele>54.0</ele><time>2026-04-20T13:53:24Z</time></trkpt><trkpt lat="45.45403443530584" lon="11.078729441205887"><ele>54.0</ele><time>2026-04-20T13:53:29Z</time></trkpt><trkpt lat="45.45398946316476" lon="11.078805672408045"><ele>54.0</ele><time>2026-04-20T13:53:34Z</time></trkpt><trkpt lat="45.45396768216498" lon="11.078891383227885"><ele>54.0</ele><time>2026-04-20T13:53:39Z</time></trkpt><trkpt lat="45.45393062486298" lon="11.078971599421564"><ele>54.0</ele><time>2026-04-20T13:53:44Z</time></trkpt><trkpt lat="45.45390093780053" lon="11.079066037070232"><ele>54.0</ele><time>2026-04-20T13:53:50Z</time></trkpt><trkpt lat="45.45385948542949" lon="11.079155087244414"><ele>54.0</ele><time>2026-04-20T13:53:56Z</time></trkpt><trkpt lat="45.45381182357553" lon="11.079226086166948"><ele>54.0</ele><time>2026-04-20T13:54:02Z</time></trkpt><trkpt lat="45.45375910736225" lon="11.079283033109485"><ele>53.714285714285715</ele><time>2026-04-20T13:54:08Z</time></trkpt><trkpt lat="45.45373486777639" lon="11.079377818893988"><ele>53.42857142857143</ele><time>2026-04-20T13:54:14Z</time></trkpt><trkpt lat="45.453685245360596" lon="11.079455218675138"><ele>53.14285714285714</ele><time>2026-04-20T13:54:20Z</time></trkpt><trkpt lat="45.45362763451204" lon="11.079516616836976"><ele>52.85714285714286</ele><time>2026-04-20T13:54:26Z</time></trkpt><trkpt lat="45.45356769008327" lon="11.079559990996666"><ele>52.57142857142858</ele><time>2026-04-20T13:54:32Z</time></trkpt><trkpt lat="45.453498826338745" lon="11.07957047481177"><ele>52.285714285714285</ele><time>2026-04-20T13:54:38Z</time></trkpt><trkpt lat="45.45343067521259" lon="11.079573739486758"><ele>52.0</ele><time>2026-04-20T13:54:43.999Z</time></trkpt><trkpt lat="45.4533584184938" lon="11.079579029069633"><ele>52.0</ele><time>2026-04-20T13:54:49.999Z</time></trkpt><trkpt lat="45.4532935478528" lon="11.079569632235728"><ele>52.0</ele><time>2026-04-20T13:54:53.999Z</time></trkpt><trkpt lat="45.45321852768349" lon="11.079585095703683"><ele>52.0</ele><time>2026-04-20T13:54:59.999Z</time></trkpt><trkpt lat="45.4531419339817" lon="11.079578962786318"><ele>52.0</ele><time>2026-04-20T13:55:05.999Z</time></trkpt><trkpt lat="45.45306977106593" lon="11.079585284741338"><ele>52.0</ele><time>2026-04-20T13:55:10.999Z</time></trkpt><trkpt lat="45.45299684366756" lon="11.079588731992498"><ele>52.0</ele><time>2026-04-20T13:55:15.999Z</time></trkpt><trkpt lat="45.45293050138403" lon="11.079581798617937"><ele>52.0</ele><time>2026-04-20T13:55:20.999Z</time></trkpt><trkpt lat="45.45286272905095" lon="11.079580856974165"><ele>51.857142857142854</ele><time>2026-04-20T13:55:25.999Z</time></trkpt><trkpt lat="45.45279638087348" lon="11.079580326824635"><ele>51.714285714285715</ele><time>2026-04-20T13:55:32Z</time></trkpt><trkpt lat="45.45272985221629" lon="11.079583225106475"><ele>51.57142857142857</ele><time>2026-04-20T13:55:38Z</time></trkpt><trkpt lat="45.45266682073799" lon="11.07958899523928"><ele>51.42857142857143</ele><time>2026-04-20T13:55:43Z</time></trkpt><trkpt lat="45.45259741547862" lon="11.079598739441469"><ele>51.28571428571429</ele><time>2026-04-20T13:55:48Z</time></trkpt><trkpt lat="45.452527547105866" lon="11.079616468993823"><ele>51.142857142857146</ele><time>2026-04-20T13:55:53Z</time></trkpt><trkpt lat="45.45245757120052" lon="11.079624371048823"><ele>51.0</ele><time>2026-04-20T13:55:58Z</time></trkpt><trkpt lat="45.4523857113886" lon="11.07964258077574"><ele>51.0</ele><time>2026-04-20T13:56:03Z</time></trkpt><trkpt lat="45.45231752489688" lon="11.07964056498249"><ele>51.0</ele><time>2026-04-20T13:56:08Z</time></trkpt><trkpt lat="45.452255078036636" lon="11.079653542089344"><ele>51.0</ele><time>2026-04-20T13:56:13Z</time></trkpt><trkpt lat="45.452191266403915" lon="11.07966278667018"><ele>51.0</ele><time>2026-04-20T13:56:18Z</time></trkpt><trkpt lat="45.452118518733826" lon="11.079661005819002"><ele>51.0</ele><time>2026-04-20T13:56:24Z</time></trkpt><trkpt lat="45.45204368293136" lon="11.079667726138343"><ele>51.0</ele><time>2026-04-20T13:56:30Z</time></trkpt><trkpt lat="45.451979382063605" lon="11.079663449566134"><ele>51.0</ele><time>2026-04-20T13:56:35Z</time></trkpt><trkpt lat="45.45191323988634" lon="11.079667770035018"><ele>51.42857142857143</ele><time>2026-04-20T13:56:40Z</time></trkpt><trkpt lat="45.45184926609469" lon="11.079665247742447"><ele>51.85714285714286</ele><time>2026-04-20T13:56:45Z</time></trkpt><trkpt lat="45.45178216959214" lon="11.07967232479869"><ele>52.285714285714285</ele><time>2026-04-20T13:56:49.999Z</time></trkpt><trkpt lat="45.451709738436314" lon="11.079677535544663"><ele>52.714285714285715</ele><time>2026-04-20T13:56:54.999Z</time></trkpt><trkpt lat="45.451634493339164" lon="11.079677413105905"><ele>53.14285714285714</ele><time>2026-04-20T13:56:59.999Z</time></trkpt><trkpt lat="45.451564627943" lon="11.079669255168877"><ele>53.57142857142857</ele><time>2026-04-20T13:57:04.999Z</time></trkpt><trkpt lat="45.451491422085375" lon="11.079677843988653"><ele>54.0</ele><time>2026-04-20T13:57:09.999Z</time></trkpt><trkpt lat="45.45142436645472" lon="11.079701524395968"><ele>54.0</ele><time>2026-04-20T13:57:14.999Z</time></trkpt><trkpt lat="45.451351312850974" lon="11.079694099240879"><ele>54.0</ele><time>2026-04-20T13:57:19.999Z</time></trkpt><trkpt lat="45.45128794806345" lon="11.079728251251058"><ele>54.0</ele><time>2026-04-20T13:57:24.999Z</time></trkpt><trkpt lat="45.45121399948544" lon="11.079709375966766"><ele>54.0</ele><time>2026-04-20T13:57:29.999Z</time></trkpt><trkpt lat="45.45114890207532" lon="11.07971903274292"><ele>54.0</ele><time>2026-04-20T13:57:34.999Z</time></trkpt><trkpt lat="45.45108303358783" lon="11.079728821069484"><ele>54.0</ele><time>2026-04-20T13:57:40Z</time></trkpt><trkpt lat="45.451012525523026" lon="11.079749720936753"><ele>54.0</ele><time>2026-04-20T13:57:46Z</time></trkpt><trkpt lat="45.450916022482645" lon="11.079743052065862"><ele>53.714285714285715</ele><time>2026-04-20T13:58:01Z</time></trkpt><trkpt lat="45.45084288389893" lon="11.079721033259489"><ele>53.42857142857143</ele><time>2026-04-20T13:58:06Z</time></trkpt><trkpt lat="45.45077145653308" lon="11.079723672224398"><ele>53.14285714285714</ele><time>2026-04-20T13:58:11Z</time></trkpt><trkpt lat="45.45070611438934" lon="11.079726602895732"><ele>52.85714285714286</ele><time>2026-04-20T13:58:16Z</time></trkpt><trkpt lat="45.45064073161253" lon="11.07972807043503"><ele>52.57142857142858</ele><time>2026-04-20T13:58:21Z</time></trkpt><trkpt lat="45.45056567107055" lon="11.079721970026522"><ele>52.285714285714285</ele><time>2026-04-20T13:58:27Z</time></trkpt><trkpt lat="45.45050124847643" lon="11.079724621730328"><ele>52.0</ele><time>2026-04-20T13:58:32Z</time></trkpt><trkpt lat="45.45043684271128" lon="11.079727956159733"><ele>51.857142857142854</ele><time>2026-04-20T13:58:37Z</time></trkpt><trkpt lat="45.45037232530171" lon="11.079733730466737"><ele>51.714285714285715</ele><time>2026-04-20T13:58:41.999Z</time></trkpt><trkpt lat="45.450305586293126" lon="11.07973972751089"><ele>51.57142857142857</ele><time>2026-04-20T13:58:46.999Z</time></trkpt><trkpt lat="45.45024122126953" lon="11.07973285422947"><ele>51.42857142857143</ele><time>2026-04-20T13:58:52.999Z</time></trkpt><trkpt lat="45.45017360711203" lon="11.079743620948346"><ele>51.28571428571429</ele><time>2026-04-20T13:58:58.999Z</time></trkpt><trkpt lat="45.4501020554" lon="11.079748925135593"><ele>51.142857142857146</ele><time>2026-04-20T13:59:04.999Z</time></trkpt><trkpt lat="45.45003085501398" lon="11.079753746256927"><ele>51.0</ele><time>2026-04-20T13:59:10.999Z</time></trkpt><trkpt lat="45.449959924084816" lon="11.079747068907107"><ele>51.0</ele><time>2026-04-20T13:59:16.999Z</time></trkpt><trkpt lat="45.44989576965071" lon="11.079747318046913"><ele>51.0</ele><time>2026-04-20T13:59:23.999Z</time></trkpt><trkpt lat="45.449821158619734" lon="11.079747119578645"><ele>51.0</ele><time>2026-04-20T13:59:29.999Z</time></trkpt><trkpt lat="45.44975876152897" lon="11.079767345247868"><ele>51.0</ele><time>2026-04-20T13:59:34.999Z</time></trkpt><trkpt lat="45.449698375192156" lon="11.079802905745115"><ele>51.0</ele><time>2026-04-20T13:59:39.999Z</time></trkpt><trkpt lat="45.44963460354546" lon="11.079834002785068"><ele>51.0</ele><time>2026-04-20T13:59:45Z</time></trkpt><trkpt lat="45.44958159239543" lon="11.079883073749768"><ele>51.0</ele><time>2026-04-20T13:59:50Z</time></trkpt><trkpt lat="45.44952298788355" lon="11.079934222453355"><ele>51.85714285714286</ele><time>2026-04-20T13:59:55Z</time></trkpt><trkpt lat="45.44946303691173" lon="11.079977076705527"><ele>52.714285714285715</ele><time>2026-04-20T14:00:00Z</time></trkpt><trkpt lat="45.449400175521895" lon="11.080015497850559"><ele>53.57142857142857</ele><time>2026-04-20T14:00:05Z</time></trkpt><trkpt lat="45.449330408541925" lon="11.08004283516019"><ele>54.42857142857143</ele><time>2026-04-20T14:00:10Z</time></trkpt><trkpt lat="45.449256422456926" lon="11.080060205070225"><ele>55.28571428571428</ele><time>2026-04-20T14:00:15Z</time></trkpt><trkpt lat="45.449183985903154" lon="11.08006319831722"><ele>56.14285714285714</ele><time>2026-04-20T14:00:20Z</time></trkpt><trkpt lat="45.4491159711471" lon="11.080058012095147"><ele>57.0</ele><time>2026-04-20T14:00:25Z</time></trkpt><trkpt lat="45.44904615689728" lon="11.080049243762879"><ele>57.0</ele><time>2026-04-20T14:00:30Z</time></trkpt><trkpt lat="45.44897678667381" lon="11.080042385266257"><ele>56.99999999999999</ele><time>2026-04-20T14:00:35Z</time></trkpt><trkpt lat="45.44891279281287" lon="11.080020611669903"><ele>57.0</ele><time>2026-04-20T14:00:40Z</time></trkpt><trkpt lat="45.448842355594735" lon="11.079995631929377"><ele>57.0</ele><time>2026-04-20T14:00:45Z</time></trkpt><trkpt lat="45.44877878719813" lon="11.08002827897696"><ele>56.99999999999999</ele><time>2026-04-20T14:00:50Z</time></trkpt><trkpt lat="45.448714686396215" lon="11.080037296354591"><ele>57.0</ele><time>2026-04-20T14:00:54.999Z</time></trkpt><trkpt lat="45.4486444554284" lon="11.080028337899734"><ele>57.0</ele><time>2026-04-20T14:00:59.999Z</time></trkpt><trkpt lat="45.448577379216985" lon="11.080023978785713"><ele>57.285714285714285</ele><time>2026-04-20T14:01:04.999Z</time></trkpt><trkpt lat="45.44851164375153" lon="11.080028002011488"><ele>57.57142857142857</ele><time>2026-04-20T14:01:09.999Z</time></trkpt><trkpt lat="45.448443695853776" lon="11.080046810957825"><ele>57.857142857142854</ele><time>2026-04-20T14:01:14.999Z</time></trkpt><trkpt lat="45.448379805366166" lon="11.080028926225834"><ele>58.14285714285714</ele><time>2026-04-20T14:01:19.999Z</time></trkpt><trkpt lat="45.44831464843633" lon="11.080038333938798"><ele>58.42857142857143</ele><time>2026-04-20T14:01:24.999Z</time></trkpt><trkpt lat="45.44824759673048" lon="11.080051693402483"><ele>58.71428571428571</ele><time>2026-04-20T14:01:29.999Z</time></trkpt><trkpt lat="45.44817650392746" lon="11.080056820242127"><ele>59.0</ele><time>2026-04-20T14:01:35.999Z</time></trkpt><trkpt lat="45.448107368492465" lon="11.08007834701681"><ele>59.0</ele><time>2026-04-20T14:01:40.999Z</time></trkpt><trkpt lat="45.44803803423166" lon="11.080094939156506"><ele>59.0</ele><time>2026-04-20T14:01:44.999Z</time></trkpt><trkpt lat="45.4479752398042" lon="11.080104268812159"><ele>59.0</ele><time>2026-04-20T14:01:50.999Z</time></trkpt><trkpt lat="45.44790401010439" lon="11.08013304573693"><ele>59.0</ele><time>2026-04-20T14:01:57.999Z</time></trkpt><trkpt lat="45.44783835502552" lon="11.080135778299711"><ele>59.0</ele><time>2026-04-20T14:02:00.999Z</time></trkpt><trkpt lat="45.447768841341244" lon="11.080149959163306"><ele>59.0</ele><time>2026-04-20T14:02:03.999Z</time></trkpt><trkpt lat="45.447680068521" lon="11.080158903572144"><ele>59.0</ele><time>2026-04-20T14:02:08Z</time></trkpt><trkpt lat="45.44761048845662" lon="11.0801678491845"><ele>58.857142857142854</ele><time>2026-04-20T14:02:11Z</time></trkpt><trkpt lat="45.44753985263933" lon="11.080177216882403"><ele>58.71428571428572</ele><time>2026-04-20T14:02:14Z</time></trkpt><trkpt lat="45.44746931500114" lon="11.080166855709324"><ele>58.57142857142858</ele><time>2026-04-20T14:02:19Z</time></trkpt><trkpt lat="45.447403385637735" lon="11.080181453914259"><ele>58.42857142857143</ele><time>2026-04-20T14:02:22Z</time></trkpt><trkpt lat="45.44733514737747" lon="11.080190791235621"><ele>58.28571428571429</ele><time>2026-04-20T14:02:25Z</time></trkpt><trkpt lat="45.44740145281224" lon="11.08020570307779"><ele>58.14285714285715</ele><time>2026-04-20T14:02:30.999Z</time></trkpt><trkpt lat="45.44733614347114" lon="11.080191799197907"><ele>58.00000000000001</ele><time>2026-04-20T14:02:47.999Z</time></trkpt><trkpt lat="45.447264777081195" lon="11.080200232632718"><ele>58.00000000000001</ele><time>2026-04-20T14:02:53.999Z</time></trkpt><trkpt lat="45.44719595921282" lon="11.080195957514606"><ele>58.0</ele><time>2026-04-20T14:02:58.999Z</time></trkpt><trkpt lat="45.44713141332979" lon="11.080208831804235"><ele>58.00000000000001</ele><time>2026-04-20T14:03:03.999Z</time></trkpt><trkpt lat="45.447066348454605" lon="11.080206899488598"><ele>58.00000000000001</ele><time>2026-04-20T14:03:08.999Z</time></trkpt><trkpt lat="45.446998964917675" lon="11.080212145498363"><ele>58.0</ele><time>2026-04-20T14:03:13.999Z</time></trkpt><trkpt lat="45.446929698058455" lon="11.080222716962597"><ele>58.00000000000001</ele><time>2026-04-20T14:03:19.999Z</time></trkpt><trkpt lat="45.44685429411239" lon="11.080222628618175"><ele>58.00000000000001</ele><time>2026-04-20T14:03:25.999Z</time></trkpt><trkpt lat="45.44679058733911" lon="11.0802467971762"><ele>57.85714285714286</ele><time>2026-04-20T14:03:30.999Z</time></trkpt><trkpt lat="45.44672281240245" lon="11.080249637418467"><ele>57.714285714285715</ele><time>2026-04-20T14:03:35.999Z</time></trkpt><trkpt lat="45.44665330612373" lon="11.08023894270966"><ele>57.57142857142857</ele><time>2026-04-20T14:03:40.999Z</time></trkpt><trkpt lat="45.44658836670565" lon="11.08026238121469"><ele>57.42857142857143</ele><time>2026-04-20T14:03:45.999Z</time></trkpt><trkpt lat="45.44652119877426" lon="11.080258816339215"><ele>57.28571428571428</ele><time>2026-04-20T14:03:50.999Z</time></trkpt><trkpt lat="45.44645400447988" lon="11.080245923194596"><ele>57.14285714285714</ele><time>2026-04-20T14:03:56Z</time></trkpt><trkpt lat="45.44638641585926" lon="11.080268488693179"><ele>57.0</ele><time>2026-04-20T14:04:01Z</time></trkpt><trkpt lat="45.44631582307074" lon="11.080246632346878"><ele>56.42857142857142</ele><time>2026-04-20T14:04:06Z</time></trkpt><trkpt lat="45.44624500149884" lon="11.080282255105923"><ele>55.85714285714285</ele><time>2026-04-20T14:04:12Z</time></trkpt><trkpt lat="45.446183760674856" lon="11.08031621604298"><ele>55.285714285714285</ele><time>2026-04-20T14:04:17Z</time></trkpt><trkpt lat="45.44611270985735" lon="11.080342370024697"><ele>54.71428571428571</ele><time>2026-04-20T14:04:22Z</time></trkpt><trkpt lat="45.44605076085994" lon="11.080389763858468"><ele>54.14285714285714</ele><time>2026-04-20T14:04:27Z</time></trkpt><trkpt lat="45.44598588505099" lon="11.08039831198448"><ele>53.57142857142857</ele><time>2026-04-20T14:04:32Z</time></trkpt><trkpt lat="45.445921926839596" lon="11.080422933942298"><ele>53.0</ele><time>2026-04-20T14:04:37Z</time></trkpt><trkpt lat="45.44585616545059" lon="11.08043128287027"><ele>53.0</ele><time>2026-04-20T14:04:43Z</time></trkpt><trkpt lat="45.44578904459173" lon="11.080457530380704"><ele>53.0</ele><time>2026-04-20T14:04:49Z</time></trkpt><trkpt lat="45.44571673502873" lon="11.08048415620448"><ele>53.0</ele><time>2026-04-20T14:04:55Z</time></trkpt><trkpt lat="45.445654208317926" lon="11.080519110885717"><ele>53.0</ele><time>2026-04-20T14:05:00Z</time></trkpt><trkpt lat="45.44559250366954" lon="11.080549647650775"><ele>53.0</ele><time>2026-04-20T14:05:05Z</time></trkpt><trkpt lat="45.44552982397565" lon="11.080567682795916"><ele>53.0</ele><time>2026-04-20T14:05:10Z</time></trkpt><trkpt lat="45.44546428568121" lon="11.080587081534532"><ele>53.0</ele><time>2026-04-20T14:05:15Z</time></trkpt><trkpt lat="45.445405890125464" lon="11.080634755282693"><ele>52.285714285714285</ele><time>2026-04-20T14:05:20Z</time></trkpt><trkpt lat="45.44534185208321" lon="11.080664149117577"><ele>51.57142857142857</ele><time>2026-04-20T14:05:25Z</time></trkpt><trkpt lat="45.445275133612796" lon="11.080686312509128"><ele>50.857142857142854</ele><time>2026-04-20T14:05:30Z</time></trkpt><trkpt lat="45.44520505770674" lon="11.0807007663855"><ele>50.14285714285714</ele><time>2026-04-20T14:05:34.999Z</time></trkpt><trkpt lat="45.445129286197734" lon="11.080706146863083"><ele>49.42857142857143</ele><time>2026-04-20T14:05:39.999Z</time></trkpt><trkpt lat="45.44505593937585" lon="11.080699104128334"><ele>48.71428571428571</ele><time>2026-04-20T14:05:44.999Z</time></trkpt><trkpt lat="45.44498728978347" lon="11.08071824588599"><ele>48.0</ele><time>2026-04-20T14:05:49.999Z</time></trkpt><trkpt lat="45.4449199074625" lon="11.080708053896545"><ele>47.99999999999999</ele><time>2026-04-20T14:05:54.999Z</time></trkpt><trkpt lat="45.44485400519975" lon="11.080665166555807"><ele>48.0</ele><time>2026-04-20T14:06:00Z</time></trkpt><trkpt lat="45.44478314923859" lon="11.080676019088298"><ele>48.0</ele><time>2026-04-20T14:06:06Z</time></trkpt><trkpt lat="45.44471876005631" lon="11.080676198936182"><ele>48.0</ele><time>2026-04-20T14:06:11Z</time></trkpt><trkpt lat="45.44465357186294" lon="11.080705718731075"><ele>48.0</ele><time>2026-04-20T14:06:18Z</time></trkpt><trkpt lat="45.444587873271395" lon="11.08073228759863"><ele>47.99999999999999</ele><time>2026-04-20T14:06:23Z</time></trkpt><trkpt lat="45.444522729060125" lon="11.080737896903328"><ele>48.0</ele><time>2026-04-20T14:06:28Z</time></trkpt><trkpt lat="45.44445896306646" lon="11.08075598533417"><ele>48.42857142857142</ele><time>2026-04-20T14:06:33Z</time></trkpt><trkpt lat="45.444388978005534" lon="11.08078683730181"><ele>48.857142857142854</ele><time>2026-04-20T14:06:39Z</time></trkpt><trkpt lat="45.444316247446054" lon="11.080820210424319"><ele>49.285714285714285</ele><time>2026-04-20T14:06:45Z</time></trkpt><trkpt lat="45.44424458990318" lon="11.080844616951799"><ele>49.71428571428571</ele><time>2026-04-20T14:06:51Z</time></trkpt><trkpt lat="45.44418046839808" lon="11.080866914842822"><ele>50.142857142857146</ele><time>2026-04-20T14:06:56Z</time></trkpt><trkpt lat="45.44411281478796" lon="11.080883486050345"><ele>50.57142857142857</ele><time>2026-04-20T14:07:01Z</time></trkpt><trkpt lat="45.44404374597746" lon="11.0809288152263"><ele>51.0</ele><time>2026-04-20T14:07:06Z</time></trkpt><trkpt lat="45.443983237594985" lon="11.080954403441813"><ele>51.0</ele><time>2026-04-20T14:07:11Z</time></trkpt><trkpt lat="45.44390873987174" lon="11.080979181850914"><ele>51.0</ele><time>2026-04-20T14:07:17Z</time></trkpt><trkpt lat="45.443842845804845" lon="11.081013270610681"><ele>51.0</ele><time>2026-04-20T14:07:24Z</time></trkpt><trkpt lat="45.44377895964329" lon="11.081023284109083"><ele>51.0</ele><time>2026-04-20T14:07:29Z</time></trkpt><trkpt lat="45.44372002386175" lon="11.081058622037888"><ele>51.0</ele><time>2026-04-20T14:07:34Z</time></trkpt><trkpt lat="45.44365585307104" lon="11.081074959777977"><ele>51.0</ele><time>2026-04-20T14:07:39Z</time></trkpt><trkpt lat="45.44359399742689" lon="11.081104870067566"><ele>51.0</ele><time>2026-04-20T14:07:43.999Z</time></trkpt><trkpt lat="45.44352233933238" lon="11.081136965938796"><ele>50.714285714285715</ele><time>2026-04-20T14:07:49.999Z</time></trkpt><trkpt lat="45.44345851619722" lon="11.081151366900786"><ele>50.42857142857143</ele><time>2026-04-20T14:07:54.999Z</time></trkpt><trkpt lat="45.44339420112281" lon="11.081170569633267"><ele>50.14285714285714</ele><time>2026-04-20T14:07:59.999Z</time></trkpt><trkpt lat="45.44332488436888" lon="11.08116725065771"><ele>49.85714285714286</ele><time>2026-04-20T14:08:04.999Z</time></trkpt><trkpt lat="45.44327936371966" lon="11.081092603449322"><ele>49.57142857142857</ele><time>2026-04-20T14:08:10.001Z</time></trkpt><trkpt lat="45.44327943556157" lon="11.080991064465769"><ele>49.285714285714285</ele><time>2026-04-20T14:08:15.001Z</time></trkpt><trkpt lat="45.443292497446706" lon="11.080890858386828"><ele>49.0</ele><time>2026-04-20T14:08:23Z</time></trkpt><trkpt lat="45.4433137558327" lon="11.080787224125926"><ele>48.857142857142854</ele><time>2026-04-20T14:08:30Z</time></trkpt><trkpt lat="45.44332281199002" lon="11.080679347473314"><ele>48.714285714285715</ele><time>2026-04-20T14:08:35Z</time></trkpt><trkpt lat="45.443346715588206" lon="11.080590070394004"><ele>48.57142857142857</ele><time>2026-04-20T14:08:40Z</time></trkpt><trkpt lat="45.44335063141772" lon="11.080491276731035"><ele>48.42857142857143</ele><time>2026-04-20T14:08:45Z</time></trkpt><trkpt lat="45.443353384890756" lon="11.080397033562457"><ele>48.285714285714285</ele><time>2026-04-20T14:08:50Z</time></trkpt><trkpt lat="45.4433490003575" lon="11.080303840649455"><ele>48.14285714285714</ele><time>2026-04-20T14:08:55Z</time></trkpt><trkpt lat="45.443355843038795" lon="11.080198108704467"><ele>48.0</ele><time>2026-04-20T14:09:00Z</time></trkpt><trkpt lat="45.44334950565196" lon="11.080096805091857"><ele>47.99999999999999</ele><time>2026-04-20T14:09:06Z</time></trkpt><trkpt lat="45.44335394399786" lon="11.079992538178091"><ele>48.0</ele><time>2026-04-20T14:09:12Z</time></trkpt><trkpt lat="45.44334336620027" lon="11.079896839135532"><ele>48.0</ele><time>2026-04-20T14:09:17Z</time></trkpt><trkpt lat="45.443341157452394" lon="11.079793663912696"><ele>48.0</ele><time>2026-04-20T14:09:23Z</time></trkpt><trkpt lat="45.44329059325343" lon="11.079732508486519"><ele>48.0</ele><time>2026-04-20T14:09:34Z</time></trkpt><trkpt lat="45.443284611484465" lon="11.079622508318117"><ele>47.99999999999999</ele><time>2026-04-20T14:09:40Z</time></trkpt><trkpt lat="45.44327877759288" lon="11.07949499284105"><ele>48.0</ele><time>2026-04-20T14:10:18.001Z</time></trkpt><trkpt lat="45.44328919114386" lon="11.079402712296883"><ele>48.14285714285714</ele><time>2026-04-20T14:10:23.001Z</time></trkpt><trkpt lat="45.44328170503435" lon="11.079311442878016"><ele>48.285714285714285</ele><time>2026-04-20T14:10:29Z</time></trkpt><trkpt lat="45.44329282406925" lon="11.07921349827533"><ele>48.42857142857143</ele><time>2026-04-20T14:10:34Z</time></trkpt><trkpt lat="45.44329415897676" lon="11.079111108661705"><ele>48.57142857142857</ele><time>2026-04-20T14:10:40Z</time></trkpt><trkpt lat="45.44329459462779" lon="11.079009767243326"><ele>48.714285714285715</ele><time>2026-04-20T14:11:01Z</time></trkpt><trkpt lat="45.443319384277466" lon="11.078913383911635"><ele>48.857142857142854</ele><time>2026-04-20T14:11:06Z</time></trkpt><trkpt lat="45.44333921736338" lon="11.078825559132984"><ele>49.0</ele><time>2026-04-20T14:11:11Z</time></trkpt><trkpt lat="45.4433484162567" lon="11.078719609073957"><ele>49.0</ele><time>2026-04-20T14:11:16Z</time></trkpt><trkpt lat="45.44336055594172" lon="11.078620377746319"><ele>49.0</ele><time>2026-04-20T14:11:21Z</time></trkpt><trkpt lat="45.44336711540258" lon="11.078515742510294"><ele>49.0</ele><time>2026-04-20T14:11:27Z</time></trkpt><trkpt lat="45.44338648492705" lon="11.078416823406153"><ele>49.0</ele><time>2026-04-20T14:11:32Z</time></trkpt><trkpt lat="45.44335283354139" lon="11.078327867138519"><ele>49.0</ele><time>2026-04-20T14:11:37Z</time></trkpt><trkpt lat="45.443317454551924" lon="11.078244187627845"><ele>49.0</ele><time>2026-04-20T14:11:43Z</time></trkpt><trkpt lat="45.4433285593978" lon="11.078152718382658"><ele>49.0</ele><time>2026-04-20T14:11:50.999Z</time></trkpt><trkpt lat="45.44334072944976" lon="11.078064309907225"><ele>49.142857142857146</ele><time>2026-04-20T14:11:55.999Z</time></trkpt><trkpt lat="45.443361364962044" lon="11.077976444084575"><ele>49.285714285714285</ele><time>2026-04-20T14:12:00.999Z</time></trkpt><trkpt lat="45.44338899630525" lon="11.077869997907184"><ele>49.42857142857143</ele><time>2026-04-20T14:12:06.999Z</time></trkpt><trkpt lat="45.44339651709425" lon="11.077770949347787"><ele>49.57142857142857</ele><time>2026-04-20T14:12:11.999Z</time></trkpt><trkpt lat="45.443388969289074" lon="11.077668771344007"><ele>49.714285714285715</ele><time>2026-04-20T14:12:16.999Z</time></trkpt><trkpt lat="45.443389064326965" lon="11.077568622622008"><ele>49.85714285714286</ele><time>2026-04-20T14:12:24Z</time></trkpt><trkpt lat="45.44340760416659" lon="11.077469763588503"><ele>50.0</ele><time>2026-04-20T14:12:29Z</time></trkpt><trkpt lat="45.44338951431644" lon="11.07737772365742"><ele>50.142857142857146</ele><time>2026-04-20T14:12:34Z</time></trkpt><trkpt lat="45.44337099929455" lon="11.077290264874652"><ele>50.285714285714285</ele><time>2026-04-20T14:12:39Z</time></trkpt><trkpt lat="45.44336138416974" lon="11.077199606899716"><ele>50.42857142857143</ele><time>2026-04-20T14:12:44Z</time></trkpt><trkpt lat="45.443395839923205" lon="11.07712333150452"><ele>50.57142857142857</ele><time>2026-04-20T14:12:50Z</time></trkpt><trkpt lat="45.44340595296656" lon="11.077027527336151"><ele>50.714285714285715</ele><time>2026-04-20T14:12:55Z</time></trkpt><trkpt lat="45.44341294226683" lon="11.076926595750113"><ele>50.85714285714286</ele><time>2026-04-20T14:13:00Z</time></trkpt><trkpt lat="45.44342711034122" lon="11.07682971618684"><ele>51.0</ele><time>2026-04-20T14:13:05Z</time></trkpt><trkpt lat="45.443427030480606" lon="11.076726503735909"><ele>51.0</ele><time>2026-04-20T14:13:11Z</time></trkpt><trkpt lat="45.44341386876527" lon="11.076626508172819"><ele>51.0</ele><time>2026-04-20T14:13:16Z</time></trkpt><trkpt lat="45.4433986685791" lon="11.07653383036903"><ele>51.0</ele><time>2026-04-20T14:13:21Z</time></trkpt><trkpt lat="45.44344097771974" lon="11.07646260602959"><ele>51.0</ele><time>2026-04-20T14:13:27Z</time></trkpt><trkpt lat="45.44349831635922" lon="11.076405108352144"><ele>51.0</ele><time>2026-04-20T14:13:32Z</time></trkpt><trkpt lat="45.4435420541385" lon="11.076337809676472"><ele>51.0</ele><time>2026-04-20T14:13:50.999Z</time></trkpt><trkpt lat="45.443562113249854" lon="11.076245556619993"><ele>51.0</ele><time>2026-04-20T14:13:57.999Z</time></trkpt><trkpt lat="45.443546970789136" lon="11.076152427851692"><ele>51.285714285714285</ele><time>2026-04-20T14:14:05.999Z</time></trkpt><trkpt lat="45.44353052002219" lon="11.076061182353353"><ele>51.57142857142857</ele><time>2026-04-20T14:14:11.999Z</time></trkpt><trkpt lat="45.44351823536003" lon="11.075962361737002"><ele>51.85714285714286</ele><time>2026-04-20T14:14:17.999Z</time></trkpt><trkpt lat="45.44349949729145" lon="11.075862207964118"><ele>52.14285714285714</ele><time>2026-04-20T14:14:25Z</time></trkpt><trkpt lat="45.44350421487738" lon="11.075963605162052"><ele>52.42857142857142</ele><time>2026-04-20T14:15:15Z</time></trkpt><trkpt lat="45.443543166666664" lon="11.076058499999998"><ele>52.714285714285715</ele><time>2026-04-20T14:15:17.984Z</time></trkpt><trkpt lat="45.4435645" lon="11.076174666666669"><ele>53.0</ele><time>2026-04-20T14:15:21.048Z</time></trkpt><trkpt lat="45.44358183333333" lon="11.076291499999998"><ele>53.0</ele><time>2026-04-20T14:15:23.976Z</time></trkpt><trkpt lat="45.443579" lon="11.076546333333333"><ele>53.0</ele><time>2026-04-20T14:15:30.994Z</time></trkpt><trkpt lat="45.44351700000001" lon="11.076579666666666"><ele>53.0</ele><time>2026-04-20T14:15:33.988Z</time></trkpt><trkpt lat="45.443449166666674" lon="11.076595833333332"><ele>53.0</ele><time>2026-04-20T14:15:41.974Z</time></trkpt><trkpt lat="45.443414" lon="11.076734333333333"><ele>53.0</ele><time>2026-04-20T14:15:44.986Z</time></trkpt><trkpt lat="45.44340933333333" lon="11.076880333333333"><ele>52.66666666666667</ele><time>2026-04-20T14:15:46.979Z</time></trkpt><trkpt lat="45.44340466666666" lon="11.077052499999999"><ele>52.333333333333336</ele><time>2026-04-20T14:15:48.984Z</time></trkpt><trkpt lat="45.443402166666665" lon="11.077146166666667"><ele>52.0</ele><time>2026-04-20T14:15:49.981Z</time></trkpt><trkpt lat="45.44339933333334" lon="11.077243666666666"><ele>51.66666666666667</ele><time>2026-04-20T14:15:50.979Z</time></trkpt><trkpt lat="45.443396666666665" lon="11.0773525"><ele>51.333333333333336</ele><time>2026-04-20T14:15:51.981Z</time></trkpt><trkpt lat="45.44339316666666" lon="11.077471"><ele>51.0</ele><time>2026-04-20T14:15:52.98Z</time></trkpt><trkpt lat="45.44338899999999" lon="11.077588166666665"><ele>50.8</ele><time>2026-04-20T14:15:53.98Z</time></trkpt><trkpt lat="45.443386499999995" lon="11.077698333333336"><ele>50.599999999999994</ele><time>2026-04-20T14:15:54.979Z</time></trkpt><trkpt lat="45.443383833333336" lon="11.077793000000002"><ele>50.4</ele><time>2026-04-20T14:15:55.981Z</time></trkpt><trkpt lat="45.44337566666666" lon="11.0779585"><ele>50.2</ele><time>2026-04-20T14:15:57.983Z</time></trkpt><trkpt lat="45.44336633333334" lon="11.078119833333334"><ele>50.0</ele><time>2026-04-20T14:15:59.968Z</time></trkpt><trkpt lat="45.44335800000001" lon="11.078278166666665"><ele>50.00000000000001</ele><time>2026-04-20T14:16:01.981Z</time></trkpt><trkpt lat="45.4433085" lon="11.078427666666668"><ele>50.0</ele><time>2026-04-20T14:16:03.993Z</time></trkpt><trkpt lat="45.44325683333333" lon="11.078486666666668"><ele>50.0</ele><time>2026-04-20T14:16:04.976Z</time></trkpt><trkpt lat="45.44319483333334" lon="11.078536000000001"><ele>50.0</ele><time>2026-04-20T14:16:05.955Z</time></trkpt><trkpt lat="45.44312083333333" lon="11.078583833333335"><ele>50.00000000000001</ele><time>2026-04-20T14:16:06.999Z</time></trkpt><trkpt lat="45.44303549999999" lon="11.078634666666668"><ele>50.0</ele><time>2026-04-20T14:16:07.975Z</time></trkpt><trkpt lat="45.44294" lon="11.078686333333334"><ele>50.0</ele><time>2026-04-20T14:16:08.977Z</time></trkpt><trkpt lat="45.442839500000005" lon="11.078738999999999"><ele>50.0</ele><time>2026-04-20T14:16:09.972Z</time></trkpt><trkpt lat="45.44273041745136" lon="11.078771089846622"><ele>50.0</ele><time>2026-04-20T14:16:10.976Z</time></trkpt><trkpt lat="45.44262389416876" lon="11.078823783791362"><ele>50.0</ele><time>2026-04-20T14:16:11.987Z</time></trkpt><trkpt lat="45.44251494952299" lon="11.078877807608793"><ele>50.0</ele><time>2026-04-20T14:16:13.029Z</time></trkpt><trkpt lat="45.442407083870215" lon="11.078931296371046"><ele>50.0</ele><time>2026-04-20T14:16:13.979Z</time></trkpt><trkpt lat="45.44230159777994" lon="11.078983605149007"><ele>50.0</ele><time>2026-04-20T14:16:14.982Z</time></trkpt><trkpt lat="45.442198037941225" lon="11.079034958730647"><ele>50.0</ele><time>2026-04-20T14:16:15.976Z</time></trkpt><trkpt lat="45.442096834750416" lon="11.079083583259122"><ele>50.0</ele><time>2026-04-20T14:16:16.974Z</time></trkpt><trkpt lat="45.441995314883336" lon="11.07912858097145"><ele>50.0</ele><time>2026-04-20T14:16:17.975Z</time></trkpt><trkpt lat="45.4418912868266" lon="11.079174690430717"><ele>49.5</ele><time>2026-04-20T14:16:18.998Z</time></trkpt><trkpt lat="45.44178749999999" lon="11.079245833333335"><ele>49.0</ele><time>2026-04-20T14:16:19.983Z</time></trkpt><trkpt lat="45.441674833333344" lon="11.079303833333332"><ele>48.5</ele><time>2026-04-20T14:16:20.982Z</time></trkpt><trkpt lat="45.44155222871364" lon="11.079349044358874"><ele>48.0</ele><time>2026-04-20T14:16:22.005Z</time></trkpt><trkpt lat="45.441426986039076" lon="11.079417131693592"><ele>48.0</ele><time>2026-04-20T14:16:22.983Z</time></trkpt><trkpt lat="45.441301711536966" lon="11.079488806191828"><ele>48.0</ele><time>2026-04-20T14:16:23.966Z</time></trkpt><trkpt lat="45.441181166666674" lon="11.079589333333335"><ele>48.0</ele><time>2026-04-20T14:16:24.977Z</time></trkpt><trkpt lat="45.44104649999999" lon="11.079669666666666"><ele>48.0</ele><time>2026-04-20T14:16:25.974Z</time></trkpt><trkpt lat="45.44090716666666" lon="11.079757833333334"><ele>48.0</ele><time>2026-04-20T14:16:26.968Z</time></trkpt><trkpt lat="45.44076483333333" lon="11.079850333333331"><ele>48.0</ele><time>2026-04-20T14:16:27.977Z</time></trkpt><trkpt lat="45.44062016666666" lon="11.079946666666668"><ele>48.0</ele><time>2026-04-20T14:16:28.969Z</time></trkpt><trkpt lat="45.440475166666666" lon="11.080045500000002"><ele>48.0</ele><time>2026-04-20T14:16:29.979Z</time></trkpt><trkpt lat="45.44032833333334" lon="11.080142666666665"><ele>48.0</ele><time>2026-04-20T14:16:30.975Z</time></trkpt><trkpt lat="45.44018" lon="11.08024"><ele>48.0</ele><time>2026-04-20T14:16:31.965Z</time></trkpt><trkpt lat="45.44003116666666" lon="11.080338333333335"><ele>48.0</ele><time>2026-04-20T14:16:32.977Z</time></trkpt><trkpt lat="45.439880333333335" lon="11.0804375"><ele>48.0</ele><time>2026-04-20T14:16:33.977Z</time></trkpt><trkpt lat="45.43972883333333" lon="11.080538333333333"><ele>48.0</ele><time>2026-04-20T14:16:34.971Z</time></trkpt><trkpt lat="45.43958033333334" lon="11.080635166666665"><ele>48.33333333333333</ele><time>2026-04-20T14:16:35.98Z</time></trkpt><trkpt lat="45.439429999999994" lon="11.080732000000001"><ele>48.666666666666664</ele><time>2026-04-20T14:16:36.979Z</time></trkpt><trkpt lat="45.43928033333333" lon="11.080826666666667"><ele>49.0</ele><time>2026-04-20T14:16:37.964Z</time></trkpt><trkpt lat="45.4391345" lon="11.080921999999997"><ele>49.0</ele><time>2026-04-20T14:16:38.977Z</time></trkpt><trkpt lat="45.438991" lon="11.081014833333333"><ele>49.0</ele><time>2026-04-20T14:16:39.972Z</time></trkpt><trkpt lat="45.43885149999999" lon="11.081104499999999"><ele>49.0</ele><time>2026-04-20T14:16:40.969Z</time></trkpt><trkpt lat="45.438715833333326" lon="11.081191666666667"><ele>49.0</ele><time>2026-04-20T14:16:41.968Z</time></trkpt><trkpt lat="45.43858233333334" lon="11.081278166666667"><ele>49.0</ele><time>2026-04-20T14:16:42.966Z</time></trkpt><trkpt lat="45.438447999999994" lon="11.081363833333334"><ele>49.0</ele><time>2026-04-20T14:16:43.971Z</time></trkpt><trkpt lat="45.43831183333333" lon="11.081449500000002"><ele>49.0</ele><time>2026-04-20T14:16:44.964Z</time></trkpt><trkpt lat="45.43817349999999" lon="11.08153616666667"><ele>49.0</ele><time>2026-04-20T14:16:45.974Z</time></trkpt><trkpt lat="45.43803200000001" lon="11.081618833333335"><ele>49.0</ele><time>2026-04-20T14:16:46.969Z</time></trkpt><trkpt lat="45.43788500000001" lon="11.081693"><ele>49.0</ele><time>2026-04-20T14:16:47.975Z</time></trkpt><trkpt lat="45.437728500000006" lon="11.081758166666667"><ele>49.0</ele><time>2026-04-20T14:16:48.963Z</time></trkpt><trkpt lat="45.43756216666668" lon="11.08181216666667"><ele>49.0</ele><time>2026-04-20T14:16:49.97Z</time></trkpt><trkpt lat="45.43738816666667" lon="11.081853333333333"><ele>49.0</ele><time>2026-04-20T14:16:50.971Z</time></trkpt><trkpt lat="45.4372115" lon="11.08188866666667"><ele>48.666666666666664</ele><time>2026-04-20T14:16:51.969Z</time></trkpt><trkpt lat="45.43703533333334" lon="11.081925333333333"><ele>48.33333333333333</ele><time>2026-04-20T14:16:52.968Z</time></trkpt><trkpt lat="45.436857666666675" lon="11.081962833333334"><ele>48.0</ele><time>2026-04-20T14:16:53.956Z</time></trkpt><trkpt lat="45.43667716666667" lon="11.082000833333332"><ele>48.0</ele><time>2026-04-20T14:16:54.96Z</time></trkpt><trkpt lat="45.43649666666667" lon="11.082037166666664"><ele>48.0</ele><time>2026-04-20T14:16:55.97Z</time></trkpt><trkpt lat="45.43631783333334" lon="11.082072000000002"><ele>48.0</ele><time>2026-04-20T14:16:56.972Z</time></trkpt><trkpt lat="45.436141666666664" lon="11.082108333333334"><ele>48.33333333333333</ele><time>2026-04-20T14:16:57.962Z</time></trkpt><trkpt lat="45.435969166666666" lon="11.082143666666665"><ele>48.666666666666664</ele><time>2026-04-20T14:16:58.974Z</time></trkpt><trkpt lat="45.435795999999996" lon="11.082178500000001"><ele>49.0</ele><time>2026-04-20T14:16:59.97Z</time></trkpt><trkpt lat="45.435621000000005" lon="11.082213333333334"><ele>48.33333333333333</ele><time>2026-04-20T14:17:00.991Z</time></trkpt><trkpt lat="45.435446000000006" lon="11.082240833333332"><ele>47.666666666666664</ele><time>2026-04-20T14:17:01.972Z</time></trkpt><trkpt lat="45.43527066666667" lon="11.082253333333332"><ele>47.0</ele><time>2026-04-20T14:17:02.988Z</time></trkpt><trkpt lat="45.43509583333333" lon="11.082249000000003"><ele>47.0</ele><time>2026-04-20T14:17:03.968Z</time></trkpt><trkpt lat="45.434928846551394" lon="11.082191303110749"><ele>47.0</ele><time>2026-04-20T14:17:04.977Z</time></trkpt><trkpt lat="45.43476196710303" lon="11.082151892862036"><ele>47.0</ele><time>2026-04-20T14:17:05.976Z</time></trkpt><trkpt lat="45.43459483333333" lon="11.082137166666667"><ele>46.666666666666664</ele><time>2026-04-20T14:17:06.979Z</time></trkpt><trkpt lat="45.434433166666665" lon="11.082110499999999"><ele>46.333333333333336</ele><time>2026-04-20T14:17:07.97Z</time></trkpt><trkpt lat="45.434273" lon="11.082102333333335"><ele>46.0</ele><time>2026-04-20T14:17:08.987Z</time></trkpt><trkpt lat="45.434116499999995" lon="11.082108666666665"><ele>46.0</ele><time>2026-04-20T14:17:09.97Z</time></trkpt><trkpt lat="45.433960997329535" lon="11.08211633958874"><ele>46.0</ele><time>2026-04-20T14:17:10.97Z</time></trkpt><trkpt lat="45.4338185" lon="11.082206666666666"><ele>46.0</ele><time>2026-04-20T14:17:11.974Z</time></trkpt><trkpt lat="45.433677" lon="11.082300166666668"><ele>46.66666666666667</ele><time>2026-04-20T14:17:12.975Z</time></trkpt><trkpt lat="45.433538666666664" lon="11.082411833333333"><ele>47.333333333333336</ele><time>2026-04-20T14:17:13.972Z</time></trkpt><trkpt lat="45.43339833333333" lon="11.082533166666668"><ele>48.0</ele><time>2026-04-20T14:17:14.978Z</time></trkpt><trkpt lat="45.43325499999999" lon="11.082649"><ele>48.0</ele><time>2026-04-20T14:17:15.973Z</time></trkpt><trkpt lat="45.43311033333333" lon="11.082761000000001"><ele>48.0</ele><time>2026-04-20T14:17:16.968Z</time></trkpt><trkpt lat="45.432963833333325" lon="11.082868333333334"><ele>48.0</ele><time>2026-04-20T14:17:17.979Z</time></trkpt><trkpt lat="45.43281683333333" lon="11.08297533333333"><ele>48.33333333333333</ele><time>2026-04-20T14:17:18.968Z</time></trkpt><trkpt lat="45.43266716666667" lon="11.083080666666667"><ele>48.666666666666664</ele><time>2026-04-20T14:17:19.97Z</time></trkpt><trkpt lat="45.43251416666667" lon="11.083183166666666"><ele>49.0</ele><time>2026-04-20T14:17:20.977Z</time></trkpt><trkpt lat="45.43236083333333" lon="11.083277833333332"><ele>48.33333333333333</ele><time>2026-04-20T14:17:21.968Z</time></trkpt><trkpt lat="45.43220533333333" lon="11.083362333333332"><ele>47.666666666666664</ele><time>2026-04-20T14:17:22.967Z</time></trkpt><trkpt lat="45.432047" lon="11.0834295"><ele>47.0</ele><time>2026-04-20T14:17:23.951Z</time></trkpt><trkpt lat="45.43188416666666" lon="11.083478166666664"><ele>46.666666666666664</ele><time>2026-04-20T14:17:24.971Z</time></trkpt><trkpt lat="45.43171649999999" lon="11.083507666666666"><ele>46.333333333333336</ele><time>2026-04-20T14:17:25.962Z</time></trkpt><trkpt lat="45.43154416666666" lon="11.083518"><ele>46.0</ele><time>2026-04-20T14:17:26.969Z</time></trkpt><trkpt lat="45.43136766666666" lon="11.0835175"><ele>45.66666666666667</ele><time>2026-04-20T14:17:28.139Z</time></trkpt><trkpt lat="45.431189499999995" lon="11.083515499999999"><ele>45.333333333333336</ele><time>2026-04-20T14:17:28.981Z</time></trkpt><trkpt lat="45.431011999999996" lon="11.0835135"><ele>45.0</ele><time>2026-04-20T14:17:29.971Z</time></trkpt><trkpt lat="45.43083766666667" lon="11.0835125"><ele>45.0</ele><time>2026-04-20T14:17:30.964Z</time></trkpt><trkpt lat="45.43066650000001" lon="11.083510000000002"><ele>45.0</ele><time>2026-04-20T14:17:31.947Z</time></trkpt><trkpt lat="45.430495" lon="11.083507"><ele>45.0</ele><time>2026-04-20T14:17:32.967Z</time></trkpt><trkpt lat="45.430325666666675" lon="11.083505833333334"><ele>45.666666666666664</ele><time>2026-04-20T14:17:33.972Z</time></trkpt><trkpt lat="45.43015749999999" lon="11.0835055"><ele>46.33333333333333</ele><time>2026-04-20T14:17:34.973Z</time></trkpt><trkpt lat="45.42999016666666" lon="11.083504666666666"><ele>47.0</ele><time>2026-04-20T14:17:35.96Z</time></trkpt><trkpt lat="45.42982383333333" lon="11.083504499999998"><ele>47.0</ele><time>2026-04-20T14:17:36.96Z</time></trkpt><trkpt lat="45.4296585" lon="11.083504999999999"><ele>47.0</ele><time>2026-04-20T14:17:37.956Z</time></trkpt><trkpt lat="45.4294935" lon="11.083505166666665"><ele>47.0</ele><time>2026-04-20T14:17:38.963Z</time></trkpt><trkpt lat="45.42932583333333" lon="11.083506499999999"><ele>46.33333333333333</ele><time>2026-04-20T14:17:40.145Z</time></trkpt><trkpt lat="45.42915733333333" lon="11.083507666666666"><ele>45.666666666666664</ele><time>2026-04-20T14:17:40.969Z</time></trkpt><trkpt lat="45.42899049999999" lon="11.083506833333335"><ele>45.0</ele><time>2026-04-20T14:17:41.959Z</time></trkpt><trkpt lat="45.42882483333333" lon="11.083503666666665"><ele>46.33333333333333</ele><time>2026-04-20T14:17:42.966Z</time></trkpt><trkpt lat="45.42866116666668" lon="11.0834985"><ele>47.666666666666664</ele><time>2026-04-20T14:17:43.956Z</time></trkpt><trkpt lat="45.42850133333334" lon="11.083492166666668"><ele>49.0</ele><time>2026-04-20T14:17:44.975Z</time></trkpt><trkpt lat="45.42834266666667" lon="11.083485333333332"><ele>49.0</ele><time>2026-04-20T14:17:45.974Z</time></trkpt><trkpt lat="45.428185500000005" lon="11.083474333333333"><ele>49.0</ele><time>2026-04-20T14:17:46.972Z</time></trkpt><trkpt lat="45.428031833333335" lon="11.083459666666666"><ele>49.0</ele><time>2026-04-20T14:17:47.974Z</time></trkpt><trkpt lat="45.42788099999999" lon="11.083444000000002"><ele>48.5</ele><time>2026-04-20T14:17:48.962Z</time></trkpt><trkpt lat="45.42773466666666" lon="11.083429666666666"><ele>48.0</ele><time>2026-04-20T14:17:49.972Z</time></trkpt><trkpt lat="45.427589000000005" lon="11.0834185"><ele>47.5</ele><time>2026-04-20T14:17:50.989Z</time></trkpt><trkpt lat="45.42744316666667" lon="11.083408999999998"><ele>47.0</ele><time>2026-04-20T14:17:51.985Z</time></trkpt><trkpt lat="45.427298333333326" lon="11.083404333333332"><ele>47.0</ele><time>2026-04-20T14:17:52.964Z</time></trkpt><trkpt lat="45.427154" lon="11.08339716666667"><ele>47.0</ele><time>2026-04-20T14:17:53.924Z</time></trkpt><trkpt lat="45.42701216666666" lon="11.083387166666666"><ele>47.0</ele><time>2026-04-20T14:17:54.96Z</time></trkpt><trkpt lat="45.42687466666667" lon="11.083375666666667"><ele>47.0</ele><time>2026-04-20T14:17:55.973Z</time></trkpt><trkpt lat="45.426746666666666" lon="11.083362333333332"><ele>47.2</ele><time>2026-04-20T14:17:56.971Z</time></trkpt><trkpt lat="45.426629000000005" lon="11.083346833333334"><ele>47.400000000000006</ele><time>2026-04-20T14:17:57.942Z</time></trkpt><trkpt lat="45.426521333333326" lon="11.083334166666669"><ele>47.599999999999994</ele><time>2026-04-20T14:17:58.956Z</time></trkpt><trkpt lat="45.426418833333344" lon="11.083324999999999"><ele>47.8</ele><time>2026-04-20T14:17:59.946Z</time></trkpt><trkpt lat="45.426326" lon="11.083317333333332"><ele>48.0</ele><time>2026-04-20T14:18:00.946Z</time></trkpt><trkpt lat="45.42624683333334" lon="11.083310666666668"><ele>48.0</ele><time>2026-04-20T14:18:01.962Z</time></trkpt><trkpt lat="45.426176500000004" lon="11.083305000000001"><ele>48.0</ele><time>2026-04-20T14:18:02.979Z</time></trkpt><trkpt lat="45.42610866666667" lon="11.083299499999997"><ele>48.0</ele><time>2026-04-20T14:18:03.957Z</time></trkpt><trkpt lat="45.42604200000001" lon="11.083293499999998"><ele>48.0</ele><time>2026-04-20T14:18:04.965Z</time></trkpt><trkpt lat="45.42597266666667" lon="11.083287"><ele>48.0</ele><time>2026-04-20T14:18:05.949Z</time></trkpt><trkpt lat="45.425889166666664" lon="11.083279666666666"><ele>48.0</ele><time>2026-04-20T14:18:06.92Z</time></trkpt><trkpt lat="45.425792" lon="11.083272499999998"><ele>48.0</ele><time>2026-04-20T14:18:07.948Z</time></trkpt><trkpt lat="45.425690833333334" lon="11.0832675"><ele>48.0</ele><time>2026-04-20T14:18:08.948Z</time></trkpt><trkpt lat="45.42558983333333" lon="11.083266"><ele>48.0</ele><time>2026-04-20T14:18:09.967Z</time></trkpt><trkpt lat="45.425487499999996" lon="11.083264166666668"><ele>48.0</ele><time>2026-04-20T14:18:10.946Z</time></trkpt><trkpt lat="45.42539733333333" lon="11.083261166666666"><ele>48.0</ele><time>2026-04-20T14:18:11.957Z</time></trkpt><trkpt lat="45.4253205" lon="11.083258333333331"><ele>48.166666666666664</ele><time>2026-04-20T14:18:12.946Z</time></trkpt><trkpt lat="45.42522649999999" lon="11.083254333333333"><ele>48.33333333333333</ele><time>2026-04-20T14:18:14.971Z</time></trkpt><trkpt lat="45.425159833333325" lon="11.083250666666666"><ele>48.5</ele><time>2026-04-20T14:19:17.979Z</time></trkpt><trkpt lat="45.425088833333334" lon="11.083247166666668"><ele>48.666666666666664</ele><time>2026-04-20T14:19:19.977Z</time></trkpt><trkpt lat="45.42500966666667" lon="11.083262833333334"><ele>48.83333333333333</ele><time>2026-04-20T14:19:21.971Z</time></trkpt><trkpt lat="45.42491866666666" lon="11.083346666666667"><ele>49.0</ele><time>2026-04-20T14:19:23.966Z</time></trkpt><trkpt lat="45.42485283333334" lon="11.083504499999998"><ele>49.0</ele><time>2026-04-20T14:19:25.972Z</time></trkpt><trkpt lat="45.42482400000001" lon="11.083608166666666"><ele>49.0</ele><time>2026-04-20T14:19:26.972Z</time></trkpt><trkpt lat="45.42479" lon="11.083730333333332"><ele>49.0</ele><time>2026-04-20T14:19:27.954Z</time></trkpt><trkpt lat="45.424752000000005" lon="11.083870833333332"><ele>49.0</ele><time>2026-04-20T14:19:28.972Z</time></trkpt><trkpt lat="45.424708833333334" lon="11.084022999999997"><ele>49.0</ele><time>2026-04-20T14:19:29.968Z</time></trkpt><trkpt lat="45.424660333333335" lon="11.084174833333336"><ele>48.6</ele><time>2026-04-20T14:19:30.967Z</time></trkpt><trkpt lat="45.42461016666666" lon="11.084322833333333"><ele>48.2</ele><time>2026-04-20T14:19:31.974Z</time></trkpt><trkpt lat="45.42456116666667" lon="11.084464833333334"><ele>47.800000000000004</ele><time>2026-04-20T14:19:32.977Z</time></trkpt><trkpt lat="45.42451299999999" lon="11.084604"><ele>47.400000000000006</ele><time>2026-04-20T14:19:33.97Z</time></trkpt><trkpt lat="45.424465999999995" lon="11.084740333333333"><ele>47.0</ele><time>2026-04-20T14:19:34.979Z</time></trkpt><trkpt lat="45.42441916666666" lon="11.084875166666665"><ele>47.0</ele><time>2026-04-20T14:19:35.976Z</time></trkpt><trkpt lat="45.42437316666666" lon="11.085006833333335"><ele>47.0</ele><time>2026-04-20T14:19:36.976Z</time></trkpt><trkpt lat="45.424327833333344" lon="11.085137166666668"><ele>47.0</ele><time>2026-04-20T14:19:37.968Z</time></trkpt><trkpt lat="45.42428233333333" lon="11.085267166666666"><ele>47.0</ele><time>2026-04-20T14:19:38.981Z</time></trkpt><trkpt lat="45.42423583333333" lon="11.085401999999998"><ele>47.0</ele><time>2026-04-20T14:19:39.981Z</time></trkpt><trkpt lat="45.42418883333333" lon="11.085543"><ele>47.0</ele><time>2026-04-20T14:19:40.973Z</time></trkpt><trkpt lat="45.42414266666667" lon="11.085684166666665"><ele>47.0</ele><time>2026-04-20T14:19:41.976Z</time></trkpt><trkpt lat="45.42409850000001" lon="11.085823666666666"><ele>47.0</ele><time>2026-04-20T14:19:42.985Z</time></trkpt><trkpt lat="45.42405766666667" lon="11.0859625"><ele>47.0</ele><time>2026-04-20T14:19:43.973Z</time></trkpt><trkpt lat="45.424018333333336" lon="11.086102666666665"><ele>47.0</ele><time>2026-04-20T14:19:44.97Z</time></trkpt><trkpt lat="45.423977666666666" lon="11.086246666666666"><ele>47.25</ele><time>2026-04-20T14:19:45.972Z</time></trkpt><trkpt lat="45.42393533333334" lon="11.0863985"><ele>47.5</ele><time>2026-04-20T14:19:46.961Z</time></trkpt><trkpt lat="45.423892333333335" lon="11.086554666666666"><ele>47.75</ele><time>2026-04-20T14:19:47.968Z</time></trkpt><trkpt lat="45.42385016666667" lon="11.086710166666668"><ele>48.0</ele><time>2026-04-20T14:19:48.965Z</time></trkpt><trkpt lat="45.42380883333334" lon="11.086863999999998"><ele>48.0</ele><time>2026-04-20T14:19:49.967Z</time></trkpt><trkpt lat="45.4237695" lon="11.08701283333333"><ele>48.0</ele><time>2026-04-20T14:19:50.973Z</time></trkpt><trkpt lat="45.42373" lon="11.087157333333336"><ele>48.0</ele><time>2026-04-20T14:19:51.96Z</time></trkpt><trkpt lat="45.4236895" lon="11.087298333333335"><ele>48.0</ele><time>2026-04-20T14:19:52.968Z</time></trkpt><trkpt lat="45.42364666666668" lon="11.087437666666665"><ele>48.0</ele><time>2026-04-20T14:19:53.964Z</time></trkpt><trkpt lat="45.42359983333334" lon="11.087582000000003"><ele>47.75</ele><time>2026-04-20T14:19:54.962Z</time></trkpt><trkpt lat="45.42354749999999" lon="11.087731166666666"><ele>47.5</ele><time>2026-04-20T14:19:55.967Z</time></trkpt><trkpt lat="45.42349283333333" lon="11.087878833333331"><ele>47.25</ele><time>2026-04-20T14:19:56.97Z</time></trkpt><trkpt lat="45.423432166666665" lon="11.088023833333335"><ele>47.0</ele><time>2026-04-20T14:19:57.966Z</time></trkpt><trkpt lat="45.423368499999995" lon="11.088168499999998"><ele>47.0</ele><time>2026-04-20T14:19:58.969Z</time></trkpt><trkpt lat="45.42330616666666" lon="11.088304500000001"><ele>47.0</ele><time>2026-04-20T14:19:59.966Z</time></trkpt><trkpt lat="45.423248666666666" lon="11.088430833333332"><ele>47.0</ele><time>2026-04-20T14:20:00.966Z</time></trkpt><trkpt lat="45.423192500000006" lon="11.088550666666666"><ele>47.0</ele><time>2026-04-20T14:20:01.964Z</time></trkpt><trkpt lat="45.4231385" lon="11.088664999999999"><ele>47.0</ele><time>2026-04-20T14:20:02.966Z</time></trkpt><trkpt lat="45.42308616666666" lon="11.088774999999998"><ele>47.0</ele><time>2026-04-20T14:20:03.954Z</time></trkpt><trkpt lat="45.42303950000001" lon="11.088874333333335"><ele>47.0</ele><time>2026-04-20T14:20:04.972Z</time></trkpt><trkpt lat="45.422999499999996" lon="11.088958166666664"><ele>47.0</ele><time>2026-04-20T14:20:05.964Z</time></trkpt><trkpt lat="45.4229425" lon="11.089078833333334"><ele>47.0</ele><time>2026-04-20T14:20:07.963Z</time></trkpt><trkpt lat="45.422892166666664" lon="11.089184000000001"><ele>47.0</ele><time>2026-04-20T14:20:10.957Z</time></trkpt><trkpt lat="45.42284366666666" lon="11.089285333333331"><ele>47.0</ele><time>2026-04-20T14:20:27.956Z</time></trkpt><trkpt lat="45.42280600000001" lon="11.089362333333334"><ele>47.0</ele><time>2026-04-20T14:20:29.963Z</time></trkpt><trkpt lat="45.4227475" lon="11.089484666666666"><ele>47.0</ele><time>2026-04-20T14:20:31.977Z</time></trkpt><trkpt lat="45.42267933333333" lon="11.089642"><ele>47.0</ele><time>2026-04-20T14:20:33.959Z</time></trkpt><trkpt lat="45.422646333333326" lon="11.089733"><ele>47.0</ele><time>2026-04-20T14:20:34.97Z</time></trkpt><trkpt lat="45.42261283333334" lon="11.089828666666666"><ele>47.0</ele><time>2026-04-20T14:20:35.962Z</time></trkpt><trkpt lat="45.42257933333333" lon="11.089931833333333"><ele>47.166666666666664</ele><time>2026-04-20T14:20:36.963Z</time></trkpt><trkpt lat="45.42254849999999" lon="11.090036999999999"><ele>47.33333333333333</ele><time>2026-04-20T14:20:37.966Z</time></trkpt><trkpt lat="45.422522166666674" lon="11.090137"><ele>47.5</ele><time>2026-04-20T14:20:38.935Z</time></trkpt><trkpt lat="45.42250000000001" lon="11.090232333333331"><ele>47.666666666666664</ele><time>2026-04-20T14:20:39.942Z</time></trkpt><trkpt lat="45.42248216666667" lon="11.090325499999999"><ele>47.833333333333336</ele><time>2026-04-20T14:20:40.955Z</time></trkpt><trkpt lat="45.422469166666666" lon="11.090416833333332"><ele>48.0</ele><time>2026-04-20T14:20:41.955Z</time></trkpt><trkpt lat="45.422453" lon="11.090585999999998"><ele>48.0</ele><time>2026-04-20T14:20:43.96Z</time></trkpt><trkpt lat="45.422445833333335" lon="11.090751000000001"><ele>48.0</ele><time>2026-04-20T14:20:45.976Z</time></trkpt><trkpt lat="45.42244399999999" lon="11.090848166666667"><ele>48.0</ele><time>2026-04-20T14:20:46.944Z</time></trkpt><trkpt lat="45.42244566666667" lon="11.090948166666665"><ele>48.0</ele><time>2026-04-20T14:20:47.966Z</time></trkpt><trkpt lat="45.42245166666667" lon="11.091048166666667"><ele>48.0</ele><time>2026-04-20T14:20:48.954Z</time></trkpt><trkpt lat="45.422460666666666" lon="11.091145166666667"><ele>48.0</ele><time>2026-04-20T14:20:49.968Z</time></trkpt><trkpt lat="45.42247233333333" lon="11.091237666666666"><ele>47.599999999999994</ele><time>2026-04-20T14:20:50.97Z</time></trkpt><trkpt lat="45.42249833333334" lon="11.091408833333332"><ele>47.199999999999996</ele><time>2026-04-20T14:20:52.948Z</time></trkpt><trkpt lat="45.422527666666674" lon="11.091564000000002"><ele>46.8</ele><time>2026-04-20T14:20:54.965Z</time></trkpt><trkpt lat="45.42255683333333" lon="11.091710166666667"><ele>46.4</ele><time>2026-04-20T14:20:56.942Z</time></trkpt><trkpt lat="45.42258183333333" lon="11.091851499999999"><ele>46.0</ele><time>2026-04-20T14:20:58.943Z</time></trkpt><trkpt lat="45.42260483333333" lon="11.091981333333335"><ele>46.0</ele><time>2026-04-20T14:21:00.961Z</time></trkpt><trkpt lat="45.42262616666667" lon="11.092087499999998"><ele>46.0</ele><time>2026-04-20T14:21:03.957Z</time></trkpt><trkpt lat="45.422653000000004" lon="11.092219833333335"><ele>46.0</ele><time>2026-04-20T14:21:27.943Z</time></trkpt><trkpt lat="45.42267366666667" lon="11.092331000000001"><ele>46.0</ele><time>2026-04-20T14:21:29.96Z</time></trkpt><trkpt lat="45.422701666666676" lon="11.092466166666668"><ele>46.0</ele><time>2026-04-20T14:21:31.97Z</time></trkpt><trkpt lat="45.42273466666667" lon="11.092615"><ele>46.16666666666667</ele><time>2026-04-20T14:21:33.97Z</time></trkpt><trkpt lat="45.42277683333334" lon="11.092788333333331"><ele>46.333333333333336</ele><time>2026-04-20T14:21:35.94Z</time></trkpt><trkpt lat="45.422804" lon="11.092885166666669"><ele>46.5</ele><time>2026-04-20T14:21:36.965Z</time></trkpt><trkpt lat="45.422833999999995" lon="11.092981666666665"><ele>46.666666666666664</ele><time>2026-04-20T14:21:37.96Z</time></trkpt><trkpt lat="45.42286566666667" lon="11.093077999999998"><ele>46.83333333333333</ele><time>2026-04-20T14:21:38.962Z</time></trkpt><trkpt lat="45.42289916666667" lon="11.093178333333332"><ele>47.0</ele><time>2026-04-20T14:21:39.949Z</time></trkpt><trkpt lat="45.42293683333334" lon="11.0932885"><ele>47.0</ele><time>2026-04-20T14:21:40.971Z</time></trkpt><trkpt lat="45.422974499999995" lon="11.093399333333332"><ele>47.0</ele><time>2026-04-20T14:21:41.962Z</time></trkpt><trkpt lat="45.423010000000005" lon="11.093506500000002"><ele>47.0</ele><time>2026-04-20T14:21:42.965Z</time></trkpt><trkpt lat="45.42304383333333" lon="11.093613000000001"><ele>47.0</ele><time>2026-04-20T14:21:43.984Z</time></trkpt><trkpt lat="45.4230775" lon="11.093723833333335"><ele>47.0</ele><time>2026-04-20T14:21:44.973Z</time></trkpt><trkpt lat="45.42310850000001" lon="11.093837833333335"><ele>47.0</ele><time>2026-04-20T14:21:45.97Z</time></trkpt><trkpt lat="45.42313266666667" lon="11.093954"><ele>47.0</ele><time>2026-04-20T14:21:46.974Z</time></trkpt><trkpt lat="45.423151499999996" lon="11.094075000000002"><ele>47.0</ele><time>2026-04-20T14:21:47.961Z</time></trkpt><trkpt lat="45.423165" lon="11.094199499999998"><ele>47.0</ele><time>2026-04-20T14:21:48.965Z</time></trkpt><trkpt lat="45.42317316666666" lon="11.094327166666668"><ele>47.0</ele><time>2026-04-20T14:21:49.969Z</time></trkpt><trkpt lat="45.42317633333334" lon="11.094451"><ele>47.0</ele><time>2026-04-20T14:21:50.97Z</time></trkpt><trkpt lat="45.42317266666667" lon="11.094572000000001"><ele>47.0</ele><time>2026-04-20T14:21:51.973Z</time></trkpt><trkpt lat="45.42316266666667" lon="11.094690166666666"><ele>47.33333333333333</ele><time>2026-04-20T14:21:52.962Z</time></trkpt><trkpt lat="45.4231465" lon="11.094804666666668"><ele>47.666666666666664</ele><time>2026-04-20T14:21:53.974Z</time></trkpt><trkpt lat="45.423126833333335" lon="11.094916333333332"><ele>48.0</ele><time>2026-04-20T14:21:54.97Z</time></trkpt><trkpt lat="45.42310466666666" lon="11.095030999999999"><ele>48.33333333333333</ele><time>2026-04-20T14:21:55.968Z</time></trkpt><trkpt lat="45.42308283333333" lon="11.095145666666667"><ele>48.666666666666664</ele><time>2026-04-20T14:21:56.969Z</time></trkpt><trkpt lat="45.4230625" lon="11.095258166666667"><ele>49.0</ele><time>2026-04-20T14:21:57.973Z</time></trkpt><trkpt lat="45.42304283333333" lon="11.095364333333336"><ele>49.142857142857146</ele><time>2026-04-20T14:21:58.968Z</time></trkpt><trkpt lat="45.423024166666664" lon="11.095462000000001"><ele>49.285714285714285</ele><time>2026-04-20T14:21:59.976Z</time></trkpt><trkpt lat="45.42300583333334" lon="11.095556166666665"><ele>49.42857142857143</ele><time>2026-04-20T14:22:00.962Z</time></trkpt><trkpt lat="45.42298833333333" lon="11.095648333333335"><ele>49.57142857142857</ele><time>2026-04-20T14:22:01.961Z</time></trkpt><trkpt lat="45.422968833333336" lon="11.095744666666667"><ele>49.714285714285715</ele><time>2026-04-20T14:22:02.959Z</time></trkpt><trkpt lat="45.42294950000001" lon="11.095847333333332"><ele>49.85714285714286</ele><time>2026-04-20T14:22:03.971Z</time></trkpt><trkpt lat="45.42292916666667" lon="11.095952333333333"><ele>50.0</ele><time>2026-04-20T14:22:04.975Z</time></trkpt><trkpt lat="45.422907833333326" lon="11.096063166666665"><ele>49.4</ele><time>2026-04-20T14:22:05.974Z</time></trkpt><trkpt lat="45.422883500000005" lon="11.096185833333333"><ele>48.8</ele><time>2026-04-20T14:22:06.969Z</time></trkpt><trkpt lat="45.42285683333333" lon="11.096322000000002"><ele>48.2</ele><time>2026-04-20T14:22:07.965Z</time></trkpt><trkpt lat="45.42282716666667" lon="11.096467500000003"><ele>47.6</ele><time>2026-04-20T14:22:08.976Z</time></trkpt><trkpt lat="45.42279666666666" lon="11.096619166666668"><ele>47.0</ele><time>2026-04-20T14:22:09.963Z</time></trkpt><trkpt lat="45.422765999999996" lon="11.096777999999999"><ele>46.75</ele><time>2026-04-20T14:22:10.945Z</time></trkpt><trkpt lat="45.42273616666666" lon="11.096943500000002"><ele>46.5</ele><time>2026-04-20T14:22:11.963Z</time></trkpt><trkpt lat="45.422706000000005" lon="11.097115666666667"><ele>46.25</ele><time>2026-04-20T14:22:12.956Z</time></trkpt><trkpt lat="45.422674" lon="11.097290666666668"><ele>46.0</ele><time>2026-04-20T14:22:13.966Z</time></trkpt><trkpt lat="45.42264133333333" lon="11.097458500000002"><ele>45.8</ele><time>2026-04-20T14:22:14.979Z</time></trkpt><trkpt lat="45.422611499999995" lon="11.097615499999998"><ele>45.599999999999994</ele><time>2026-04-20T14:22:15.958Z</time></trkpt><trkpt lat="45.42258400000001" lon="11.097763000000002"><ele>45.4</ele><time>2026-04-20T14:22:16.97Z</time></trkpt><trkpt lat="45.422557000000005" lon="11.097905666666668"><ele>45.2</ele><time>2026-04-20T14:22:17.937Z</time></trkpt><trkpt lat="45.42252916666666" lon="11.098044333333334"><ele>45.0</ele><time>2026-04-20T14:22:18.963Z</time></trkpt><trkpt lat="45.42250049999999" lon="11.09817866666667"><ele>45.166666666666664</ele><time>2026-04-20T14:22:19.974Z</time></trkpt><trkpt lat="45.42247183333334" lon="11.098309833333333"><ele>45.333333333333336</ele><time>2026-04-20T14:22:20.971Z</time></trkpt><trkpt lat="45.42244533333332" lon="11.098432666666668"><ele>45.5</ele><time>2026-04-20T14:22:21.962Z</time></trkpt><trkpt lat="45.42242266666667" lon="11.098549666666667"><ele>45.66666666666667</ele><time>2026-04-20T14:22:22.945Z</time></trkpt><trkpt lat="45.42240149999999" lon="11.098666500000002"><ele>45.833333333333336</ele><time>2026-04-20T14:22:23.957Z</time></trkpt><trkpt lat="45.422378333333334" lon="11.098790833333332"><ele>46.0</ele><time>2026-04-20T14:22:24.958Z</time></trkpt><trkpt lat="45.422353666666666" lon="11.098918166666667"><ele>46.0</ele><time>2026-04-20T14:22:25.972Z</time></trkpt><trkpt lat="45.42232883333333" lon="11.099048"><ele>46.0</ele><time>2026-04-20T14:22:26.971Z</time></trkpt><trkpt lat="45.422304000000004" lon="11.099181166666664"><ele>46.0</ele><time>2026-04-20T14:22:27.979Z</time></trkpt><trkpt lat="45.422278999999996" lon="11.0993175"><ele>46.0</ele><time>2026-04-20T14:22:28.963Z</time></trkpt><trkpt lat="45.422254666666674" lon="11.099455"><ele>46.0</ele><time>2026-04-20T14:22:29.957Z</time></trkpt><trkpt lat="45.42223066666667" lon="11.099595"><ele>46.0</ele><time>2026-04-20T14:22:30.964Z</time></trkpt><trkpt lat="45.4222045" lon="11.099740999999998"><ele>46.0</ele><time>2026-04-20T14:22:31.973Z</time></trkpt><trkpt lat="45.42217816666666" lon="11.099891666666666"><ele>46.0</ele><time>2026-04-20T14:22:32.969Z</time></trkpt><trkpt lat="45.42215133333334" lon="11.100046333333333"><ele>46.0</ele><time>2026-04-20T14:22:33.981Z</time></trkpt><trkpt lat="45.42212316666667" lon="11.100200833333334"><ele>46.0</ele><time>2026-04-20T14:22:34.972Z</time></trkpt><trkpt lat="45.422096833333335" lon="11.100353"><ele>45.8</ele><time>2026-04-20T14:22:35.955Z</time></trkpt><trkpt lat="45.42207133333333" lon="11.100499833333334"><ele>45.599999999999994</ele><time>2026-04-20T14:22:36.963Z</time></trkpt><trkpt lat="45.422050166666665" lon="11.100642833333332"><ele>45.4</ele><time>2026-04-20T14:22:37.967Z</time></trkpt><trkpt lat="45.42203116666666" lon="11.100784833333334"><ele>45.2</ele><time>2026-04-20T14:22:38.976Z</time></trkpt><trkpt lat="45.422013666666665" lon="11.100924666666668"><ele>45.0</ele><time>2026-04-20T14:22:39.958Z</time></trkpt><trkpt lat="45.42199733333334" lon="11.101062833333332"><ele>45.0</ele><time>2026-04-20T14:22:40.956Z</time></trkpt><trkpt lat="45.42198116666666" lon="11.101198833333335"><ele>45.0</ele><time>2026-04-20T14:22:41.957Z</time></trkpt><trkpt lat="45.421965500000006" lon="11.101334166666666"><ele>45.0</ele><time>2026-04-20T14:22:42.97Z</time></trkpt><trkpt lat="45.42195133333333" lon="11.101471666666665"><ele>45.0</ele><time>2026-04-20T14:22:43.97Z</time></trkpt><trkpt lat="45.42193866666667" lon="11.1016155"><ele>45.0</ele><time>2026-04-20T14:22:44.974Z</time></trkpt><trkpt lat="45.42192766666667" lon="11.101766333333334"><ele>45.0</ele><time>2026-04-20T14:22:45.967Z</time></trkpt><trkpt lat="45.421917500000006" lon="11.101917833333335"><ele>45.0</ele><time>2026-04-20T14:22:46.969Z</time></trkpt><trkpt lat="45.42190783333334" lon="11.102068833333332"><ele>45.0</ele><time>2026-04-20T14:22:47.963Z</time></trkpt><trkpt lat="45.42189833333333" lon="11.102224499999998"><ele>45.0</ele><time>2026-04-20T14:22:48.95Z</time></trkpt><trkpt lat="45.42188833333333" lon="11.102384833333334"><ele>45.0</ele><time>2026-04-20T14:22:49.97Z</time></trkpt><trkpt lat="45.421877166666675" lon="11.102541166666665"><ele>45.0</ele><time>2026-04-20T14:22:50.972Z</time></trkpt><trkpt lat="45.42186616666666" lon="11.102680999999999"><ele>45.0</ele><time>2026-04-20T14:22:51.967Z</time></trkpt><trkpt lat="45.42185816666667" lon="11.1028035"><ele>45.0</ele><time>2026-04-20T14:22:52.966Z</time></trkpt><trkpt lat="45.42185216666667" lon="11.102920833333334"><ele>45.0</ele><time>2026-04-20T14:22:53.975Z</time></trkpt><trkpt lat="45.42184416666667" lon="11.103034"><ele>45.0</ele><time>2026-04-20T14:22:54.958Z</time></trkpt><trkpt lat="45.42182883333333" lon="11.103140333333332"><ele>45.0</ele><time>2026-04-20T14:22:55.961Z</time></trkpt><trkpt lat="45.421800166666664" lon="11.103235166666664"><ele>45.14285714285714</ele><time>2026-04-20T14:22:56.971Z</time></trkpt><trkpt lat="45.42175483333333" lon="11.103313166666664"><ele>45.28571428571429</ele><time>2026-04-20T14:22:57.971Z</time></trkpt><trkpt lat="45.421698666666664" lon="11.103372833333333"><ele>45.42857142857143</ele><time>2026-04-20T14:22:58.967Z</time></trkpt><trkpt lat="45.42163733333333" lon="11.103414333333335"><ele>45.57142857142857</ele><time>2026-04-20T14:22:59.966Z</time></trkpt><trkpt lat="45.42157999999999" lon="11.103455"><ele>45.71428571428571</ele><time>2026-04-20T14:23:00.981Z</time></trkpt><trkpt lat="45.42153" lon="11.103511333333332"><ele>45.85714285714286</ele><time>2026-04-20T14:23:01.941Z</time></trkpt><trkpt lat="45.42149216666667" lon="11.103585833333334"><ele>46.0</ele><time>2026-04-20T14:23:02.957Z</time></trkpt><trkpt lat="45.42147666666666" lon="11.103675166666669"><ele>46.0</ele><time>2026-04-20T14:23:03.968Z</time></trkpt><trkpt lat="45.4214845" lon="11.103770833333332"><ele>46.0</ele><time>2026-04-20T14:23:04.958Z</time></trkpt><trkpt lat="45.421507999999996" lon="11.103868666666664"><ele>46.0</ele><time>2026-04-20T14:23:05.954Z</time></trkpt><trkpt lat="45.42154266666666" lon="11.103969666666668"><ele>46.0</ele><time>2026-04-20T14:23:06.955Z</time></trkpt><trkpt lat="45.42158266666667" lon="11.104079833333332"><ele>46.0</ele><time>2026-04-20T14:23:07.957Z</time></trkpt><trkpt lat="45.42161966666666" lon="11.104203833333335"><ele>46.0</ele><time>2026-04-20T14:23:08.971Z</time></trkpt><trkpt lat="45.421649499999994" lon="11.104341"><ele>46.0</ele><time>2026-04-20T14:23:09.969Z</time></trkpt><trkpt lat="45.421665333333344" lon="11.104489666666666"><ele>46.0</ele><time>2026-04-20T14:23:10.944Z</time></trkpt><trkpt lat="45.421668" lon="11.104638"><ele>46.0</ele><time>2026-04-20T14:23:11.969Z</time></trkpt><trkpt lat="45.421661" lon="11.104783833333332"><ele>46.0</ele><time>2026-04-20T14:23:12.957Z</time></trkpt><trkpt lat="45.4216505" lon="11.104930999999999"><ele>46.0</ele><time>2026-04-20T14:23:13.979Z</time></trkpt><trkpt lat="45.42163933333333" lon="11.105079999999997"><ele>45.599999999999994</ele><time>2026-04-20T14:23:14.966Z</time></trkpt><trkpt lat="45.421628999999996" lon="11.105227666666668"><ele>45.2</ele><time>2026-04-20T14:23:15.972Z</time></trkpt><trkpt lat="45.42161966666666" lon="11.1053705"><ele>44.8</ele><time>2026-04-20T14:23:16.972Z</time></trkpt><trkpt lat="45.421609833333335" lon="11.105511166666668"><ele>44.400000000000006</ele><time>2026-04-20T14:23:17.956Z</time></trkpt><trkpt lat="45.421601333333335" lon="11.105653"><ele>44.0</ele><time>2026-04-20T14:23:18.962Z</time></trkpt><trkpt lat="45.4215935" lon="11.105791166666664"><ele>43.400000000000006</ele><time>2026-04-20T14:23:19.972Z</time></trkpt><trkpt lat="45.42158483333333" lon="11.1059275"><ele>42.8</ele><time>2026-04-20T14:23:20.976Z</time></trkpt><trkpt lat="45.421574666666665" lon="11.106062000000001"><ele>42.2</ele><time>2026-04-20T14:23:21.967Z</time></trkpt><trkpt lat="45.42156566666665" lon="11.106194499999999"><ele>41.599999999999994</ele><time>2026-04-20T14:23:22.961Z</time></trkpt><trkpt lat="45.421560333333346" lon="11.106326833333332"><ele>41.0</ele><time>2026-04-20T14:23:23.956Z</time></trkpt><trkpt lat="45.421560500000005" lon="11.106460166666666"><ele>41.199999999999996</ele><time>2026-04-20T14:23:24.959Z</time></trkpt><trkpt lat="45.42156799999999" lon="11.106589666666666"><ele>41.4</ele><time>2026-04-20T14:23:25.956Z</time></trkpt><trkpt lat="45.42157916666667" lon="11.106702833333335"><ele>41.6</ele><time>2026-04-20T14:23:26.972Z</time></trkpt><trkpt lat="45.42159499999999" lon="11.106864499999999"><ele>41.8</ele><time>2026-04-20T14:23:28.968Z</time></trkpt><trkpt lat="45.42157916666667" lon="11.107032833333335"><ele>42.0</ele><time>2026-04-20T14:23:30.965Z</time></trkpt><trkpt lat="45.421560333333346" lon="11.107124500000001"><ele>42.0</ele><time>2026-04-20T14:23:31.943Z</time></trkpt><trkpt lat="45.42154216666666" lon="11.107222333333334"><ele>42.0</ele><time>2026-04-20T14:23:32.971Z</time></trkpt><trkpt lat="45.42152683333334" lon="11.107321166666667"><ele>42.0</ele><time>2026-04-20T14:23:33.971Z</time></trkpt><trkpt lat="45.4215155" lon="11.107409666666669"><ele>42.0</ele><time>2026-04-20T14:23:34.97Z</time></trkpt><trkpt lat="45.421502" lon="11.107528166666668"><ele>42.0</ele><time>2026-04-20T14:23:36.966Z</time></trkpt><trkpt lat="45.42149016666667" lon="11.10764"><ele>42.0</ele><time>2026-04-20T14:23:39.971Z</time></trkpt><trkpt lat="45.42148" lon="11.107746333333333"><ele>42.0</ele><time>2026-04-20T14:23:41.955Z</time></trkpt><trkpt lat="45.42146083333334" lon="11.107928666666664"><ele>42.0</ele><time>2026-04-20T14:23:43.971Z</time></trkpt><trkpt lat="45.42144966666667" lon="11.108041833333335"><ele>42.0</ele><time>2026-04-20T14:23:44.972Z</time></trkpt><trkpt lat="45.4214395" lon="11.1081605"><ele>42.0</ele><time>2026-04-20T14:23:45.976Z</time></trkpt><trkpt lat="45.42142933333333" lon="11.108284166666666"><ele>42.0</ele><time>2026-04-20T14:23:46.971Z</time></trkpt><trkpt lat="45.42141866666666" lon="11.108418"><ele>42.0</ele><time>2026-04-20T14:23:47.963Z</time></trkpt><trkpt lat="45.42140850000001" lon="11.108557333333332"><ele>42.0</ele><time>2026-04-20T14:23:48.962Z</time></trkpt><trkpt lat="45.42139816666666" lon="11.108701000000002"><ele>42.0</ele><time>2026-04-20T14:23:49.971Z</time></trkpt><trkpt lat="45.421387833333334" lon="11.108848333333333"><ele>42.0</ele><time>2026-04-20T14:23:50.966Z</time></trkpt><trkpt lat="45.421378" lon="11.108995833333331"><ele>42.0</ele><time>2026-04-20T14:23:51.973Z</time></trkpt><trkpt lat="45.42136716666667" lon="11.109144833333335"><ele>42.0</ele><time>2026-04-20T14:23:52.957Z</time></trkpt><trkpt lat="45.42135533333333" lon="11.109295166666666"><ele>42.0</ele><time>2026-04-20T14:23:53.937Z</time></trkpt><trkpt lat="45.4213425" lon="11.109442999999999"><ele>42.400000000000006</ele><time>2026-04-20T14:23:54.955Z</time></trkpt><trkpt lat="45.421329666666665" lon="11.109588333333333"><ele>42.800000000000004</ele><time>2026-04-20T14:23:55.968Z</time></trkpt><trkpt lat="45.42131800000001" lon="11.109730333333335"><ele>43.2</ele><time>2026-04-20T14:23:56.968Z</time></trkpt><trkpt lat="45.42130733333333" lon="11.109867000000001"><ele>43.6</ele><time>2026-04-20T14:23:57.948Z</time></trkpt><trkpt lat="45.421297" lon="11.109999833333331"><ele>44.0</ele><time>2026-04-20T14:23:58.965Z</time></trkpt><trkpt lat="45.42128699999999" lon="11.110132333333334"><ele>44.2</ele><time>2026-04-20T14:23:59.968Z</time></trkpt><trkpt lat="45.42127633333333" lon="11.110264833333332"><ele>44.400000000000006</ele><time>2026-04-20T14:24:00.954Z</time></trkpt><trkpt lat="45.42126499999999" lon="11.110398833333333"><ele>44.6</ele><time>2026-04-20T14:24:01.967Z</time></trkpt><trkpt lat="45.42125366666667" lon="11.110532666666664"><ele>44.8</ele><time>2026-04-20T14:24:02.984Z</time></trkpt><trkpt lat="45.42124216666666" lon="11.1106625"><ele>45.0</ele><time>2026-04-20T14:24:03.954Z</time></trkpt><trkpt lat="45.421230333333334" lon="11.110790000000001"><ele>45.0</ele><time>2026-04-20T14:24:04.968Z</time></trkpt><trkpt lat="45.42121883333333" lon="11.110916333333334"><ele>45.0</ele><time>2026-04-20T14:24:05.976Z</time></trkpt><trkpt lat="45.42120866666668" lon="11.111038666666666"><ele>45.0</ele><time>2026-04-20T14:24:06.943Z</time></trkpt><trkpt lat="45.42120433333333" lon="11.111154833333334"><ele>45.0</ele><time>2026-04-20T14:24:07.975Z</time></trkpt><trkpt lat="45.421208166666666" lon="11.111261"><ele>45.0</ele><time>2026-04-20T14:24:08.969Z</time></trkpt><trkpt lat="45.42121566666666" lon="11.111361833333333"><ele>45.0</ele><time>2026-04-20T14:24:09.967Z</time></trkpt><trkpt lat="45.42121916666667" lon="11.111462999999999"><ele>45.0</ele><time>2026-04-20T14:24:10.968Z</time></trkpt><trkpt lat="45.42121466666667" lon="11.111566166666668"><ele>45.0</ele><time>2026-04-20T14:24:11.945Z</time></trkpt><trkpt lat="45.421213" lon="11.111666166666666"><ele>45.0</ele><time>2026-04-20T14:24:12.96Z</time></trkpt><trkpt lat="45.42122366666668" lon="11.111763"><ele>45.0</ele><time>2026-04-20T14:24:13.968Z</time></trkpt><trkpt lat="45.42125033333333" lon="11.111848999999998"><ele>45.0</ele><time>2026-04-20T14:24:14.976Z</time></trkpt><trkpt lat="45.42129716666667" lon="11.111914"><ele>45.0</ele><time>2026-04-20T14:24:15.975Z</time></trkpt><trkpt lat="45.421359" lon="11.111947000000002"><ele>45.0</ele><time>2026-04-20T14:24:16.968Z</time></trkpt><trkpt lat="45.42142416666667" lon="11.111942666666668"><ele>44.833333333333336</ele><time>2026-04-20T14:24:17.945Z</time></trkpt><trkpt lat="45.4214825" lon="11.111908666666666"><ele>44.666666666666664</ele><time>2026-04-20T14:24:18.946Z</time></trkpt><trkpt lat="45.42159133333333" lon="11.111822166666665"><ele>44.5</ele><time>2026-04-20T14:24:21.151Z</time></trkpt><trkpt lat="45.42166183333334" lon="11.111804333333335"><ele>44.33333333333333</ele><time>2026-04-20T14:24:21.974Z</time></trkpt><trkpt lat="45.421744833333335" lon="11.111808000000002"><ele>44.166666666666664</ele><time>2026-04-20T14:24:22.965Z</time></trkpt><trkpt lat="45.42183716666666" lon="11.111823333333334"><ele>44.0</ele><time>2026-04-20T14:24:23.945Z</time></trkpt><trkpt lat="45.4219345" lon="11.111842000000001"><ele>44.0</ele><time>2026-04-20T14:24:24.945Z</time></trkpt><trkpt lat="45.422034000000004" lon="11.111861166666664"><ele>44.0</ele><time>2026-04-20T14:24:25.964Z</time></trkpt><trkpt lat="45.422137166666666" lon="11.111880166666666"><ele>44.0</ele><time>2026-04-20T14:24:26.983Z</time></trkpt><trkpt lat="45.42223983333333" lon="11.111899000000003"><ele>44.0</ele><time>2026-04-20T14:24:27.964Z</time></trkpt><trkpt lat="45.42234333333334" lon="11.111917666666667"><ele>44.0</ele><time>2026-04-20T14:24:28.958Z</time></trkpt><trkpt lat="45.42244666666667" lon="11.111935166666669"><ele>44.25</ele><time>2026-04-20T14:24:29.977Z</time></trkpt><trkpt lat="45.4225555" lon="11.111949666666666"><ele>44.5</ele><time>2026-04-20T14:24:30.946Z</time></trkpt><trkpt lat="45.42267216666667" lon="11.1119595"><ele>44.75</ele><time>2026-04-20T14:24:31.954Z</time></trkpt><trkpt lat="45.42279566666666" lon="11.11196516666667"><ele>45.0</ele><time>2026-04-20T14:24:32.954Z</time></trkpt><trkpt lat="45.42292266666667" lon="11.111966833333334"><ele>45.75</ele><time>2026-04-20T14:24:33.958Z</time></trkpt><trkpt lat="45.42305116666667" lon="11.111968000000001"><ele>46.5</ele><time>2026-04-20T14:24:34.958Z</time></trkpt><trkpt lat="45.42317733333333" lon="11.111970666666664"><ele>47.25</ele><time>2026-04-20T14:24:35.954Z</time></trkpt><trkpt lat="45.42330100000001" lon="11.111973666666666"><ele>48.0</ele><time>2026-04-20T14:24:36.934Z</time></trkpt><trkpt lat="45.42342083333333" lon="11.111974333333334"><ele>48.0</ele><time>2026-04-20T14:24:37.96Z</time></trkpt><trkpt lat="45.423536666666664" lon="11.111970166666667"><ele>48.0</ele><time>2026-04-20T14:24:38.98Z</time></trkpt><trkpt lat="45.423646166666664" lon="11.111960166666666"><ele>48.0</ele><time>2026-04-20T14:24:39.971Z</time></trkpt><trkpt lat="45.4237435" lon="11.1119495"><ele>48.0</ele><time>2026-04-20T14:24:40.959Z</time></trkpt><trkpt lat="45.42382333333333" lon="11.111940333333331"><ele>48.0</ele><time>2026-04-20T14:24:41.976Z</time></trkpt><trkpt lat="45.4238851358923" lon="11.111959159403721"><ele>47.5</ele><time>2026-04-20T14:24:42.972Z</time></trkpt><trkpt lat="45.423976666666675" lon="11.1119535"><ele>47.0</ele><time>2026-04-20T14:24:44.967Z</time></trkpt><trkpt lat="45.42403766666667" lon="11.112044333333332"><ele>46.5</ele><time>2026-04-20T14:24:46.962Z</time></trkpt><trkpt lat="45.424044" lon="11.112186999999999"><ele>46.0</ele><time>2026-04-20T14:24:48.941Z</time></trkpt><trkpt lat="45.424041666666675" lon="11.112278833333335"><ele>45.5</ele><time>2026-04-20T14:24:49.943Z</time></trkpt><trkpt lat="45.42404083333332" lon="11.1123935"><ele>45.0</ele><time>2026-04-20T14:24:50.985Z</time></trkpt><trkpt lat="45.42404083333332" lon="11.112523"><ele>44.8</ele><time>2026-04-20T14:24:51.98Z</time></trkpt><trkpt lat="45.424041" lon="11.112661833333334"><ele>44.6</ele><time>2026-04-20T14:24:52.963Z</time></trkpt><trkpt lat="45.42403933333333" lon="11.112809333333333"><ele>44.400000000000006</ele><time>2026-04-20T14:24:53.96Z</time></trkpt><trkpt lat="45.424037500000004" lon="11.112961333333333"><ele>44.2</ele><time>2026-04-20T14:24:54.963Z</time></trkpt><trkpt lat="45.424035" lon="11.113112833333332"><ele>44.0</ele><time>2026-04-20T14:24:55.962Z</time></trkpt><trkpt lat="45.4240325" lon="11.113264166666665"><ele>43.800000000000004</ele><time>2026-04-20T14:24:56.987Z</time></trkpt><trkpt lat="45.4240315" lon="11.1134155"><ele>43.6</ele><time>2026-04-20T14:24:57.973Z</time></trkpt><trkpt lat="45.42403133333334" lon="11.113566333333333"><ele>43.4</ele><time>2026-04-20T14:24:58.945Z</time></trkpt><trkpt lat="45.42402933333333" lon="11.113715"><ele>43.2</ele><time>2026-04-20T14:24:59.954Z</time></trkpt><trkpt lat="45.424026000000005" lon="11.113858833333333"><ele>43.0</ele><time>2026-04-20T14:25:00.969Z</time></trkpt><trkpt lat="45.424022" lon="11.113991333333335"><ele>43.2</ele><time>2026-04-20T14:25:01.945Z</time></trkpt><trkpt lat="45.424018499999995" lon="11.114099833333334"><ele>43.4</ele><time>2026-04-20T14:25:02.968Z</time></trkpt><trkpt lat="45.42401333333334" lon="11.114245666666665"><ele>43.6</ele><time>2026-04-20T14:25:04.966Z</time></trkpt><trkpt lat="45.42400850000001" lon="11.114358000000001"><ele>43.800000000000004</ele><time>2026-04-20T14:25:23.958Z</time></trkpt><trkpt lat="45.42400483333333" lon="11.114493999999997"><ele>44.0</ele><time>2026-04-20T14:25:25.958Z</time></trkpt><trkpt lat="45.423991166666674" lon="11.114676166666667"><ele>44.0</ele><time>2026-04-20T14:25:27.958Z</time></trkpt><trkpt lat="45.42397733333334" lon="11.114777833333335"><ele>44.0</ele><time>2026-04-20T14:25:28.968Z</time></trkpt><trkpt lat="45.42396000000001" lon="11.114885666666664"><ele>44.0</ele><time>2026-04-20T14:25:30.035Z</time></trkpt><trkpt lat="45.4239445" lon="11.115000833333333"><ele>44.0</ele><time>2026-04-20T14:25:30.945Z</time></trkpt><trkpt lat="45.423936166666664" lon="11.115126166666668"><ele>44.0</ele><time>2026-04-20T14:25:31.954Z</time></trkpt><trkpt lat="45.42391332637079" lon="11.115259518614385"><ele>44.0</ele><time>2026-04-20T14:25:32.962Z</time></trkpt><trkpt lat="45.423918526757184" lon="11.115405911340986"><ele>44.0</ele><time>2026-04-20T14:25:33.967Z</time></trkpt><trkpt lat="45.4239415" lon="11.115554000000001"><ele>44.0</ele><time>2026-04-20T14:25:34.974Z</time></trkpt><trkpt lat="45.42393227671388" lon="11.115714807934127"><ele>44.0</ele><time>2026-04-20T14:25:35.979Z</time></trkpt><trkpt lat="45.42394035774777" lon="11.115889122832492"><ele>44.0</ele><time>2026-04-20T14:25:36.958Z</time></trkpt><trkpt lat="45.423948966229936" lon="11.116074815240331"><ele>44.0</ele><time>2026-04-20T14:25:37.941Z</time></trkpt><trkpt lat="45.42395773748728" lon="11.116264018871542"><ele>44.0</ele><time>2026-04-20T14:25:38.973Z</time></trkpt><trkpt lat="45.42396658467446" lon="11.116454860352022"><ele>44.0</ele><time>2026-04-20T14:25:39.97Z</time></trkpt><trkpt lat="45.423975872737415" lon="11.1166466633428"><ele>44.0</ele><time>2026-04-20T14:25:40.964Z</time></trkpt><trkpt lat="45.42398529653876" lon="11.11683308616253"><ele>43.800000000000004</ele><time>2026-04-20T14:25:41.957Z</time></trkpt><trkpt lat="45.42399411086355" lon="11.117007452183797"><ele>43.6</ele><time>2026-04-20T14:25:42.956Z</time></trkpt><trkpt lat="45.42400233999863" lon="11.11717024194132"><ele>43.4</ele><time>2026-04-20T14:25:43.957Z</time></trkpt><trkpt lat="45.42401021532063" lon="11.117322713746479"><ele>43.2</ele><time>2026-04-20T14:25:44.974Z</time></trkpt><trkpt lat="45.42401741991882" lon="11.117458025112196"><ele>43.0</ele><time>2026-04-20T14:25:45.96Z</time></trkpt><trkpt lat="45.424023773660174" lon="11.11757735625433"><ele>43.0</ele><time>2026-04-20T14:25:46.961Z</time></trkpt><trkpt lat="45.42402784399917" lon="11.117683517748425"><ele>43.0</ele><time>2026-04-20T14:25:47.963Z</time></trkpt><trkpt lat="45.42403135444682" lon="11.117846833333333"><ele>43.0</ele><time>2026-04-20T14:25:49.96Z</time></trkpt><trkpt lat="45.42402313247864" lon="11.118002090570915"><ele>43.0</ele><time>2026-04-20T14:25:51.955Z</time></trkpt><trkpt lat="45.42401627130357" lon="11.118095310663113"><ele>43.0</ele><time>2026-04-20T14:25:52.958Z</time></trkpt><trkpt lat="45.424078666666674" lon="11.118208000000001"><ele>43.66666666666667</ele><time>2026-04-20T14:25:53.962Z</time></trkpt><trkpt lat="45.42409383333334" lon="11.118311666666667"><ele>44.333333333333336</ele><time>2026-04-20T14:25:54.945Z</time></trkpt><trkpt lat="45.42409057367198" lon="11.118418230126277"><ele>45.0</ele><time>2026-04-20T14:25:55.958Z</time></trkpt><trkpt lat="45.42410766269012" lon="11.11852017373586"><ele>45.666666666666664</ele><time>2026-04-20T14:25:56.955Z</time></trkpt><trkpt lat="45.42413798194369" lon="11.118614872717462"><ele>46.33333333333333</ele><time>2026-04-20T14:25:57.964Z</time></trkpt><trkpt lat="45.42418416175291" lon="11.11869983293391"><ele>47.0</ele><time>2026-04-20T14:25:58.967Z</time></trkpt><trkpt lat="45.424241951463024" lon="11.118780546065574"><ele>47.0</ele><time>2026-04-20T14:25:59.982Z</time></trkpt><trkpt lat="45.424310567967595" lon="11.118850107284853"><ele>47.0</ele><time>2026-04-20T14:26:00.947Z</time></trkpt><trkpt lat="45.424385119232866" lon="11.118917523380501"><ele>47.0</ele><time>2026-04-20T14:26:01.984Z</time></trkpt><trkpt lat="45.42446293004585" lon="11.118988976968978"><ele>47.0</ele><time>2026-04-20T14:26:02.965Z</time></trkpt><trkpt lat="45.42454127539567" lon="11.119062938784197"><ele>47.0</ele><time>2026-04-20T14:26:03.943Z</time></trkpt><trkpt lat="45.42462183333333" lon="11.119123666666667"><ele>48.8</ele><time>2026-04-20T14:26:04.96Z</time></trkpt><trkpt lat="45.424674482100485" lon="11.119224023791253"><ele>50.6</ele><time>2026-04-20T14:26:05.983Z</time></trkpt><trkpt lat="45.424741577491766" lon="11.119322973533096"><ele>52.39999999999999</ele><time>2026-04-20T14:26:06.948Z</time></trkpt><trkpt lat="45.42481121499625" lon="11.119416228132714"><ele>54.199999999999996</ele><time>2026-04-20T14:26:07.953Z</time></trkpt><trkpt lat="45.42488291813293" lon="11.119503943917168"><ele>56.0</ele><time>2026-04-20T14:26:08.974Z</time></trkpt><trkpt lat="45.424955544891375" lon="11.11958142961462"><ele>56.0</ele><time>2026-04-20T14:26:10.053Z</time></trkpt><trkpt lat="45.425037735174165" lon="11.119646612989536"><ele>55.99999999999999</ele><time>2026-04-20T14:26:10.97Z</time></trkpt><trkpt lat="45.42512575664077" lon="11.11968928804884"><ele>55.99999999999999</ele><time>2026-04-20T14:26:11.966Z</time></trkpt><trkpt lat="45.42522217339673" lon="11.119715007006338"><ele>56.0</ele><time>2026-04-20T14:26:12.947Z</time></trkpt><trkpt lat="45.425321711641246" lon="11.119729177907008"><ele>56.0</ele><time>2026-04-20T14:26:13.974Z</time></trkpt><trkpt lat="45.42542451610498" lon="11.11973504707535"><ele>56.199999999999996</ele><time>2026-04-20T14:26:14.97Z</time></trkpt><trkpt lat="45.42553094213506" lon="11.119737911985748"><ele>56.39999999999999</ele><time>2026-04-20T14:26:15.979Z</time></trkpt><trkpt lat="45.42564211403002" lon="11.119735800383989"><ele>56.6</ele><time>2026-04-20T14:26:16.953Z</time></trkpt><trkpt lat="45.425752595833664" lon="11.119733701886883"><ele>56.8</ele><time>2026-04-20T14:26:17.955Z</time></trkpt><trkpt lat="45.42586166666667" lon="11.119732837363474"><ele>57.0</ele><time>2026-04-20T14:26:18.951Z</time></trkpt><trkpt lat="45.425966216533205" lon="11.11973440162268"><ele>57.0</ele><time>2026-04-20T14:26:19.946Z</time></trkpt><trkpt lat="45.42606673353941" lon="11.11973987281299"><ele>57.0</ele><time>2026-04-20T14:26:20.945Z</time></trkpt><trkpt lat="45.42616683333333" lon="11.119726666666667"><ele>57.0</ele><time>2026-04-20T14:26:21.958Z</time></trkpt><trkpt lat="45.4262655" lon="11.119746666666668"><ele>57.0</ele><time>2026-04-20T14:26:22.948Z</time></trkpt><trkpt lat="45.42635992039141" lon="11.119796832566418"><ele>57.0</ele><time>2026-04-20T14:26:23.947Z</time></trkpt><trkpt lat="45.42645544360258" lon="11.119834133624769"><ele>57.6</ele><time>2026-04-20T14:26:24.947Z</time></trkpt><trkpt lat="45.42654972288545" lon="11.119874788184436"><ele>58.2</ele><time>2026-04-20T14:26:25.956Z</time></trkpt><trkpt lat="45.426641045735906" lon="11.119920477851036"><ele>58.8</ele><time>2026-04-20T14:26:26.972Z</time></trkpt><trkpt lat="45.426728879701926" lon="11.119969265135719"><ele>59.4</ele><time>2026-04-20T14:26:27.958Z</time></trkpt><trkpt lat="45.42681068597262" lon="11.120020127682078"><ele>60.0</ele><time>2026-04-20T14:26:28.946Z</time></trkpt><trkpt lat="45.42688868301906" lon="11.12007032790801"><ele>61.8</ele><time>2026-04-20T14:26:29.949Z</time></trkpt><trkpt lat="45.42696837027154" lon="11.120120092700155"><ele>63.6</ele><time>2026-04-20T14:26:30.997Z</time></trkpt><trkpt lat="45.42705616666667" lon="11.120148166666668"><ele>65.4</ele><time>2026-04-20T14:26:31.957Z</time></trkpt><trkpt lat="45.42713916666667" lon="11.120199166666664"><ele>67.2</ele><time>2026-04-20T14:26:32.963Z</time></trkpt><trkpt lat="45.42722566666666" lon="11.120243666666665"><ele>69.0</ele><time>2026-04-20T14:26:33.973Z</time></trkpt><trkpt lat="45.427315833333324" lon="11.120281833333337"><ele>70.0</ele><time>2026-04-20T14:26:34.954Z</time></trkpt><trkpt lat="45.42740883333333" lon="11.120313833333334"><ele>71.0</ele><time>2026-04-20T14:26:35.958Z</time></trkpt><trkpt lat="45.42750683333333" lon="11.120338166666667"><ele>72.0</ele><time>2026-04-20T14:26:36.948Z</time></trkpt><trkpt lat="45.427607666666674" lon="11.120356833333336"><ele>73.0</ele><time>2026-04-20T14:26:37.948Z</time></trkpt><trkpt lat="45.427716333333336" lon="11.120372833333333"><ele>74.0</ele><time>2026-04-20T14:26:39.49Z</time></trkpt><trkpt lat="45.42792826572221" lon="11.120426401241541"><ele>75.4</ele><time>2026-04-20T14:26:41.032Z</time></trkpt><trkpt lat="45.428035346531026" lon="11.12044328389644"><ele>76.80000000000001</ele><time>2026-04-20T14:26:42.035Z</time></trkpt><trkpt lat="45.42814198716035" lon="11.120458974151513"><ele>78.19999999999999</ele><time>2026-04-20T14:26:43.014Z</time></trkpt><trkpt lat="45.42825018591543" lon="11.120472972018208"><ele>79.6</ele><time>2026-04-20T14:26:44.029Z</time></trkpt><trkpt lat="45.428359500000006" lon="11.120459833333332"><ele>81.0</ele><time>2026-04-20T14:26:45.025Z</time></trkpt><trkpt lat="45.42846633333334" lon="11.120465999999999"><ele>81.0</ele><time>2026-04-20T14:26:46.035Z</time></trkpt><trkpt lat="45.42857333333333" lon="11.120470666666664"><ele>81.0</ele><time>2026-04-20T14:26:47.024Z</time></trkpt><trkpt lat="45.42867883333333" lon="11.120474999999999"><ele>81.0</ele><time>2026-04-20T14:26:48.035Z</time></trkpt><trkpt lat="45.42878316666667" lon="11.120479333333332"><ele>81.0</ele><time>2026-04-20T14:26:49.039Z</time></trkpt><trkpt lat="45.42888816666667" lon="11.120482833333332"><ele>81.0</ele><time>2026-04-20T14:26:50.052Z</time></trkpt><trkpt lat="45.42899250000001" lon="11.120486666666666"><ele>83.19999999999999</ele><time>2026-04-20T14:26:51.117Z</time></trkpt><trkpt lat="45.429097500000005" lon="11.120494166666667"><ele>85.39999999999999</ele><time>2026-04-20T14:26:52.039Z</time></trkpt><trkpt lat="45.4292025" lon="11.120501166666669"><ele>87.6</ele><time>2026-04-20T14:26:53.021Z</time></trkpt><trkpt lat="45.42930516296469" lon="11.120525632446482"><ele>89.8</ele><time>2026-04-20T14:26:54.038Z</time></trkpt><trkpt lat="45.429408628027126" lon="11.120526454910411"><ele>92.0</ele><time>2026-04-20T14:26:55.011Z</time></trkpt><trkpt lat="45.42951145996537" lon="11.12052431941561"><ele>92.0</ele><time>2026-04-20T14:26:56.002Z</time></trkpt><trkpt lat="45.42961398090116" lon="11.120529494908872"><ele>92.0</ele><time>2026-04-20T14:26:57.039Z</time></trkpt><trkpt lat="45.42971883333333" lon="11.120519999999999"><ele>92.0</ele><time>2026-04-20T14:26:58.03Z</time></trkpt><trkpt lat="45.429822" lon="11.120543999999999"><ele>92.0</ele><time>2026-04-20T14:26:59.039Z</time></trkpt><trkpt lat="45.429920506340736" lon="11.120601462177692"><ele>92.0</ele><time>2026-04-20T14:27:00.035Z</time></trkpt><trkpt lat="45.43002082256513" lon="11.120643149692215"><ele>93.0</ele><time>2026-04-20T14:27:01.031Z</time></trkpt><trkpt lat="45.43012347635674" lon="11.120694375719951"><ele>94.0</ele><time>2026-04-20T14:27:02.016Z</time></trkpt><trkpt lat="45.4302268674749" lon="11.120750996235806"><ele>95.0</ele><time>2026-04-20T14:27:03.038Z</time></trkpt><trkpt lat="45.43032995503236" lon="11.12081028501736"><ele>96.0</ele><time>2026-04-20T14:27:04.031Z</time></trkpt><trkpt lat="45.43043632360116" lon="11.120870572191857"><ele>97.0</ele><time>2026-04-20T14:27:05.024Z</time></trkpt><trkpt lat="45.43054410343566" lon="11.120927452138547"><ele>101.25</ele><time>2026-04-20T14:27:06.039Z</time></trkpt><trkpt lat="45.43065265025717" lon="11.120981557404543"><ele>105.5</ele><time>2026-04-20T14:27:07.018Z</time></trkpt><trkpt lat="45.43076123884208" lon="11.121035683515645"><ele>109.75</ele><time>2026-04-20T14:27:08.028Z</time></trkpt><trkpt lat="45.430870653228894" lon="11.121089259143135"><ele>114.0</ele><time>2026-04-20T14:27:09.017Z</time></trkpt><trkpt lat="45.43098176536027" lon="11.121134164156897"><ele>114.0</ele><time>2026-04-20T14:27:10.031Z</time></trkpt><trkpt lat="45.431093147193835" lon="11.121175257370874"><ele>114.0</ele><time>2026-04-20T14:27:11.036Z</time></trkpt><trkpt lat="45.43120687626133" lon="11.121212331113298"><ele>114.0</ele><time>2026-04-20T14:27:12.036Z</time></trkpt><trkpt lat="45.43131963544708" lon="11.121248031835902"><ele>114.0</ele><time>2026-04-20T14:27:13.032Z</time></trkpt><trkpt lat="45.43143438470815" lon="11.12128262829333"><ele>115.5</ele><time>2026-04-20T14:27:14.05Z</time></trkpt><trkpt lat="45.43155009474434" lon="11.12131632795247"><ele>117.0</ele><time>2026-04-20T14:27:15.039Z</time></trkpt><trkpt lat="45.431665723730724" lon="11.121350097749986"><ele>118.5</ele><time>2026-04-20T14:27:16.044Z</time></trkpt><trkpt lat="45.43177888996434" lon="11.12138888423811"><ele>120.0</ele><time>2026-04-20T14:27:17.033Z</time></trkpt><trkpt lat="45.43189044292593" lon="11.121437235521034"><ele>120.0</ele><time>2026-04-20T14:27:18.038Z</time></trkpt><trkpt lat="45.43200003422617" lon="11.121491841888746"><ele>120.0</ele><time>2026-04-20T14:27:19.029Z</time></trkpt><trkpt lat="45.43211233333333" lon="11.121537333333332"><ele>120.0</ele><time>2026-04-20T14:27:20.035Z</time></trkpt><trkpt lat="45.432202435771984" lon="11.121644976179605"><ele>120.0</ele><time>2026-04-20T14:27:21.044Z</time></trkpt><trkpt lat="45.43229795062887" lon="11.121740163424887"><ele>123.0</ele><time>2026-04-20T14:27:22.034Z</time></trkpt><trkpt lat="45.43239177179074" lon="11.121836545202873"><ele>126.0</ele><time>2026-04-20T14:27:23.033Z</time></trkpt><trkpt lat="45.43248690461028" lon="11.121934478701792"><ele>129.0</ele><time>2026-04-20T14:27:24.011Z</time></trkpt><trkpt lat="45.43257827652524" lon="11.122028606037759"><ele>132.0</ele><time>2026-04-20T14:27:25.029Z</time></trkpt><trkpt lat="45.432663312324195" lon="11.122116211662194"><ele>132.0</ele><time>2026-04-20T14:27:26.034Z</time></trkpt><trkpt lat="45.4327406396747" lon="11.122195876067867"><ele>132.0</ele><time>2026-04-20T14:27:27.033Z</time></trkpt><trkpt lat="45.432810916925476" lon="11.122268277287427"><ele>132.0</ele><time>2026-04-20T14:27:28.027Z</time></trkpt><trkpt lat="45.43287403954852" lon="11.12233330762474"><ele>132.0</ele><time>2026-04-20T14:27:29.02Z</time></trkpt><trkpt lat="45.43292854374286" lon="11.12238945909068"><ele>132.0</ele><time>2026-04-20T14:27:30.016Z</time></trkpt><trkpt lat="45.43299789390671" lon="11.122460905171566"><ele>132.0</ele><time>2026-04-20T14:27:32.032Z</time></trkpt><trkpt lat="45.433054201191496" lon="11.12251891424905"><ele>132.83333333333334</ele><time>2026-04-20T14:27:35.064Z</time></trkpt><trkpt lat="45.43312738531825" lon="11.122594310181816"><ele>133.66666666666666</ele><time>2026-04-20T14:27:38.016Z</time></trkpt><trkpt lat="45.433186244304565" lon="11.12265417933911"><ele>134.5</ele><time>2026-04-20T14:27:40.037Z</time></trkpt><trkpt lat="45.43317954929224" lon="11.122765778527596"><ele>135.33333333333331</ele><time>2026-04-20T14:27:44.032Z</time></trkpt><trkpt lat="45.43314546283131" lon="11.122874261168581"><ele>136.16666666666666</ele><time>2026-04-20T14:27:47.031Z</time></trkpt><trkpt lat="45.43311943584086" lon="11.122957093805812"><ele>137.0</ele><time>2026-04-20T14:27:49.027Z</time></trkpt><trkpt lat="45.433090434273254" lon="11.123049393322257"><ele>137.0</ele><time>2026-04-20T14:27:51.031Z</time></trkpt><trkpt lat="45.4330615" lon="11.1231555"><ele>137.0</ele><time>2026-04-20T14:27:54.065Z</time></trkpt><trkpt lat="45.43300455357112" lon="11.123111937598933"><ele>137.0</ele><time>2026-04-20T14:27:56.033Z</time></trkpt><trkpt lat="45.432918946038306" lon="11.123069412117706"><ele>137.0</ele><time>2026-04-20T14:27:58.029Z</time></trkpt><trkpt lat="45.43280216666667" lon="11.123025833333335"><ele>137.0</ele><time>2026-04-20T14:28:00.031Z</time></trkpt><trkpt lat="45.432743499999994" lon="11.122990666666665"><ele>137.0</ele><time>2026-04-20T14:28:01.028Z</time></trkpt><trkpt lat="45.432685166666666" lon="11.122954166666668"><ele>137.4</ele><time>2026-04-20T14:28:02.017Z</time></trkpt><trkpt lat="45.43258372407864" lon="11.122865734590372"><ele>137.79999999999998</ele><time>2026-04-20T14:28:04.03Z</time></trkpt><trkpt lat="45.43250062264305" lon="11.122809229895276"><ele>138.2</ele><time>2026-04-20T14:28:06.015Z</time></trkpt><trkpt lat="45.43242418903052" lon="11.122745290488634"><ele>138.6</ele><time>2026-04-20T14:28:08.026Z</time></trkpt><trkpt lat="45.43233443318768" lon="11.122670026614072"><ele>139.0</ele><time>2026-04-20T14:28:10.028Z</time></trkpt><trkpt lat="45.43223373184402" lon="11.122595805863378"><ele>138.0</ele><time>2026-04-20T14:28:12.025Z</time></trkpt><trkpt lat="45.432127272595565" lon="11.122527660234214"><ele>137.0</ele><time>2026-04-20T14:28:14.03Z</time></trkpt><trkpt lat="45.43206779724397" lon="11.122491582192625"><ele>136.0</ele><time>2026-04-20T14:28:15.035Z</time></trkpt><trkpt lat="45.43200257730113" lon="11.122454115210749"><ele>135.0</ele><time>2026-04-20T14:28:16.028Z</time></trkpt><trkpt lat="45.431934991742835" lon="11.122415702910295"><ele>134.0</ele><time>2026-04-20T14:28:17.026Z</time></trkpt><trkpt lat="45.43186487943402" lon="11.122377404193138"><ele>133.0</ele><time>2026-04-20T14:28:18.027Z</time></trkpt><trkpt lat="45.431799559388764" lon="11.12234203752649"><ele>132.20000000000002</ele><time>2026-04-20T14:28:19.031Z</time></trkpt><trkpt lat="45.431738324593084" lon="11.122308882778016"><ele>131.4</ele><time>2026-04-20T14:28:20.026Z</time></trkpt><trkpt lat="45.431679056786265" lon="11.122276493233668"><ele>130.60000000000002</ele><time>2026-04-20T14:28:21.043Z</time></trkpt><trkpt lat="45.431563833333335" lon="11.122228666666668"><ele>129.8</ele><time>2026-04-20T14:28:23.036Z</time></trkpt><trkpt lat="45.43145983333334" lon="11.122177166666665"><ele>129.0</ele><time>2026-04-20T14:28:25.014Z</time></trkpt><trkpt lat="45.43135953685812" lon="11.122117755623865"><ele>128.4</ele><time>2026-04-20T14:28:27.085Z</time></trkpt><trkpt lat="45.43125933409551" lon="11.122101996513566"><ele>127.80000000000001</ele><time>2026-04-20T14:28:29.032Z</time></trkpt><trkpt lat="45.43116447108689" lon="11.122096810390033"><ele>127.19999999999999</ele><time>2026-04-20T14:28:31.03Z</time></trkpt><trkpt lat="45.43107454703217" lon="11.122089838705968"><ele>126.6</ele><time>2026-04-20T14:28:33.034Z</time></trkpt><trkpt lat="45.430992609237826" lon="11.122082747256524"><ele>126.0</ele><time>2026-04-20T14:28:35.033Z</time></trkpt><trkpt lat="45.430888917222305" lon="11.12222596528816"><ele>126.0</ele><time>2026-04-20T14:28:37.111Z</time></trkpt><trkpt lat="45.43088175587019" lon="11.122337477371525"><ele>126.0</ele><time>2026-04-20T14:28:39.045Z</time></trkpt><trkpt lat="45.430860904809514" lon="11.122473993345658"><ele>126.0</ele><time>2026-04-20T14:28:41.027Z</time></trkpt><trkpt lat="45.4308304265033" lon="11.122629619207599"><ele>126.0</ele><time>2026-04-20T14:28:43.041Z</time></trkpt><trkpt lat="45.43086133333333" lon="11.122721333333335"><ele>126.0</ele><time>2026-04-20T14:28:44.014Z</time></trkpt><trkpt lat="45.43082016666667" lon="11.122829500000002"><ele>126.0</ele><time>2026-04-20T14:28:46.032Z</time></trkpt><trkpt lat="45.430741999999995" lon="11.122865500000001"><ele>126.83333333333333</ele><time>2026-04-20T14:28:48.038Z</time></trkpt><trkpt lat="45.43067306845759" lon="11.122796889226528"><ele>127.66666666666666</ele><time>2026-04-20T14:28:50.032Z</time></trkpt><trkpt lat="45.430599645693626" lon="11.122777146860434"><ele>128.5</ele><time>2026-04-20T14:28:52.051Z</time></trkpt><trkpt lat="45.43053101506678" lon="11.122763043240587"><ele>129.33333333333331</ele><time>2026-04-20T14:28:54.036Z</time></trkpt><trkpt lat="45.43044629318982" lon="11.122818184854003"><ele>130.16666666666666</ele><time>2026-04-20T14:28:56.038Z</time></trkpt><trkpt lat="45.43041113360647" lon="11.12296060330402"><ele>131.0</ele><time>2026-04-20T14:28:58.043Z</time></trkpt><trkpt lat="45.430381672892665" lon="11.123093857192861"><ele>131.0</ele><time>2026-04-20T14:29:00.038Z</time></trkpt><trkpt lat="45.430349259706844" lon="11.123240465611943"><ele>131.0</ele><time>2026-04-20T14:29:02.022Z</time></trkpt><trkpt lat="45.43031828920453" lon="11.123380548468566"><ele>131.0</ele><time>2026-04-20T14:29:04.059Z</time></trkpt><trkpt lat="45.43029060075846" lon="11.123483486588968"><ele>131.0</ele><time>2026-04-20T14:29:06.011Z</time></trkpt><trkpt lat="45.43026083333333" lon="11.123584166666669"><ele>131.0</ele><time>2026-04-20T14:29:08.034Z</time></trkpt><trkpt lat="45.430170333333336" lon="11.123585666666667"><ele>131.0</ele><time>2026-04-20T14:29:10.028Z</time></trkpt><trkpt lat="45.43008829703809" lon="11.123507815772163"><ele>131.0</ele><time>2026-04-20T14:29:12.027Z</time></trkpt><trkpt lat="45.42999616940298" lon="11.123470690829182"><ele>131.0</ele><time>2026-04-20T14:29:14.035Z</time></trkpt><trkpt lat="45.42990956279911" lon="11.123434755211704"><ele>131.0</ele><time>2026-04-20T14:29:16.028Z</time></trkpt><trkpt lat="45.429840100565436" lon="11.123405933275556"><ele>131.0</ele><time>2026-04-20T14:29:18.044Z</time></trkpt><trkpt lat="45.42978748281505" lon="11.123342225326605"><ele>131.0</ele><time>2026-04-20T14:29:21.046Z</time></trkpt><trkpt lat="45.42980768456508" lon="11.123223716971413"><ele>131.0</ele><time>2026-04-20T14:29:24.019Z</time></trkpt><trkpt lat="45.42981783333333" lon="11.123128000000001"><ele>131.0</ele><time>2026-04-20T14:29:42.014Z</time></trkpt><trkpt lat="45.42983930929405" lon="11.123038199874053"><ele>131.0</ele><time>2026-04-20T14:29:57.038Z</time></trkpt><trkpt lat="45.42990073100379" lon="11.123062198411366"><ele>131.0</ele><time>2026-04-20T14:37:39.001Z</time></trkpt><trkpt lat="45.429876831335186" lon="11.123150871789537"><ele>131.0</ele><time>2026-04-20T14:38:15Z</time></trkpt><trkpt lat="45.429876564040924" lon="11.123041993656592"><ele>131.0</ele><time>2026-04-20T14:38:26Z</time></trkpt><trkpt lat="45.429980738611505" lon="11.123010417241408"><ele>131.0</ele><time>2026-04-20T14:43:02.999Z</time></trkpt><trkpt lat="45.42986916395306" lon="11.122974659411893"><ele>131.0</ele><time>2026-04-20T14:43:09.001Z</time></trkpt><trkpt lat="45.429940126441466" lon="11.1230403104249"><ele>131.0</ele><time>2026-04-20T14:45:06Z</time></trkpt><trkpt lat="45.42987006968295" lon="11.123039033579042"><ele>131.0</ele><time>2026-04-20T14:45:41Z</time></trkpt></trkseg></trk></gpx>